<?xml version="1.0" encoding="UTF-8" standalone="no" ?>
<gpx xmlns="http://www.topografix.com/GPX/1/1" xmlns:xsi="http://www.w3.org/2001/XMLSchema-instance" xsi:schemaLocation="http://www.topografix.com/GPX/1/1 http://www.topografix.com/GPX/1/1/gpx.xsd" version="1.1" creator="VisuGPX - https://www.visugpx.com">
  <metadata>
    <name>Entre le col du Cayron et Montmirail</name>
    <desc><![CDATA[Balade entre le cpl du Cayron et Montmirail sur le sentier du tour des dentelles.]]></desc>
  </metadata>
  <trk>
    <name><![CDATA[2018-12-10 14:56:34]]></name>
    <trkseg>
      <trkpt lat="44.15873" lon="5.02422">
        <ele>415.43</ele>
        <time>2018-12-10T08:24:46Z</time>
      </trkpt>
      <trkpt lat="44.15873" lon="5.02422">
        <ele>415.43</ele>
        <time>2018-12-10T08:24:47Z</time>
      </trkpt>
      <trkpt lat="44.15873" lon="5.02423">
        <ele>403.41</ele>
        <time>2018-12-10T08:24:50Z</time>
      </trkpt>
      <trkpt lat="44.15873" lon="5.02424">
        <ele>403.41</ele>
        <time>2018-12-10T08:24:51Z</time>
      </trkpt>
      <trkpt lat="44.15878" lon="5.0242">
        <ele>403.41</ele>
        <time>2018-12-10T08:25:17Z</time>
      </trkpt>
      <trkpt lat="44.15875" lon="5.02409">
        <ele>401.97</ele>
        <time>2018-12-10T08:25:33Z</time>
      </trkpt>
      <trkpt lat="44.15875" lon="5.02404">
        <ele>401.49</ele>
        <time>2018-12-10T08:25:55Z</time>
      </trkpt>
      <trkpt lat="44.15877" lon="5.02413">
        <ele>403.41</ele>
        <time>2018-12-10T08:26:16Z</time>
      </trkpt>
      <trkpt lat="44.15873" lon="5.02421">
        <ele>403.41</ele>
        <time>2018-12-10T08:26:32Z</time>
      </trkpt>
      <trkpt lat="44.15872" lon="5.02423">
        <ele>403.89</ele>
        <time>2018-12-10T08:26:54Z</time>
      </trkpt>
      <trkpt lat="44.15871" lon="5.02425">
        <ele>402.93</ele>
        <time>2018-12-10T08:27:26Z</time>
      </trkpt>
      <trkpt lat="44.15872" lon="5.02423">
        <ele>402.93</ele>
        <time>2018-12-10T08:27:44Z</time>
      </trkpt>
      <trkpt lat="44.15873" lon="5.02426">
        <ele>402.45</ele>
        <time>2018-12-10T08:28:05Z</time>
      </trkpt>
      <trkpt lat="44.15875" lon="5.02425">
        <ele>400.53</ele>
        <time>2018-12-10T08:28:27Z</time>
      </trkpt>
      <trkpt lat="44.15875" lon="5.02425">
        <ele>400.53</ele>
        <time>2018-12-10T08:28:28Z</time>
      </trkpt>
      <trkpt lat="44.15875" lon="5.02426">
        <ele>403.89</ele>
        <time>2018-12-10T08:28:29Z</time>
      </trkpt>
      <trkpt lat="44.15875" lon="5.02426">
        <ele>403.89</ele>
        <time>2018-12-10T08:28:30Z</time>
      </trkpt>
      <trkpt lat="44.15877" lon="5.02423">
        <ele>402.45</ele>
        <time>2018-12-10T08:28:34Z</time>
      </trkpt>
      <trkpt lat="44.15876" lon="5.02422">
        <ele>401.97</ele>
        <time>2018-12-10T08:28:54Z</time>
      </trkpt>
      <trkpt lat="44.1588" lon="5.02427">
        <ele>401.97</ele>
        <time>2018-12-10T08:29:11Z</time>
      </trkpt>
      <trkpt lat="44.15876" lon="5.02431">
        <ele>403.41</ele>
        <time>2018-12-10T08:29:16Z</time>
      </trkpt>
      <trkpt lat="44.15872" lon="5.02434">
        <ele>401.01</ele>
        <time>2018-12-10T08:29:23Z</time>
      </trkpt>
      <trkpt lat="44.15861" lon="5.02421">
        <ele>402.93</ele>
        <time>2018-12-10T08:29:39Z</time>
      </trkpt>
      <trkpt lat="44.1585" lon="5.02397">
        <ele>403.41</ele>
        <time>2018-12-10T08:30:00Z</time>
      </trkpt>
      <trkpt lat="44.15841" lon="5.02379">
        <ele>401.01</ele>
        <time>2018-12-10T08:30:15Z</time>
      </trkpt>
      <trkpt lat="44.15835" lon="5.02356">
        <ele>403.41</ele>
        <time>2018-12-10T08:30:26Z</time>
      </trkpt>
      <trkpt lat="44.15825" lon="5.0232">
        <ele>403.41</ele>
        <time>2018-12-10T08:30:53Z</time>
      </trkpt>
      <trkpt lat="44.15824" lon="5.02318">
        <ele>403.41</ele>
        <time>2018-12-10T08:30:54Z</time>
      </trkpt>
      <trkpt lat="44.15816" lon="5.02288">
        <ele>402.45</ele>
        <time>2018-12-10T08:31:14Z</time>
      </trkpt>
      <trkpt lat="44.15815" lon="5.02287">
        <ele>402.45</ele>
        <time>2018-12-10T08:31:15Z</time>
      </trkpt>
      <trkpt lat="44.15814" lon="5.02281">
        <ele>403.89</ele>
        <time>2018-12-10T08:31:19Z</time>
      </trkpt>
      <trkpt lat="44.15812" lon="5.02263">
        <ele>403.89</ele>
        <time>2018-12-10T08:31:31Z</time>
      </trkpt>
      <trkpt lat="44.1581" lon="5.02255">
        <ele>404.37</ele>
        <time>2018-12-10T08:31:36Z</time>
      </trkpt>
      <trkpt lat="44.15808" lon="5.02241">
        <ele>403.89</ele>
        <time>2018-12-10T08:31:45Z</time>
      </trkpt>
      <trkpt lat="44.15808" lon="5.02239">
        <ele>403.89</ele>
        <time>2018-12-10T08:31:46Z</time>
      </trkpt>
      <trkpt lat="44.15807" lon="5.0223">
        <ele>405.33</ele>
        <time>2018-12-10T08:31:51Z</time>
      </trkpt>
      <trkpt lat="44.15799" lon="5.02197">
        <ele>406.29</ele>
        <time>2018-12-10T08:32:13Z</time>
      </trkpt>
      <trkpt lat="44.15789" lon="5.0217">
        <ele>406.29</ele>
        <time>2018-12-10T08:32:32Z</time>
      </trkpt>
      <trkpt lat="44.1578" lon="5.02151">
        <ele>406.77</ele>
        <time>2018-12-10T08:32:48Z</time>
      </trkpt>
      <trkpt lat="44.15771" lon="5.02138">
        <ele>407.26</ele>
        <time>2018-12-10T08:33:01Z</time>
      </trkpt>
      <trkpt lat="44.15757" lon="5.02126">
        <ele>407.26</ele>
        <time>2018-12-10T08:33:19Z</time>
      </trkpt>
      <trkpt lat="44.15745" lon="5.02114">
        <ele>407.74</ele>
        <time>2018-12-10T08:33:34Z</time>
      </trkpt>
      <trkpt lat="44.15742" lon="5.0211">
        <ele>409.18</ele>
        <time>2018-12-10T08:33:38Z</time>
      </trkpt>
      <trkpt lat="44.15729" lon="5.02077">
        <ele>410.62</ele>
        <time>2018-12-10T08:34:00Z</time>
      </trkpt>
      <trkpt lat="44.15724" lon="5.02053">
        <ele>410.62</ele>
        <time>2018-12-10T08:34:17Z</time>
      </trkpt>
      <trkpt lat="44.15713" lon="5.02031">
        <ele>412.06</ele>
        <time>2018-12-10T08:34:35Z</time>
      </trkpt>
      <trkpt lat="44.15705" lon="5.02006">
        <ele>413.5</ele>
        <time>2018-12-10T08:34:53Z</time>
      </trkpt>
      <trkpt lat="44.15701" lon="5.01976">
        <ele>413.5</ele>
        <time>2018-12-10T08:35:13Z</time>
      </trkpt>
      <trkpt lat="44.15698" lon="5.01966">
        <ele>413.5</ele>
        <time>2018-12-10T08:35:20Z</time>
      </trkpt>
      <trkpt lat="44.15693" lon="5.01941">
        <ele>414.95</ele>
        <time>2018-12-10T08:35:36Z</time>
      </trkpt>
      <trkpt lat="44.15691" lon="5.01915">
        <ele>415.91</ele>
        <time>2018-12-10T08:35:54Z</time>
      </trkpt>
      <trkpt lat="44.15691" lon="5.01888">
        <ele>416.87</ele>
        <time>2018-12-10T08:36:11Z</time>
      </trkpt>
      <trkpt lat="44.15692" lon="5.01863">
        <ele>418.31</ele>
        <time>2018-12-10T08:36:28Z</time>
      </trkpt>
      <trkpt lat="44.15691" lon="5.01843">
        <ele>418.79</ele>
        <time>2018-12-10T08:36:41Z</time>
      </trkpt>
      <trkpt lat="44.15687" lon="5.01814">
        <ele>419.27</ele>
        <time>2018-12-10T08:37:00Z</time>
      </trkpt>
      <trkpt lat="44.15679" lon="5.0179">
        <ele>419.27</ele>
        <time>2018-12-10T08:37:17Z</time>
      </trkpt>
      <trkpt lat="44.15678" lon="5.0179">
        <ele>419.27</ele>
        <time>2018-12-10T08:37:18Z</time>
      </trkpt>
      <trkpt lat="44.1567" lon="5.01778">
        <ele>420.71</ele>
        <time>2018-12-10T08:37:35Z</time>
      </trkpt>
      <trkpt lat="44.15663" lon="5.01757">
        <ele>420.71</ele>
        <time>2018-12-10T08:37:49Z</time>
      </trkpt>
      <trkpt lat="44.15663" lon="5.01752">
        <ele>420.71</ele>
        <time>2018-12-10T08:37:53Z</time>
      </trkpt>
      <trkpt lat="44.15671" lon="5.01721">
        <ele>421.19</ele>
        <time>2018-12-10T08:38:13Z</time>
      </trkpt>
      <trkpt lat="44.15672" lon="5.01719">
        <ele>421.19</ele>
        <time>2018-12-10T08:38:14Z</time>
      </trkpt>
      <trkpt lat="44.15675" lon="5.0169">
        <ele>422.64</ele>
        <time>2018-12-10T08:38:32Z</time>
      </trkpt>
      <trkpt lat="44.15673" lon="5.01662">
        <ele>422.64</ele>
        <time>2018-12-10T08:38:51Z</time>
      </trkpt>
      <trkpt lat="44.15667" lon="5.01631">
        <ele>422.64</ele>
        <time>2018-12-10T08:39:10Z</time>
      </trkpt>
      <trkpt lat="44.15659" lon="5.01605">
        <ele>424.08</ele>
        <time>2018-12-10T08:39:29Z</time>
      </trkpt>
      <trkpt lat="44.15652" lon="5.01582">
        <ele>424.56</ele>
        <time>2018-12-10T08:39:45Z</time>
      </trkpt>
      <trkpt lat="44.15649" lon="5.01567">
        <ele>426</ele>
        <time>2018-12-10T08:40:02Z</time>
      </trkpt>
      <trkpt lat="44.15649" lon="5.01556">
        <ele>426</ele>
        <time>2018-12-10T08:40:09Z</time>
      </trkpt>
      <trkpt lat="44.15651" lon="5.01533">
        <ele>426.96</ele>
        <time>2018-12-10T08:40:25Z</time>
      </trkpt>
      <trkpt lat="44.15647" lon="5.01505">
        <ele>427.44</ele>
        <time>2018-12-10T08:40:43Z</time>
      </trkpt>
      <trkpt lat="44.15645" lon="5.01487">
        <ele>426</ele>
        <time>2018-12-10T08:40:54Z</time>
      </trkpt>
      <trkpt lat="44.15646" lon="5.01481">
        <ele>426.96</ele>
        <time>2018-12-10T08:40:58Z</time>
      </trkpt>
      <trkpt lat="44.15646" lon="5.01454">
        <ele>427.44</ele>
        <time>2018-12-10T08:41:16Z</time>
      </trkpt>
      <trkpt lat="44.15647" lon="5.01426">
        <ele>428.4</ele>
        <time>2018-12-10T08:41:33Z</time>
      </trkpt>
      <trkpt lat="44.15649" lon="5.01396">
        <ele>429.85</ele>
        <time>2018-12-10T08:41:52Z</time>
      </trkpt>
      <trkpt lat="44.15654" lon="5.01366">
        <ele>430.33</ele>
        <time>2018-12-10T08:42:10Z</time>
      </trkpt>
      <trkpt lat="44.15658" lon="5.01333">
        <ele>432.25</ele>
        <time>2018-12-10T08:42:29Z</time>
      </trkpt>
      <trkpt lat="44.15662" lon="5.01311">
        <ele>431.29</ele>
        <time>2018-12-10T08:42:43Z</time>
      </trkpt>
      <trkpt lat="44.15664" lon="5.01298">
        <ele>432.73</ele>
        <time>2018-12-10T08:42:51Z</time>
      </trkpt>
      <trkpt lat="44.15671" lon="5.0127">
        <ele>433.21</ele>
        <time>2018-12-10T08:43:09Z</time>
      </trkpt>
      <trkpt lat="44.15678" lon="5.0125">
        <ele>432.73</ele>
        <time>2018-12-10T08:43:23Z</time>
      </trkpt>
      <trkpt lat="44.15688" lon="5.01224">
        <ele>434.65</ele>
        <time>2018-12-10T08:43:41Z</time>
      </trkpt>
      <trkpt lat="44.15694" lon="5.01204">
        <ele>434.65</ele>
        <time>2018-12-10T08:43:54Z</time>
      </trkpt>
      <trkpt lat="44.15703" lon="5.01183">
        <ele>435.13</ele>
        <time>2018-12-10T08:44:10Z</time>
      </trkpt>
      <trkpt lat="44.15708" lon="5.01173">
        <ele>436.1</ele>
        <time>2018-12-10T08:44:20Z</time>
      </trkpt>
      <trkpt lat="44.1571" lon="5.01168">
        <ele>436.1</ele>
        <time>2018-12-10T08:44:23Z</time>
      </trkpt>
      <trkpt lat="44.15715" lon="5.01153">
        <ele>436.58</ele>
        <time>2018-12-10T08:44:33Z</time>
      </trkpt>
      <trkpt lat="44.15715" lon="5.01131">
        <ele>434.65</ele>
        <time>2018-12-10T08:44:49Z</time>
      </trkpt>
      <trkpt lat="44.1571" lon="5.0112">
        <ele>433.21</ele>
        <time>2018-12-10T08:45:06Z</time>
      </trkpt>
      <trkpt lat="44.15695" lon="5.01104">
        <ele>431.29</ele>
        <time>2018-12-10T08:45:25Z</time>
      </trkpt>
      <trkpt lat="44.15678" lon="5.01089">
        <ele>428.89</ele>
        <time>2018-12-10T08:45:46Z</time>
      </trkpt>
      <trkpt lat="44.15669" lon="5.01083">
        <ele>428.4</ele>
        <time>2018-12-10T08:45:54Z</time>
      </trkpt>
      <trkpt lat="44.15654" lon="5.01068">
        <ele>426.48</ele>
        <time>2018-12-10T08:46:11Z</time>
      </trkpt>
      <trkpt lat="44.1564" lon="5.01054">
        <ele>423.6</ele>
        <time>2018-12-10T08:46:28Z</time>
      </trkpt>
      <trkpt lat="44.1564" lon="5.01054">
        <ele>423.6</ele>
        <time>2018-12-10T08:46:29Z</time>
      </trkpt>
      <trkpt lat="44.15631" lon="5.01045">
        <ele>422.64</ele>
        <time>2018-12-10T08:46:39Z</time>
      </trkpt>
      <trkpt lat="44.15627" lon="5.0104">
        <ele>422.64</ele>
        <time>2018-12-10T08:46:43Z</time>
      </trkpt>
      <trkpt lat="44.15608" lon="5.0103">
        <ele>420.71</ele>
        <time>2018-12-10T08:47:03Z</time>
      </trkpt>
      <trkpt lat="44.15604" lon="5.01029">
        <ele>422.16</ele>
        <time>2018-12-10T08:47:08Z</time>
      </trkpt>
      <trkpt lat="44.15601" lon="5.01029">
        <ele>422.16</ele>
        <time>2018-12-10T08:47:12Z</time>
      </trkpt>
      <trkpt lat="44.15592" lon="5.01026">
        <ele>420.23</ele>
        <time>2018-12-10T08:47:20Z</time>
      </trkpt>
      <trkpt lat="44.15575" lon="5.01026">
        <ele>418.31</ele>
        <time>2018-12-10T08:47:34Z</time>
      </trkpt>
      <trkpt lat="44.15555" lon="5.0103">
        <ele>415.91</ele>
        <time>2018-12-10T08:47:53Z</time>
      </trkpt>
      <trkpt lat="44.1554" lon="5.01033">
        <ele>413.98</ele>
        <time>2018-12-10T08:48:10Z</time>
      </trkpt>
      <trkpt lat="44.15532" lon="5.0104">
        <ele>413.02</ele>
        <time>2018-12-10T08:48:29Z</time>
      </trkpt>
      <trkpt lat="44.15526" lon="5.0104">
        <ele>411.58</ele>
        <time>2018-12-10T08:48:48Z</time>
      </trkpt>
      <trkpt lat="44.15513" lon="5.01047">
        <ele>410.62</ele>
        <time>2018-12-10T08:49:04Z</time>
      </trkpt>
      <trkpt lat="44.15505" lon="5.01056">
        <ele>410.62</ele>
        <time>2018-12-10T08:49:14Z</time>
      </trkpt>
      <trkpt lat="44.15485" lon="5.01067">
        <ele>410.14</ele>
        <time>2018-12-10T08:49:33Z</time>
      </trkpt>
      <trkpt lat="44.15469" lon="5.01076">
        <ele>410.14</ele>
        <time>2018-12-10T08:49:50Z</time>
      </trkpt>
      <trkpt lat="44.15455" lon="5.01092">
        <ele>409.66</ele>
        <time>2018-12-10T08:50:07Z</time>
      </trkpt>
      <trkpt lat="44.15443" lon="5.01104">
        <ele>411.1</ele>
        <time>2018-12-10T08:50:18Z</time>
      </trkpt>
      <trkpt lat="44.15425" lon="5.01116">
        <ele>411.58</ele>
        <time>2018-12-10T08:50:35Z</time>
      </trkpt>
      <trkpt lat="44.15404" lon="5.01127">
        <ele>412.54</ele>
        <time>2018-12-10T08:50:52Z</time>
      </trkpt>
      <trkpt lat="44.15385" lon="5.01134">
        <ele>414.47</ele>
        <time>2018-12-10T08:51:11Z</time>
      </trkpt>
      <trkpt lat="44.1536" lon="5.01139">
        <ele>414.95</ele>
        <time>2018-12-10T08:51:32Z</time>
      </trkpt>
      <trkpt lat="44.15341" lon="5.01141">
        <ele>417.83</ele>
        <time>2018-12-10T08:51:53Z</time>
      </trkpt>
      <trkpt lat="44.15317" lon="5.01142">
        <ele>419.27</ele>
        <time>2018-12-10T08:52:15Z</time>
      </trkpt>
      <trkpt lat="44.15301" lon="5.0115">
        <ele>420.71</ele>
        <time>2018-12-10T08:52:33Z</time>
      </trkpt>
      <trkpt lat="44.15297" lon="5.01153">
        <ele>420.71</ele>
        <time>2018-12-10T08:52:37Z</time>
      </trkpt>
      <trkpt lat="44.15283" lon="5.01165">
        <ele>423.6</ele>
        <time>2018-12-10T08:52:54Z</time>
      </trkpt>
      <trkpt lat="44.1527" lon="5.01178">
        <ele>424.56</ele>
        <time>2018-12-10T08:53:10Z</time>
      </trkpt>
      <trkpt lat="44.15257" lon="5.01194">
        <ele>426.96</ele>
        <time>2018-12-10T08:53:28Z</time>
      </trkpt>
      <trkpt lat="44.15245" lon="5.01208">
        <ele>428.4</ele>
        <time>2018-12-10T08:53:44Z</time>
      </trkpt>
      <trkpt lat="44.15234" lon="5.01228">
        <ele>429.85</ele>
        <time>2018-12-10T08:54:02Z</time>
      </trkpt>
      <trkpt lat="44.15223" lon="5.01249">
        <ele>432.25</ele>
        <time>2018-12-10T08:54:20Z</time>
      </trkpt>
      <trkpt lat="44.15215" lon="5.01269">
        <ele>433.21</ele>
        <time>2018-12-10T08:54:38Z</time>
      </trkpt>
      <trkpt lat="44.15213" lon="5.01292">
        <ele>434.65</ele>
        <time>2018-12-10T08:54:54Z</time>
      </trkpt>
      <trkpt lat="44.15213" lon="5.0132">
        <ele>436.1</ele>
        <time>2018-12-10T08:55:14Z</time>
      </trkpt>
      <trkpt lat="44.15213" lon="5.01344">
        <ele>438.02</ele>
        <time>2018-12-10T08:55:31Z</time>
      </trkpt>
      <trkpt lat="44.15212" lon="5.01366">
        <ele>438.5</ele>
        <time>2018-12-10T08:55:47Z</time>
      </trkpt>
      <trkpt lat="44.15214" lon="5.0139">
        <ele>439.46</ele>
        <time>2018-12-10T08:56:04Z</time>
      </trkpt>
      <trkpt lat="44.15218" lon="5.01415">
        <ele>440.9</ele>
        <time>2018-12-10T08:56:23Z</time>
      </trkpt>
      <trkpt lat="44.15224" lon="5.01438">
        <ele>440.9</ele>
        <time>2018-12-10T08:56:42Z</time>
      </trkpt>
      <trkpt lat="44.15223" lon="5.01445">
        <ele>441.38</ele>
        <time>2018-12-10T08:57:04Z</time>
      </trkpt>
      <trkpt lat="44.15222" lon="5.01451">
        <ele>441.38</ele>
        <time>2018-12-10T08:57:30Z</time>
      </trkpt>
      <trkpt lat="44.15225" lon="5.01466">
        <ele>441.86</ele>
        <time>2018-12-10T08:57:47Z</time>
      </trkpt>
      <trkpt lat="44.1523" lon="5.01482">
        <ele>441.86</ele>
        <time>2018-12-10T08:58:02Z</time>
      </trkpt>
      <trkpt lat="44.15236" lon="5.01509">
        <ele>442.82</ele>
        <time>2018-12-10T08:58:20Z</time>
      </trkpt>
      <trkpt lat="44.15242" lon="5.0153">
        <ele>443.31</ele>
        <time>2018-12-10T08:58:36Z</time>
      </trkpt>
      <trkpt lat="44.15248" lon="5.01558">
        <ele>443.79</ele>
        <time>2018-12-10T08:58:55Z</time>
      </trkpt>
      <trkpt lat="44.15255" lon="5.01585">
        <ele>443.31</ele>
        <time>2018-12-10T08:59:15Z</time>
      </trkpt>
      <trkpt lat="44.1526" lon="5.01609">
        <ele>443.31</ele>
        <time>2018-12-10T08:59:32Z</time>
      </trkpt>
      <trkpt lat="44.15261" lon="5.01613">
        <ele>443.31</ele>
        <time>2018-12-10T08:59:35Z</time>
      </trkpt>
      <trkpt lat="44.15266" lon="5.01639">
        <ele>443.79</ele>
        <time>2018-12-10T08:59:52Z</time>
      </trkpt>
      <trkpt lat="44.15273" lon="5.01664">
        <ele>444.27</ele>
        <time>2018-12-10T09:00:12Z</time>
      </trkpt>
      <trkpt lat="44.1528" lon="5.01688">
        <ele>445.23</ele>
        <time>2018-12-10T09:00:31Z</time>
      </trkpt>
      <trkpt lat="44.15287" lon="5.01712">
        <ele>446.19</ele>
        <time>2018-12-10T09:00:48Z</time>
      </trkpt>
      <trkpt lat="44.1529" lon="5.01734">
        <ele>446.67</ele>
        <time>2018-12-10T09:01:05Z</time>
      </trkpt>
      <trkpt lat="44.15292" lon="5.01766">
        <ele>446.67</ele>
        <time>2018-12-10T09:01:22Z</time>
      </trkpt>
      <trkpt lat="44.15294" lon="5.01792">
        <ele>448.59</ele>
        <time>2018-12-10T09:01:40Z</time>
      </trkpt>
      <trkpt lat="44.15301" lon="5.01819">
        <ele>450.03</ele>
        <time>2018-12-10T09:01:58Z</time>
      </trkpt>
      <trkpt lat="44.15307" lon="5.01838">
        <ele>450.52</ele>
        <time>2018-12-10T09:02:15Z</time>
      </trkpt>
      <trkpt lat="44.15309" lon="5.01847">
        <ele>450.03</ele>
        <time>2018-12-10T09:02:21Z</time>
      </trkpt>
      <trkpt lat="44.15312" lon="5.01875">
        <ele>450.52</ele>
        <time>2018-12-10T09:02:39Z</time>
      </trkpt>
      <trkpt lat="44.15312" lon="5.01889">
        <ele>451</ele>
        <time>2018-12-10T09:02:48Z</time>
      </trkpt>
      <trkpt lat="44.1531" lon="5.01912">
        <ele>451</ele>
        <time>2018-12-10T09:03:04Z</time>
      </trkpt>
      <trkpt lat="44.15305" lon="5.01931">
        <ele>450.52</ele>
        <time>2018-12-10T09:03:22Z</time>
      </trkpt>
      <trkpt lat="44.15302" lon="5.01944">
        <ele>451</ele>
        <time>2018-12-10T09:03:36Z</time>
      </trkpt>
      <trkpt lat="44.15303" lon="5.01947">
        <ele>451.48</ele>
        <time>2018-12-10T09:03:53Z</time>
      </trkpt>
      <trkpt lat="44.15306" lon="5.01948">
        <ele>451.96</ele>
        <time>2018-12-10T09:04:13Z</time>
      </trkpt>
      <trkpt lat="44.15305" lon="5.01949">
        <ele>451.48</ele>
        <time>2018-12-10T09:04:30Z</time>
      </trkpt>
      <trkpt lat="44.15307" lon="5.01948">
        <ele>451.48</ele>
        <time>2018-12-10T09:04:52Z</time>
      </trkpt>
      <trkpt lat="44.15305" lon="5.01949">
        <ele>451.48</ele>
        <time>2018-12-10T09:05:17Z</time>
      </trkpt>
      <trkpt lat="44.15303" lon="5.01951">
        <ele>451.48</ele>
        <time>2018-12-10T09:05:43Z</time>
      </trkpt>
      <trkpt lat="44.15304" lon="5.01951">
        <ele>452.44</ele>
        <time>2018-12-10T09:06:06Z</time>
      </trkpt>
      <trkpt lat="44.15307" lon="5.01955">
        <ele>451</ele>
        <time>2018-12-10T09:06:40Z</time>
      </trkpt>
      <trkpt lat="44.15307" lon="5.01953">
        <ele>451</ele>
        <time>2018-12-10T09:07:09Z</time>
      </trkpt>
      <trkpt lat="44.15308" lon="5.01952">
        <ele>450.52</ele>
        <time>2018-12-10T09:07:34Z</time>
      </trkpt>
      <trkpt lat="44.15307" lon="5.01951">
        <ele>450.52</ele>
        <time>2018-12-10T09:08:05Z</time>
      </trkpt>
      <trkpt lat="44.15307" lon="5.01953">
        <ele>450.52</ele>
        <time>2018-12-10T09:08:34Z</time>
      </trkpt>
      <trkpt lat="44.15307" lon="5.01949">
        <ele>451.48</ele>
        <time>2018-12-10T09:09:08Z</time>
      </trkpt>
      <trkpt lat="44.15305" lon="5.01946">
        <ele>451.48</ele>
        <time>2018-12-10T09:09:41Z</time>
      </trkpt>
      <trkpt lat="44.15307" lon="5.01948">
        <ele>451.48</ele>
        <time>2018-12-10T09:10:13Z</time>
      </trkpt>
      <trkpt lat="44.15306" lon="5.01948">
        <ele>451.96</ele>
        <time>2018-12-10T09:10:58Z</time>
      </trkpt>
      <trkpt lat="44.15307" lon="5.01946">
        <ele>451.96</ele>
        <time>2018-12-10T09:11:32Z</time>
      </trkpt>
      <trkpt lat="44.15304" lon="5.01946">
        <ele>452.44</ele>
        <time>2018-12-10T09:12:05Z</time>
      </trkpt>
      <trkpt lat="44.15307" lon="5.01949">
        <ele>451.48</ele>
        <time>2018-12-10T09:12:37Z</time>
      </trkpt>
      <trkpt lat="44.15307" lon="5.01947">
        <ele>451.48</ele>
        <time>2018-12-10T09:13:17Z</time>
      </trkpt>
      <trkpt lat="44.15306" lon="5.0195">
        <ele>451.48</ele>
        <time>2018-12-10T09:13:51Z</time>
      </trkpt>
      <trkpt lat="44.15307" lon="5.01948">
        <ele>451.48</ele>
        <time>2018-12-10T09:14:28Z</time>
      </trkpt>
      <trkpt lat="44.15305" lon="5.01948">
        <ele>451</ele>
        <time>2018-12-10T09:15:05Z</time>
      </trkpt>
      <trkpt lat="44.15304" lon="5.01949">
        <ele>451</ele>
        <time>2018-12-10T09:15:31Z</time>
      </trkpt>
      <trkpt lat="44.15304" lon="5.01949">
        <ele>451</ele>
        <time>2018-12-10T09:15:51Z</time>
      </trkpt>
      <trkpt lat="44.15304" lon="5.01948">
        <ele>451</ele>
        <time>2018-12-10T09:16:08Z</time>
      </trkpt>
      <trkpt lat="44.153" lon="5.0195">
        <ele>451</ele>
        <time>2018-12-10T09:16:21Z</time>
      </trkpt>
      <trkpt lat="44.15296" lon="5.01961">
        <ele>451</ele>
        <time>2018-12-10T09:16:35Z</time>
      </trkpt>
      <trkpt lat="44.1529" lon="5.01969">
        <ele>451</ele>
        <time>2018-12-10T09:16:43Z</time>
      </trkpt>
      <trkpt lat="44.15278" lon="5.01985">
        <ele>451</ele>
        <time>2018-12-10T09:17:00Z</time>
      </trkpt>
      <trkpt lat="44.1526" lon="5.01995">
        <ele>448.11</ele>
        <time>2018-12-10T09:17:19Z</time>
      </trkpt>
      <trkpt lat="44.15246" lon="5.01993">
        <ele>447.63</ele>
        <time>2018-12-10T09:17:33Z</time>
      </trkpt>
      <trkpt lat="44.15238" lon="5.01993">
        <ele>447.15</ele>
        <time>2018-12-10T09:17:49Z</time>
      </trkpt>
      <trkpt lat="44.15237" lon="5.01993">
        <ele>448.59</ele>
        <time>2018-12-10T09:17:52Z</time>
      </trkpt>
      <trkpt lat="44.15224" lon="5.01992">
        <ele>446.19</ele>
        <time>2018-12-10T09:18:06Z</time>
      </trkpt>
      <trkpt lat="44.1521" lon="5.01984">
        <ele>444.75</ele>
        <time>2018-12-10T09:18:23Z</time>
      </trkpt>
      <trkpt lat="44.15213" lon="5.01985">
        <ele>444.27</ele>
        <time>2018-12-10T09:18:46Z</time>
      </trkpt>
      <trkpt lat="44.15211" lon="5.01983">
        <ele>446.67</ele>
        <time>2018-12-10T09:19:10Z</time>
      </trkpt>
      <trkpt lat="44.15211" lon="5.0198">
        <ele>445.23</ele>
        <time>2018-12-10T09:19:32Z</time>
      </trkpt>
      <trkpt lat="44.15209" lon="5.01976">
        <ele>444.75</ele>
        <time>2018-12-10T09:19:38Z</time>
      </trkpt>
      <trkpt lat="44.15201" lon="5.01955">
        <ele>441.86</ele>
        <time>2018-12-10T09:19:56Z</time>
      </trkpt>
      <trkpt lat="44.15196" lon="5.01935">
        <ele>439.94</ele>
        <time>2018-12-10T09:20:12Z</time>
      </trkpt>
      <trkpt lat="44.15193" lon="5.01924">
        <ele>438.98</ele>
        <time>2018-12-10T09:20:21Z</time>
      </trkpt>
      <trkpt lat="44.15183" lon="5.01903">
        <ele>436.58</ele>
        <time>2018-12-10T09:20:40Z</time>
      </trkpt>
      <trkpt lat="44.15172" lon="5.01888">
        <ele>434.17</ele>
        <time>2018-12-10T09:20:56Z</time>
      </trkpt>
      <trkpt lat="44.15166" lon="5.01879">
        <ele>433.21</ele>
        <time>2018-12-10T09:21:15Z</time>
      </trkpt>
      <trkpt lat="44.15159" lon="5.01866">
        <ele>432.25</ele>
        <time>2018-12-10T09:21:29Z</time>
      </trkpt>
      <trkpt lat="44.15159" lon="5.01865">
        <ele>431.77</ele>
        <time>2018-12-10T09:21:42Z</time>
      </trkpt>
      <trkpt lat="44.15159" lon="5.01863">
        <ele>431.29</ele>
        <time>2018-12-10T09:22:02Z</time>
      </trkpt>
      <trkpt lat="44.15158" lon="5.01863">
        <ele>430.81</ele>
        <time>2018-12-10T09:22:24Z</time>
      </trkpt>
      <trkpt lat="44.15149" lon="5.01843">
        <ele>428.89</ele>
        <time>2018-12-10T09:22:43Z</time>
      </trkpt>
      <trkpt lat="44.1514" lon="5.01828">
        <ele>426.96</ele>
        <time>2018-12-10T09:22:58Z</time>
      </trkpt>
      <trkpt lat="44.15132" lon="5.01815">
        <ele>425.04</ele>
        <time>2018-12-10T09:23:11Z</time>
      </trkpt>
      <trkpt lat="44.15119" lon="5.01801">
        <ele>423.6</ele>
        <time>2018-12-10T09:23:27Z</time>
      </trkpt>
      <trkpt lat="44.15106" lon="5.0179">
        <ele>422.64</ele>
        <time>2018-12-10T09:23:41Z</time>
      </trkpt>
      <trkpt lat="44.15093" lon="5.01778">
        <ele>421.68</ele>
        <time>2018-12-10T09:23:56Z</time>
      </trkpt>
      <trkpt lat="44.15081" lon="5.01766">
        <ele>418.79</ele>
        <time>2018-12-10T09:24:12Z</time>
      </trkpt>
      <trkpt lat="44.15068" lon="5.01751">
        <ele>417.83</ele>
        <time>2018-12-10T09:24:29Z</time>
      </trkpt>
      <trkpt lat="44.15055" lon="5.01739">
        <ele>416.39</ele>
        <time>2018-12-10T09:24:43Z</time>
      </trkpt>
      <trkpt lat="44.15051" lon="5.01734">
        <ele>415.43</ele>
        <time>2018-12-10T09:24:49Z</time>
      </trkpt>
      <trkpt lat="44.15042" lon="5.01724">
        <ele>413.02</ele>
        <time>2018-12-10T09:25:00Z</time>
      </trkpt>
      <trkpt lat="44.15036" lon="5.01717">
        <ele>413.02</ele>
        <time>2018-12-10T09:25:08Z</time>
      </trkpt>
      <trkpt lat="44.15025" lon="5.01706">
        <ele>410.62</ele>
        <time>2018-12-10T09:25:23Z</time>
      </trkpt>
      <trkpt lat="44.15013" lon="5.01693">
        <ele>408.22</ele>
        <time>2018-12-10T09:25:39Z</time>
      </trkpt>
      <trkpt lat="44.15002" lon="5.01686">
        <ele>407.74</ele>
        <time>2018-12-10T09:25:52Z</time>
      </trkpt>
      <trkpt lat="44.14989" lon="5.01671">
        <ele>404.85</ele>
        <time>2018-12-10T09:26:10Z</time>
      </trkpt>
      <trkpt lat="44.14976" lon="5.0166">
        <ele>402.93</ele>
        <time>2018-12-10T09:26:26Z</time>
      </trkpt>
      <trkpt lat="44.14961" lon="5.01651">
        <ele>401.01</ele>
        <time>2018-12-10T09:26:43Z</time>
      </trkpt>
      <trkpt lat="44.14944" lon="5.01648">
        <ele>398.6</ele>
        <time>2018-12-10T09:27:02Z</time>
      </trkpt>
      <trkpt lat="44.14925" lon="5.01643">
        <ele>396.68</ele>
        <time>2018-12-10T09:27:21Z</time>
      </trkpt>
      <trkpt lat="44.14908" lon="5.01638">
        <ele>394.28</ele>
        <time>2018-12-10T09:27:38Z</time>
      </trkpt>
      <trkpt lat="44.14896" lon="5.01625">
        <ele>392.36</ele>
        <time>2018-12-10T09:27:54Z</time>
      </trkpt>
      <trkpt lat="44.14894" lon="5.01619">
        <ele>391.87</ele>
        <time>2018-12-10T09:28:00Z</time>
      </trkpt>
      <trkpt lat="44.14888" lon="5.01592">
        <ele>389.95</ele>
        <time>2018-12-10T09:28:19Z</time>
      </trkpt>
      <trkpt lat="44.14883" lon="5.01579">
        <ele>389.95</ele>
        <time>2018-12-10T09:28:29Z</time>
      </trkpt>
      <trkpt lat="44.14869" lon="5.01562">
        <ele>388.51</ele>
        <time>2018-12-10T09:28:47Z</time>
      </trkpt>
      <trkpt lat="44.14858" lon="5.01552">
        <ele>388.03</ele>
        <time>2018-12-10T09:29:02Z</time>
      </trkpt>
      <trkpt lat="44.14857" lon="5.01552">
        <ele>388.03</ele>
        <time>2018-12-10T09:29:25Z</time>
      </trkpt>
      <trkpt lat="44.14859" lon="5.01553">
        <ele>388.99</ele>
        <time>2018-12-10T09:29:40Z</time>
      </trkpt>
      <trkpt lat="44.14856" lon="5.01555">
        <ele>388.99</ele>
        <time>2018-12-10T09:30:02Z</time>
      </trkpt>
      <trkpt lat="44.14844" lon="5.01546">
        <ele>388.03</ele>
        <time>2018-12-10T09:30:18Z</time>
      </trkpt>
      <trkpt lat="44.14827" lon="5.01542">
        <ele>386.59</ele>
        <time>2018-12-10T09:30:35Z</time>
      </trkpt>
      <trkpt lat="44.14806" lon="5.01542">
        <ele>384.66</ele>
        <time>2018-12-10T09:30:54Z</time>
      </trkpt>
      <trkpt lat="44.14788" lon="5.01545">
        <ele>383.22</ele>
        <time>2018-12-10T09:31:12Z</time>
      </trkpt>
      <trkpt lat="44.14772" lon="5.01549">
        <ele>382.74</ele>
        <time>2018-12-10T09:31:28Z</time>
      </trkpt>
      <trkpt lat="44.14752" lon="5.01553">
        <ele>381.78</ele>
        <time>2018-12-10T09:31:46Z</time>
      </trkpt>
      <trkpt lat="44.14735" lon="5.01558">
        <ele>381.3</ele>
        <time>2018-12-10T09:32:04Z</time>
      </trkpt>
      <trkpt lat="44.14734" lon="5.01553">
        <ele>381.3</ele>
        <time>2018-12-10T09:32:26Z</time>
      </trkpt>
      <trkpt lat="44.14734" lon="5.01552">
        <ele>381.3</ele>
        <time>2018-12-10T09:32:45Z</time>
      </trkpt>
      <trkpt lat="44.14737" lon="5.01552">
        <ele>382.26</ele>
        <time>2018-12-10T09:33:15Z</time>
      </trkpt>
      <trkpt lat="44.14736" lon="5.01554">
        <ele>382.26</ele>
        <time>2018-12-10T09:33:38Z</time>
      </trkpt>
      <trkpt lat="44.14727" lon="5.0156">
        <ele>380.82</ele>
        <time>2018-12-10T09:33:55Z</time>
      </trkpt>
      <trkpt lat="44.14727" lon="5.0156">
        <ele>380.82</ele>
        <time>2018-12-10T09:33:56Z</time>
      </trkpt>
      <trkpt lat="44.14725" lon="5.01567">
        <ele>381.78</ele>
        <time>2018-12-10T09:34:12Z</time>
      </trkpt>
      <trkpt lat="44.14723" lon="5.01574">
        <ele>381.78</ele>
        <time>2018-12-10T09:34:19Z</time>
      </trkpt>
      <trkpt lat="44.14722" lon="5.01576">
        <ele>380.34</ele>
        <time>2018-12-10T09:34:21Z</time>
      </trkpt>
      <trkpt lat="44.14717" lon="5.01594">
        <ele>380.82</ele>
        <time>2018-12-10T09:34:35Z</time>
      </trkpt>
      <trkpt lat="44.14713" lon="5.01608">
        <ele>378.9</ele>
        <time>2018-12-10T09:34:46Z</time>
      </trkpt>
      <trkpt lat="44.14711" lon="5.01615">
        <ele>379.86</ele>
        <time>2018-12-10T09:34:51Z</time>
      </trkpt>
      <trkpt lat="44.14708" lon="5.01627">
        <ele>379.86</ele>
        <time>2018-12-10T09:34:58Z</time>
      </trkpt>
      <trkpt lat="44.14701" lon="5.0164">
        <ele>380.34</ele>
        <time>2018-12-10T09:35:13Z</time>
      </trkpt>
      <trkpt lat="44.14704" lon="5.01644">
        <ele>378.42</ele>
        <time>2018-12-10T09:35:32Z</time>
      </trkpt>
      <trkpt lat="44.14702" lon="5.01651">
        <ele>378.42</ele>
        <time>2018-12-10T09:35:39Z</time>
      </trkpt>
      <trkpt lat="44.14699" lon="5.01677">
        <ele>376.97</ele>
        <time>2018-12-10T09:35:57Z</time>
      </trkpt>
      <trkpt lat="44.14696" lon="5.01702">
        <ele>376.01</ele>
        <time>2018-12-10T09:36:13Z</time>
      </trkpt>
      <trkpt lat="44.14697" lon="5.0172">
        <ele>376.01</ele>
        <time>2018-12-10T09:36:28Z</time>
      </trkpt>
      <trkpt lat="44.14695" lon="5.01744">
        <ele>375.05</ele>
        <time>2018-12-10T09:36:46Z</time>
      </trkpt>
      <trkpt lat="44.14694" lon="5.01767">
        <ele>375.05</ele>
        <time>2018-12-10T09:37:01Z</time>
      </trkpt>
      <trkpt lat="44.14683" lon="5.01797">
        <ele>374.09</ele>
        <time>2018-12-10T09:37:21Z</time>
      </trkpt>
      <trkpt lat="44.14662" lon="5.01815">
        <ele>374.09</ele>
        <time>2018-12-10T09:37:42Z</time>
      </trkpt>
      <trkpt lat="44.14643" lon="5.01825">
        <ele>374.09</ele>
        <time>2018-12-10T09:38:00Z</time>
      </trkpt>
      <trkpt lat="44.14621" lon="5.01836">
        <ele>375.53</ele>
        <time>2018-12-10T09:38:20Z</time>
      </trkpt>
      <trkpt lat="44.14603" lon="5.01843">
        <ele>376.01</ele>
        <time>2018-12-10T09:38:38Z</time>
      </trkpt>
      <trkpt lat="44.14585" lon="5.01846">
        <ele>376.97</ele>
        <time>2018-12-10T09:38:55Z</time>
      </trkpt>
      <trkpt lat="44.14574" lon="5.01858">
        <ele>377.45</ele>
        <time>2018-12-10T09:39:07Z</time>
      </trkpt>
      <trkpt lat="44.14572" lon="5.01868">
        <ele>377.94</ele>
        <time>2018-12-10T09:39:13Z</time>
      </trkpt>
      <trkpt lat="44.14574" lon="5.01881">
        <ele>377.94</ele>
        <time>2018-12-10T09:39:21Z</time>
      </trkpt>
      <trkpt lat="44.14577" lon="5.01889">
        <ele>378.42</ele>
        <time>2018-12-10T09:39:27Z</time>
      </trkpt>
      <trkpt lat="44.14587" lon="5.01905">
        <ele>378.42</ele>
        <time>2018-12-10T09:39:41Z</time>
      </trkpt>
      <trkpt lat="44.1459" lon="5.01911">
        <ele>376.97</ele>
        <time>2018-12-10T09:39:46Z</time>
      </trkpt>
      <trkpt lat="44.14592" lon="5.01915">
        <ele>376.97</ele>
        <time>2018-12-10T09:39:50Z</time>
      </trkpt>
      <trkpt lat="44.14599" lon="5.01942">
        <ele>376.49</ele>
        <time>2018-12-10T09:40:08Z</time>
      </trkpt>
      <trkpt lat="44.14602" lon="5.01969">
        <ele>376.01</ele>
        <time>2018-12-10T09:40:26Z</time>
      </trkpt>
      <trkpt lat="44.14603" lon="5.01991">
        <ele>376.01</ele>
        <time>2018-12-10T09:40:42Z</time>
      </trkpt>
      <trkpt lat="44.14606" lon="5.02021">
        <ele>375.53</ele>
        <time>2018-12-10T09:41:00Z</time>
      </trkpt>
      <trkpt lat="44.14607" lon="5.02038">
        <ele>375.53</ele>
        <time>2018-12-10T09:41:11Z</time>
      </trkpt>
      <trkpt lat="44.14613" lon="5.02061">
        <ele>375.53</ele>
        <time>2018-12-10T09:41:27Z</time>
      </trkpt>
      <trkpt lat="44.14617" lon="5.02071">
        <ele>376.49</ele>
        <time>2018-12-10T09:41:34Z</time>
      </trkpt>
      <trkpt lat="44.14625" lon="5.02086">
        <ele>376.97</ele>
        <time>2018-12-10T09:41:46Z</time>
      </trkpt>
      <trkpt lat="44.14618" lon="5.02116">
        <ele>376.97</ele>
        <time>2018-12-10T09:42:08Z</time>
      </trkpt>
      <trkpt lat="44.14617" lon="5.02119">
        <ele>376.97</ele>
        <time>2018-12-10T09:42:10Z</time>
      </trkpt>
      <trkpt lat="44.14601" lon="5.02135">
        <ele>377.45</ele>
        <time>2018-12-10T09:42:28Z</time>
      </trkpt>
      <trkpt lat="44.14576" lon="5.02142">
        <ele>377.45</ele>
        <time>2018-12-10T09:42:48Z</time>
      </trkpt>
      <trkpt lat="44.14558" lon="5.02142">
        <ele>377.45</ele>
        <time>2018-12-10T09:43:05Z</time>
      </trkpt>
      <trkpt lat="44.1455" lon="5.02146">
        <ele>376.01</ele>
        <time>2018-12-10T09:43:16Z</time>
      </trkpt>
      <trkpt lat="44.14547" lon="5.0215">
        <ele>377.45</ele>
        <time>2018-12-10T09:43:23Z</time>
      </trkpt>
      <trkpt lat="44.14547" lon="5.0215">
        <ele>376.01</ele>
        <time>2018-12-10T09:43:37Z</time>
      </trkpt>
      <trkpt lat="44.14544" lon="5.02155">
        <ele>376.49</ele>
        <time>2018-12-10T09:44:01Z</time>
      </trkpt>
      <trkpt lat="44.14544" lon="5.02156">
        <ele>376.01</ele>
        <time>2018-12-10T09:44:02Z</time>
      </trkpt>
      <trkpt lat="44.14536" lon="5.02177">
        <ele>374.09</ele>
        <time>2018-12-10T09:44:20Z</time>
      </trkpt>
      <trkpt lat="44.1453" lon="5.02191">
        <ele>372.65</ele>
        <time>2018-12-10T09:44:33Z</time>
      </trkpt>
      <trkpt lat="44.14527" lon="5.02213">
        <ele>371.69</ele>
        <time>2018-12-10T09:44:49Z</time>
      </trkpt>
      <trkpt lat="44.14524" lon="5.02241">
        <ele>370.24</ele>
        <time>2018-12-10T09:45:07Z</time>
      </trkpt>
      <trkpt lat="44.14525" lon="5.02267">
        <ele>369.28</ele>
        <time>2018-12-10T09:45:25Z</time>
      </trkpt>
      <trkpt lat="44.14527" lon="5.0229">
        <ele>368.32</ele>
        <time>2018-12-10T09:45:43Z</time>
      </trkpt>
      <trkpt lat="44.14527" lon="5.02312">
        <ele>366.4</ele>
        <time>2018-12-10T09:46:00Z</time>
      </trkpt>
      <trkpt lat="44.14521" lon="5.02323">
        <ele>365.44</ele>
        <time>2018-12-10T09:46:10Z</time>
      </trkpt>
      <trkpt lat="44.14505" lon="5.02319">
        <ele>362.55</ele>
        <time>2018-12-10T09:46:28Z</time>
      </trkpt>
      <trkpt lat="44.14503" lon="5.02315">
        <ele>362.07</ele>
        <time>2018-12-10T09:46:32Z</time>
      </trkpt>
      <trkpt lat="44.14496" lon="5.02297">
        <ele>360.63</ele>
        <time>2018-12-10T09:46:48Z</time>
      </trkpt>
      <trkpt lat="44.14485" lon="5.0228">
        <ele>358.23</ele>
        <time>2018-12-10T09:47:05Z</time>
      </trkpt>
      <trkpt lat="44.14482" lon="5.02278">
        <ele>358.23</ele>
        <time>2018-12-10T09:47:08Z</time>
      </trkpt>
      <trkpt lat="44.14464" lon="5.0227">
        <ele>354.38</ele>
        <time>2018-12-10T09:47:28Z</time>
      </trkpt>
      <trkpt lat="44.14446" lon="5.02273">
        <ele>351.98</ele>
        <time>2018-12-10T09:47:48Z</time>
      </trkpt>
      <trkpt lat="44.14445" lon="5.02274">
        <ele>351.98</ele>
        <time>2018-12-10T09:47:49Z</time>
      </trkpt>
      <trkpt lat="44.14427" lon="5.02282">
        <ele>350.06</ele>
        <time>2018-12-10T09:48:08Z</time>
      </trkpt>
      <trkpt lat="44.14407" lon="5.02289">
        <ele>348.13</ele>
        <time>2018-12-10T09:48:28Z</time>
      </trkpt>
      <trkpt lat="44.14391" lon="5.02294">
        <ele>346.69</ele>
        <time>2018-12-10T09:48:45Z</time>
      </trkpt>
      <trkpt lat="44.14372" lon="5.02295">
        <ele>345.25</ele>
        <time>2018-12-10T09:49:04Z</time>
      </trkpt>
      <trkpt lat="44.14356" lon="5.02291">
        <ele>344.29</ele>
        <time>2018-12-10T09:49:21Z</time>
      </trkpt>
      <trkpt lat="44.14354" lon="5.0229">
        <ele>345.25</ele>
        <time>2018-12-10T09:49:39Z</time>
      </trkpt>
      <trkpt lat="44.14353" lon="5.02289">
        <ele>343.81</ele>
        <time>2018-12-10T09:49:51Z</time>
      </trkpt>
      <trkpt lat="44.14352" lon="5.02289">
        <ele>345.25</ele>
        <time>2018-12-10T09:49:56Z</time>
      </trkpt>
      <trkpt lat="44.1435" lon="5.02283">
        <ele>343.33</ele>
        <time>2018-12-10T09:50:08Z</time>
      </trkpt>
      <trkpt lat="44.14356" lon="5.02271">
        <ele>342.85</ele>
        <time>2018-12-10T09:50:22Z</time>
      </trkpt>
      <trkpt lat="44.14358" lon="5.02257">
        <ele>342.37</ele>
        <time>2018-12-10T09:50:38Z</time>
      </trkpt>
      <trkpt lat="44.14359" lon="5.02256">
        <ele>341.41</ele>
        <time>2018-12-10T09:51:00Z</time>
      </trkpt>
      <trkpt lat="44.14361" lon="5.02249">
        <ele>340.92</ele>
        <time>2018-12-10T09:51:10Z</time>
      </trkpt>
      <trkpt lat="44.1436" lon="5.02226">
        <ele>340.44</ele>
        <time>2018-12-10T09:51:28Z</time>
      </trkpt>
      <trkpt lat="44.14348" lon="5.02212">
        <ele>339.48</ele>
        <time>2018-12-10T09:51:45Z</time>
      </trkpt>
      <trkpt lat="44.1434" lon="5.02203">
        <ele>338.52</ele>
        <time>2018-12-10T09:51:57Z</time>
      </trkpt>
      <trkpt lat="44.14323" lon="5.02186">
        <ele>336.12</ele>
        <time>2018-12-10T09:52:16Z</time>
      </trkpt>
      <trkpt lat="44.1431" lon="5.02171">
        <ele>334.68</ele>
        <time>2018-12-10T09:52:33Z</time>
      </trkpt>
      <trkpt lat="44.14294" lon="5.02154">
        <ele>332.75</ele>
        <time>2018-12-10T09:52:52Z</time>
      </trkpt>
      <trkpt lat="44.14279" lon="5.02137">
        <ele>330.83</ele>
        <time>2018-12-10T09:53:09Z</time>
      </trkpt>
      <trkpt lat="44.14274" lon="5.02132">
        <ele>330.35</ele>
        <time>2018-12-10T09:53:14Z</time>
      </trkpt>
      <trkpt lat="44.14257" lon="5.02113">
        <ele>328.43</ele>
        <time>2018-12-10T09:53:33Z</time>
      </trkpt>
      <trkpt lat="44.14241" lon="5.0209">
        <ele>325.54</ele>
        <time>2018-12-10T09:53:54Z</time>
      </trkpt>
      <trkpt lat="44.1423" lon="5.02072">
        <ele>323.62</ele>
        <time>2018-12-10T09:54:11Z</time>
      </trkpt>
      <trkpt lat="44.14223" lon="5.02062">
        <ele>323.14</ele>
        <time>2018-12-10T09:54:20Z</time>
      </trkpt>
      <trkpt lat="44.1421" lon="5.02036">
        <ele>321.7</ele>
        <time>2018-12-10T09:54:40Z</time>
      </trkpt>
      <trkpt lat="44.14197" lon="5.02016">
        <ele>320.26</ele>
        <time>2018-12-10T09:54:59Z</time>
      </trkpt>
      <trkpt lat="44.14177" lon="5.02002">
        <ele>317.85</ele>
        <time>2018-12-10T09:55:19Z</time>
      </trkpt>
      <trkpt lat="44.14158" lon="5.01996">
        <ele>315.45</ele>
        <time>2018-12-10T09:55:37Z</time>
      </trkpt>
      <trkpt lat="44.14151" lon="5.01992">
        <ele>314.49</ele>
        <time>2018-12-10T09:55:45Z</time>
      </trkpt>
      <trkpt lat="44.14132" lon="5.01995">
        <ele>312.09</ele>
        <time>2018-12-10T09:56:03Z</time>
      </trkpt>
      <trkpt lat="44.14129" lon="5.01997">
        <ele>312.09</ele>
        <time>2018-12-10T09:56:06Z</time>
      </trkpt>
      <trkpt lat="44.14114" lon="5.02">
        <ele>310.16</ele>
        <time>2018-12-10T09:56:20Z</time>
      </trkpt>
      <trkpt lat="44.14103" lon="5.01998">
        <ele>309.2</ele>
        <time>2018-12-10T09:56:31Z</time>
      </trkpt>
      <trkpt lat="44.14086" lon="5.01989">
        <ele>307.76</ele>
        <time>2018-12-10T09:56:48Z</time>
      </trkpt>
      <trkpt lat="44.14063" lon="5.01979">
        <ele>304.88</ele>
        <time>2018-12-10T09:57:09Z</time>
      </trkpt>
      <trkpt lat="44.1404" lon="5.01976">
        <ele>302.95</ele>
        <time>2018-12-10T09:57:28Z</time>
      </trkpt>
      <trkpt lat="44.14019" lon="5.01972">
        <ele>301.51</ele>
        <time>2018-12-10T09:57:47Z</time>
      </trkpt>
      <trkpt lat="44.13999" lon="5.01955">
        <ele>299.59</ele>
        <time>2018-12-10T09:58:08Z</time>
      </trkpt>
      <trkpt lat="44.13986" lon="5.01943">
        <ele>296.22</ele>
        <time>2018-12-10T09:58:23Z</time>
      </trkpt>
      <trkpt lat="44.13963" lon="5.01933">
        <ele>293.82</ele>
        <time>2018-12-10T09:58:45Z</time>
      </trkpt>
      <trkpt lat="44.13957" lon="5.01931">
        <ele>292.86</ele>
        <time>2018-12-10T09:58:52Z</time>
      </trkpt>
      <trkpt lat="44.13933" lon="5.01932">
        <ele>290.46</ele>
        <time>2018-12-10T09:59:12Z</time>
      </trkpt>
      <trkpt lat="44.13911" lon="5.01936">
        <ele>288.53</ele>
        <time>2018-12-10T09:59:31Z</time>
      </trkpt>
      <trkpt lat="44.1389" lon="5.0194">
        <ele>287.57</ele>
        <time>2018-12-10T09:59:50Z</time>
      </trkpt>
      <trkpt lat="44.13876" lon="5.01944">
        <ele>286.61</ele>
        <time>2018-12-10T10:00:07Z</time>
      </trkpt>
      <trkpt lat="44.13865" lon="5.01947">
        <ele>285.65</ele>
        <time>2018-12-10T10:00:26Z</time>
      </trkpt>
      <trkpt lat="44.13843" lon="5.0195">
        <ele>285.17</ele>
        <time>2018-12-10T10:00:45Z</time>
      </trkpt>
      <trkpt lat="44.13825" lon="5.01953">
        <ele>283.73</ele>
        <time>2018-12-10T10:01:03Z</time>
      </trkpt>
      <trkpt lat="44.13802" lon="5.01956">
        <ele>281.32</ele>
        <time>2018-12-10T10:01:24Z</time>
      </trkpt>
      <trkpt lat="44.1378" lon="5.01961">
        <ele>278.44</ele>
        <time>2018-12-10T10:01:44Z</time>
      </trkpt>
      <trkpt lat="44.13761" lon="5.01967">
        <ele>277.96</ele>
        <time>2018-12-10T10:02:01Z</time>
      </trkpt>
      <trkpt lat="44.13741" lon="5.01974">
        <ele>277.48</ele>
        <time>2018-12-10T10:02:18Z</time>
      </trkpt>
      <trkpt lat="44.13718" lon="5.0198">
        <ele>276.04</ele>
        <time>2018-12-10T10:02:38Z</time>
      </trkpt>
      <trkpt lat="44.13696" lon="5.01982">
        <ele>273.63</ele>
        <time>2018-12-10T10:02:57Z</time>
      </trkpt>
      <trkpt lat="44.13674" lon="5.01971">
        <ele>272.19</ele>
        <time>2018-12-10T10:03:18Z</time>
      </trkpt>
      <trkpt lat="44.13668" lon="5.01961">
        <ele>271.23</ele>
        <time>2018-12-10T10:03:27Z</time>
      </trkpt>
      <trkpt lat="44.13663" lon="5.01929">
        <ele>270.27</ele>
        <time>2018-12-10T10:03:47Z</time>
      </trkpt>
      <trkpt lat="44.13654" lon="5.01902">
        <ele>269.31</ele>
        <time>2018-12-10T10:04:05Z</time>
      </trkpt>
      <trkpt lat="44.13649" lon="5.01874">
        <ele>268.35</ele>
        <time>2018-12-10T10:04:25Z</time>
      </trkpt>
      <trkpt lat="44.13664" lon="5.01851">
        <ele>266.9</ele>
        <time>2018-12-10T10:04:44Z</time>
      </trkpt>
      <trkpt lat="44.1368" lon="5.01833">
        <ele>264.02</ele>
        <time>2018-12-10T10:05:03Z</time>
      </trkpt>
      <trkpt lat="44.13692" lon="5.0181">
        <ele>262.58</ele>
        <time>2018-12-10T10:05:20Z</time>
      </trkpt>
      <trkpt lat="44.13695" lon="5.01793">
        <ele>261.14</ele>
        <time>2018-12-10T10:05:35Z</time>
      </trkpt>
      <trkpt lat="44.13699" lon="5.01777">
        <ele>259.21</ele>
        <time>2018-12-10T10:05:54Z</time>
      </trkpt>
      <trkpt lat="44.137" lon="5.01776">
        <ele>258.73</ele>
        <time>2018-12-10T10:05:55Z</time>
      </trkpt>
      <trkpt lat="44.13716" lon="5.01748">
        <ele>257.29</ele>
        <time>2018-12-10T10:06:17Z</time>
      </trkpt>
      <trkpt lat="44.13732" lon="5.01733">
        <ele>255.37</ele>
        <time>2018-12-10T10:06:35Z</time>
      </trkpt>
      <trkpt lat="44.13749" lon="5.01722">
        <ele>252.96</ele>
        <time>2018-12-10T10:06:52Z</time>
      </trkpt>
      <trkpt lat="44.13768" lon="5.01708">
        <ele>251.04</ele>
        <time>2018-12-10T10:07:12Z</time>
      </trkpt>
      <trkpt lat="44.13775" lon="5.01702">
        <ele>250.08</ele>
        <time>2018-12-10T10:07:20Z</time>
      </trkpt>
      <trkpt lat="44.13796" lon="5.01698">
        <ele>247.68</ele>
        <time>2018-12-10T10:07:38Z</time>
      </trkpt>
      <trkpt lat="44.13815" lon="5.01707">
        <ele>248.16</ele>
        <time>2018-12-10T10:07:56Z</time>
      </trkpt>
      <trkpt lat="44.13834" lon="5.01705">
        <ele>248.16</ele>
        <time>2018-12-10T10:08:14Z</time>
      </trkpt>
      <trkpt lat="44.13851" lon="5.01695">
        <ele>245.27</ele>
        <time>2018-12-10T10:08:33Z</time>
      </trkpt>
      <trkpt lat="44.13866" lon="5.01682">
        <ele>244.31</ele>
        <time>2018-12-10T10:08:49Z</time>
      </trkpt>
      <trkpt lat="44.13886" lon="5.0167">
        <ele>242.39</ele>
        <time>2018-12-10T10:09:10Z</time>
      </trkpt>
      <trkpt lat="44.13908" lon="5.01658">
        <ele>241.43</ele>
        <time>2018-12-10T10:09:30Z</time>
      </trkpt>
      <trkpt lat="44.13923" lon="5.01653">
        <ele>239.99</ele>
        <time>2018-12-10T10:09:45Z</time>
      </trkpt>
      <trkpt lat="44.13945" lon="5.01644">
        <ele>238.54</ele>
        <time>2018-12-10T10:10:04Z</time>
      </trkpt>
      <trkpt lat="44.13961" lon="5.01633">
        <ele>237.58</ele>
        <time>2018-12-10T10:10:23Z</time>
      </trkpt>
      <trkpt lat="44.13981" lon="5.0162">
        <ele>236.62</ele>
        <time>2018-12-10T10:10:41Z</time>
      </trkpt>
      <trkpt lat="44.13994" lon="5.01614">
        <ele>236.62</ele>
        <time>2018-12-10T10:10:54Z</time>
      </trkpt>
      <trkpt lat="44.14006" lon="5.01608">
        <ele>232.3</ele>
        <time>2018-12-10T10:11:06Z</time>
      </trkpt>
      <trkpt lat="44.14008" lon="5.01607">
        <ele>232.3</ele>
        <time>2018-12-10T10:11:07Z</time>
      </trkpt>
      <trkpt lat="44.14013" lon="5.01605">
        <ele>234.7</ele>
        <time>2018-12-10T10:11:12Z</time>
      </trkpt>
      <trkpt lat="44.14028" lon="5.01588">
        <ele>235.18</ele>
        <time>2018-12-10T10:11:28Z</time>
      </trkpt>
      <trkpt lat="44.1403" lon="5.01587">
        <ele>233.74</ele>
        <time>2018-12-10T10:11:30Z</time>
      </trkpt>
      <trkpt lat="44.14043" lon="5.01582">
        <ele>233.26</ele>
        <time>2018-12-10T10:11:43Z</time>
      </trkpt>
      <trkpt lat="44.14061" lon="5.01575">
        <ele>231.33</ele>
        <time>2018-12-10T10:11:59Z</time>
      </trkpt>
      <trkpt lat="44.14077" lon="5.01563">
        <ele>230.85</ele>
        <time>2018-12-10T10:12:15Z</time>
      </trkpt>
      <trkpt lat="44.14081" lon="5.01553">
        <ele>231.81</ele>
        <time>2018-12-10T10:12:22Z</time>
      </trkpt>
      <trkpt lat="44.14082" lon="5.01548">
        <ele>231.81</ele>
        <time>2018-12-10T10:12:26Z</time>
      </trkpt>
      <trkpt lat="44.14088" lon="5.01521">
        <ele>231.81</ele>
        <time>2018-12-10T10:12:45Z</time>
      </trkpt>
      <trkpt lat="44.14097" lon="5.01501">
        <ele>234.7</ele>
        <time>2018-12-10T10:13:02Z</time>
      </trkpt>
      <trkpt lat="44.14104" lon="5.01492">
        <ele>235.18</ele>
        <time>2018-12-10T10:13:12Z</time>
      </trkpt>
      <trkpt lat="44.1411" lon="5.01485">
        <ele>233.74</ele>
        <time>2018-12-10T10:13:20Z</time>
      </trkpt>
      <trkpt lat="44.14111" lon="5.01484">
        <ele>233.74</ele>
        <time>2018-12-10T10:13:21Z</time>
      </trkpt>
      <trkpt lat="44.14115" lon="5.01483">
        <ele>235.18</ele>
        <time>2018-12-10T10:13:28Z</time>
      </trkpt>
      <trkpt lat="44.1412" lon="5.01478">
        <ele>237.1</ele>
        <time>2018-12-10T10:13:36Z</time>
      </trkpt>
      <trkpt lat="44.14128" lon="5.01461">
        <ele>235.18</ele>
        <time>2018-12-10T10:13:50Z</time>
      </trkpt>
      <trkpt lat="44.14121" lon="5.01449">
        <ele>234.7</ele>
        <time>2018-12-10T10:14:03Z</time>
      </trkpt>
      <trkpt lat="44.14113" lon="5.0145">
        <ele>236.14</ele>
        <time>2018-12-10T10:14:15Z</time>
      </trkpt>
      <trkpt lat="44.14097" lon="5.01453">
        <ele>237.1</ele>
        <time>2018-12-10T10:14:35Z</time>
      </trkpt>
      <trkpt lat="44.14083" lon="5.01459">
        <ele>238.06</ele>
        <time>2018-12-10T10:14:52Z</time>
      </trkpt>
      <trkpt lat="44.14075" lon="5.01465">
        <ele>239.51</ele>
        <time>2018-12-10T10:15:02Z</time>
      </trkpt>
      <trkpt lat="44.14059" lon="5.01473">
        <ele>239.99</ele>
        <time>2018-12-10T10:15:23Z</time>
      </trkpt>
      <trkpt lat="44.1404" lon="5.0148">
        <ele>241.91</ele>
        <time>2018-12-10T10:15:41Z</time>
      </trkpt>
      <trkpt lat="44.1402" lon="5.01485">
        <ele>241.91</ele>
        <time>2018-12-10T10:16:01Z</time>
      </trkpt>
      <trkpt lat="44.14005" lon="5.01489">
        <ele>240.47</ele>
        <time>2018-12-10T10:16:19Z</time>
      </trkpt>
      <trkpt lat="44.13985" lon="5.01501">
        <ele>239.51</ele>
        <time>2018-12-10T10:16:38Z</time>
      </trkpt>
      <trkpt lat="44.13978" lon="5.01505">
        <ele>237.58</ele>
        <time>2018-12-10T10:16:45Z</time>
      </trkpt>
      <trkpt lat="44.13963" lon="5.01511">
        <ele>235.66</ele>
        <time>2018-12-10T10:17:01Z</time>
      </trkpt>
      <trkpt lat="44.13942" lon="5.01511">
        <ele>232.78</ele>
        <time>2018-12-10T10:17:21Z</time>
      </trkpt>
      <trkpt lat="44.13925" lon="5.01502">
        <ele>229.89</ele>
        <time>2018-12-10T10:17:40Z</time>
      </trkpt>
      <trkpt lat="44.1391" lon="5.01489">
        <ele>227.97</ele>
        <time>2018-12-10T10:17:59Z</time>
      </trkpt>
      <trkpt lat="44.13915" lon="5.01476">
        <ele>228.93</ele>
        <time>2018-12-10T10:18:15Z</time>
      </trkpt>
      <trkpt lat="44.13925" lon="5.01471">
        <ele>227.97</ele>
        <time>2018-12-10T10:18:42Z</time>
      </trkpt>
      <trkpt lat="44.13915" lon="5.01483">
        <ele>227.97</ele>
        <time>2018-12-10T10:18:58Z</time>
      </trkpt>
      <trkpt lat="44.1391" lon="5.01487">
        <ele>227.49</ele>
        <time>2018-12-10T10:19:15Z</time>
      </trkpt>
      <trkpt lat="44.13908" lon="5.01484">
        <ele>227.01</ele>
        <time>2018-12-10T10:19:44Z</time>
      </trkpt>
      <trkpt lat="44.13903" lon="5.01493">
        <ele>226.53</ele>
        <time>2018-12-10T10:20:12Z</time>
      </trkpt>
      <trkpt lat="44.13895" lon="5.01502">
        <ele>226.53</ele>
        <time>2018-12-10T10:20:35Z</time>
      </trkpt>
      <trkpt lat="44.13893" lon="5.01508">
        <ele>226.05</ele>
        <time>2018-12-10T10:21:02Z</time>
      </trkpt>
      <trkpt lat="44.13888" lon="5.01508">
        <ele>227.01</ele>
        <time>2018-12-10T10:21:21Z</time>
      </trkpt>
      <trkpt lat="44.13883" lon="5.01509">
        <ele>225.57</ele>
        <time>2018-12-10T10:21:28Z</time>
      </trkpt>
      <trkpt lat="44.1387" lon="5.01508">
        <ele>223.64</ele>
        <time>2018-12-10T10:21:46Z</time>
      </trkpt>
      <trkpt lat="44.13848" lon="5.01508">
        <ele>221.72</ele>
        <time>2018-12-10T10:22:08Z</time>
      </trkpt>
      <trkpt lat="44.13829" lon="5.01509">
        <ele>220.28</ele>
        <time>2018-12-10T10:22:26Z</time>
      </trkpt>
      <trkpt lat="44.13823" lon="5.01509">
        <ele>220.28</ele>
        <time>2018-12-10T10:22:32Z</time>
      </trkpt>
      <trkpt lat="44.13802" lon="5.01511">
        <ele>216.91</ele>
        <time>2018-12-10T10:22:49Z</time>
      </trkpt>
      <trkpt lat="44.13797" lon="5.01509">
        <ele>215.95</ele>
        <time>2018-12-10T10:22:53Z</time>
      </trkpt>
      <trkpt lat="44.13778" lon="5.01511">
        <ele>215.47</ele>
        <time>2018-12-10T10:23:10Z</time>
      </trkpt>
      <trkpt lat="44.13761" lon="5.01513">
        <ele>213.07</ele>
        <time>2018-12-10T10:23:27Z</time>
      </trkpt>
      <trkpt lat="44.1374" lon="5.01523">
        <ele>212.59</ele>
        <time>2018-12-10T10:23:47Z</time>
      </trkpt>
      <trkpt lat="44.13721" lon="5.01527">
        <ele>211.15</ele>
        <time>2018-12-10T10:24:08Z</time>
      </trkpt>
      <trkpt lat="44.13714" lon="5.01528">
        <ele>210.19</ele>
        <time>2018-12-10T10:24:15Z</time>
      </trkpt>
      <trkpt lat="44.13697" lon="5.01524">
        <ele>208.74</ele>
        <time>2018-12-10T10:24:32Z</time>
      </trkpt>
      <trkpt lat="44.13678" lon="5.0152">
        <ele>206.82</ele>
        <time>2018-12-10T10:24:51Z</time>
      </trkpt>
      <trkpt lat="44.13663" lon="5.01511">
        <ele>206.34</ele>
        <time>2018-12-10T10:25:05Z</time>
      </trkpt>
      <trkpt lat="44.13647" lon="5.01485">
        <ele>204.42</ele>
        <time>2018-12-10T10:25:26Z</time>
      </trkpt>
      <trkpt lat="44.13645" lon="5.01481">
        <ele>204.42</ele>
        <time>2018-12-10T10:25:30Z</time>
      </trkpt>
      <trkpt lat="44.13622" lon="5.01475">
        <ele>203.94</ele>
        <time>2018-12-10T10:25:49Z</time>
      </trkpt>
      <trkpt lat="44.13603" lon="5.01485">
        <ele>203.94</ele>
        <time>2018-12-10T10:26:08Z</time>
      </trkpt>
      <trkpt lat="44.13583" lon="5.01484">
        <ele>202.98</ele>
        <time>2018-12-10T10:26:27Z</time>
      </trkpt>
      <trkpt lat="44.13567" lon="5.01477">
        <ele>202.01</ele>
        <time>2018-12-10T10:26:43Z</time>
      </trkpt>
      <trkpt lat="44.13563" lon="5.01472">
        <ele>202.01</ele>
        <time>2018-12-10T10:26:48Z</time>
      </trkpt>
      <trkpt lat="44.13552" lon="5.01452">
        <ele>200.09</ele>
        <time>2018-12-10T10:27:05Z</time>
      </trkpt>
      <trkpt lat="44.13547" lon="5.01444">
        <ele>200.09</ele>
        <time>2018-12-10T10:27:11Z</time>
      </trkpt>
      <trkpt lat="44.13529" lon="5.01416">
        <ele>197.21</ele>
        <time>2018-12-10T10:27:33Z</time>
      </trkpt>
      <trkpt lat="44.13518" lon="5.01395">
        <ele>195.28</ele>
        <time>2018-12-10T10:27:51Z</time>
      </trkpt>
      <trkpt lat="44.13506" lon="5.01379">
        <ele>194.32</ele>
        <time>2018-12-10T10:28:08Z</time>
      </trkpt>
      <trkpt lat="44.13502" lon="5.01361">
        <ele>191.92</ele>
        <time>2018-12-10T10:28:23Z</time>
      </trkpt>
      <trkpt lat="44.13499" lon="5.01336">
        <ele>189.04</ele>
        <time>2018-12-10T10:28:39Z</time>
      </trkpt>
      <trkpt lat="44.135" lon="5.01327">
        <ele>187.59</ele>
        <time>2018-12-10T10:28:45Z</time>
      </trkpt>
      <trkpt lat="44.13501" lon="5.01323">
        <ele>189.04</ele>
        <time>2018-12-10T10:28:48Z</time>
      </trkpt>
      <trkpt lat="44.13509" lon="5.01295">
        <ele>188.08</ele>
        <time>2018-12-10T10:29:07Z</time>
      </trkpt>
      <trkpt lat="44.13512" lon="5.01277">
        <ele>185.67</ele>
        <time>2018-12-10T10:29:20Z</time>
      </trkpt>
      <trkpt lat="44.13512" lon="5.0127">
        <ele>185.67</ele>
        <time>2018-12-10T10:29:24Z</time>
      </trkpt>
      <trkpt lat="44.13514" lon="5.01238">
        <ele>182.79</ele>
        <time>2018-12-10T10:29:45Z</time>
      </trkpt>
      <trkpt lat="44.13516" lon="5.01206">
        <ele>182.31</ele>
        <time>2018-12-10T10:30:05Z</time>
      </trkpt>
      <trkpt lat="44.1352" lon="5.01177">
        <ele>180.38</ele>
        <time>2018-12-10T10:30:24Z</time>
      </trkpt>
      <trkpt lat="44.13524" lon="5.01145">
        <ele>179.9</ele>
        <time>2018-12-10T10:30:44Z</time>
      </trkpt>
      <trkpt lat="44.13526" lon="5.01112">
        <ele>178.94</ele>
        <time>2018-12-10T10:31:06Z</time>
      </trkpt>
      <trkpt lat="44.13531" lon="5.0108">
        <ele>177.98</ele>
        <time>2018-12-10T10:31:28Z</time>
      </trkpt>
      <trkpt lat="44.13538" lon="5.01052">
        <ele>177.02</ele>
        <time>2018-12-10T10:31:47Z</time>
      </trkpt>
      <trkpt lat="44.13545" lon="5.01021">
        <ele>176.54</ele>
        <time>2018-12-10T10:32:08Z</time>
      </trkpt>
      <trkpt lat="44.13549" lon="5.01002">
        <ele>176.06</ele>
        <time>2018-12-10T10:32:26Z</time>
      </trkpt>
      <trkpt lat="44.13553" lon="5.00989">
        <ele>175.58</ele>
        <time>2018-12-10T10:32:42Z</time>
      </trkpt>
      <trkpt lat="44.13556" lon="5.00978">
        <ele>174.62</ele>
        <time>2018-12-10T10:33:01Z</time>
      </trkpt>
      <trkpt lat="44.13554" lon="5.00974">
        <ele>175.58</ele>
        <time>2018-12-10T10:33:21Z</time>
      </trkpt>
      <trkpt lat="44.1356" lon="5.00975">
        <ele>174.62</ele>
        <time>2018-12-10T10:33:37Z</time>
      </trkpt>
      <trkpt lat="44.13567" lon="5.00975">
        <ele>174.14</ele>
        <time>2018-12-10T10:33:54Z</time>
      </trkpt>
      <trkpt lat="44.13562" lon="5.00971">
        <ele>174.62</ele>
        <time>2018-12-10T10:34:19Z</time>
      </trkpt>
      <trkpt lat="44.13562" lon="5.00972">
        <ele>174.62</ele>
        <time>2018-12-10T10:34:43Z</time>
      </trkpt>
      <trkpt lat="44.1356" lon="5.00974">
        <ele>175.58</ele>
        <time>2018-12-10T10:35:00Z</time>
      </trkpt>
      <trkpt lat="44.13562" lon="5.00973">
        <ele>174.14</ele>
        <time>2018-12-10T10:35:20Z</time>
      </trkpt>
      <trkpt lat="44.13563" lon="5.00973">
        <ele>175.58</ele>
        <time>2018-12-10T10:35:39Z</time>
      </trkpt>
      <trkpt lat="44.13564" lon="5.00975">
        <ele>176.06</ele>
        <time>2018-12-10T10:36:03Z</time>
      </trkpt>
      <trkpt lat="44.13564" lon="5.00973">
        <ele>176.06</ele>
        <time>2018-12-10T10:36:23Z</time>
      </trkpt>
      <trkpt lat="44.13566" lon="5.00972">
        <ele>176.06</ele>
        <time>2018-12-10T10:36:39Z</time>
      </trkpt>
      <trkpt lat="44.13572" lon="5.00968">
        <ele>175.58</ele>
        <time>2018-12-10T10:36:52Z</time>
      </trkpt>
      <trkpt lat="44.13577" lon="5.00961">
        <ele>177.02</ele>
        <time>2018-12-10T10:37:06Z</time>
      </trkpt>
      <trkpt lat="44.13577" lon="5.00962">
        <ele>176.54</ele>
        <time>2018-12-10T10:37:13Z</time>
      </trkpt>
      <trkpt lat="44.13576" lon="5.00963">
        <ele>176.54</ele>
        <time>2018-12-10T10:37:38Z</time>
      </trkpt>
      <trkpt lat="44.13578" lon="5.00962">
        <ele>176.06</ele>
        <time>2018-12-10T10:37:57Z</time>
      </trkpt>
      <trkpt lat="44.13583" lon="5.00971">
        <ele>177.5</ele>
        <time>2018-12-10T10:38:10Z</time>
      </trkpt>
      <trkpt lat="44.13587" lon="5.00975">
        <ele>178.46</ele>
        <time>2018-12-10T10:38:27Z</time>
      </trkpt>
      <trkpt lat="44.13587" lon="5.00973">
        <ele>178.46</ele>
        <time>2018-12-10T10:38:57Z</time>
      </trkpt>
      <trkpt lat="44.13582" lon="5.00969">
        <ele>177.02</ele>
        <time>2018-12-10T10:39:16Z</time>
      </trkpt>
      <trkpt lat="44.13578" lon="5.00963">
        <ele>176.54</ele>
        <time>2018-12-10T10:39:24Z</time>
      </trkpt>
      <trkpt lat="44.13577" lon="5.00956">
        <ele>176.06</ele>
        <time>2018-12-10T10:39:29Z</time>
      </trkpt>
      <trkpt lat="44.1358" lon="5.00926">
        <ele>176.06</ele>
        <time>2018-12-10T10:39:48Z</time>
      </trkpt>
      <trkpt lat="44.13587" lon="5.00895">
        <ele>175.1</ele>
        <time>2018-12-10T10:40:08Z</time>
      </trkpt>
      <trkpt lat="44.13593" lon="5.00874">
        <ele>176.06</ele>
        <time>2018-12-10T10:40:25Z</time>
      </trkpt>
      <trkpt lat="44.13595" lon="5.00849">
        <ele>176.54</ele>
        <time>2018-12-10T10:40:42Z</time>
      </trkpt>
      <trkpt lat="44.13597" lon="5.00836">
        <ele>175.1</ele>
        <time>2018-12-10T10:40:50Z</time>
      </trkpt>
      <trkpt lat="44.13598" lon="5.00828">
        <ele>177.02</ele>
        <time>2018-12-10T10:40:55Z</time>
      </trkpt>
      <trkpt lat="44.13602" lon="5.00803">
        <ele>176.54</ele>
        <time>2018-12-10T10:41:13Z</time>
      </trkpt>
      <trkpt lat="44.13603" lon="5.00797">
        <ele>177.98</ele>
        <time>2018-12-10T10:41:17Z</time>
      </trkpt>
      <trkpt lat="44.13605" lon="5.00789">
        <ele>178.46</ele>
        <time>2018-12-10T10:41:24Z</time>
      </trkpt>
      <trkpt lat="44.13608" lon="5.00761">
        <ele>179.42</ele>
        <time>2018-12-10T10:41:42Z</time>
      </trkpt>
      <trkpt lat="44.13606" lon="5.00751">
        <ele>179.42</ele>
        <time>2018-12-10T10:42:03Z</time>
      </trkpt>
      <trkpt lat="44.13607" lon="5.00734">
        <ele>179.42</ele>
        <time>2018-12-10T10:42:18Z</time>
      </trkpt>
      <trkpt lat="44.13608" lon="5.00729">
        <ele>177.98</ele>
        <time>2018-12-10T10:42:23Z</time>
      </trkpt>
      <trkpt lat="44.13603" lon="5.00724">
        <ele>177.98</ele>
        <time>2018-12-10T10:42:38Z</time>
      </trkpt>
      <trkpt lat="44.13596" lon="5.00717">
        <ele>177.5</ele>
        <time>2018-12-10T10:42:55Z</time>
      </trkpt>
      <trkpt lat="44.13604" lon="5.00721">
        <ele>178.94</ele>
        <time>2018-12-10T10:43:10Z</time>
      </trkpt>
      <trkpt lat="44.13604" lon="5.00722">
        <ele>178.94</ele>
        <time>2018-12-10T10:43:11Z</time>
      </trkpt>
      <trkpt lat="44.13604" lon="5.00722">
        <ele>177.98</ele>
        <time>2018-12-10T10:43:24Z</time>
      </trkpt>
      <trkpt lat="44.13594" lon="5.00708">
        <ele>177.98</ele>
        <time>2018-12-10T10:43:41Z</time>
      </trkpt>
      <trkpt lat="44.13594" lon="5.00707">
        <ele>179.42</ele>
        <time>2018-12-10T10:43:45Z</time>
      </trkpt>
      <trkpt lat="44.13597" lon="5.00705">
        <ele>179.42</ele>
        <time>2018-12-10T10:44:11Z</time>
      </trkpt>
      <trkpt lat="44.13599" lon="5.00703">
        <ele>177.98</ele>
        <time>2018-12-10T10:44:33Z</time>
      </trkpt>
      <trkpt lat="44.13601" lon="5.00703">
        <ele>178.94</ele>
        <time>2018-12-10T10:44:49Z</time>
      </trkpt>
      <trkpt lat="44.13598" lon="5.00703">
        <ele>179.42</ele>
        <time>2018-12-10T10:45:05Z</time>
      </trkpt>
      <trkpt lat="44.13598" lon="5.00703">
        <ele>178.46</ele>
        <time>2018-12-10T10:45:11Z</time>
      </trkpt>
      <trkpt lat="44.13596" lon="5.00702">
        <ele>178.46</ele>
        <time>2018-12-10T10:45:27Z</time>
      </trkpt>
      <trkpt lat="44.13596" lon="5.00708">
        <ele>178.94</ele>
        <time>2018-12-10T10:45:52Z</time>
      </trkpt>
      <trkpt lat="44.13595" lon="5.00708">
        <ele>179.42</ele>
        <time>2018-12-10T10:46:25Z</time>
      </trkpt>
      <trkpt lat="44.13596" lon="5.00709">
        <ele>179.9</ele>
        <time>2018-12-10T10:46:52Z</time>
      </trkpt>
      <trkpt lat="44.13597" lon="5.0071">
        <ele>179.9</ele>
        <time>2018-12-10T10:47:10Z</time>
      </trkpt>
      <trkpt lat="44.13597" lon="5.00705">
        <ele>179.42</ele>
        <time>2018-12-10T10:47:48Z</time>
      </trkpt>
      <trkpt lat="44.13597" lon="5.00705">
        <ele>178.94</ele>
        <time>2018-12-10T10:48:12Z</time>
      </trkpt>
      <trkpt lat="44.13596" lon="5.00708">
        <ele>178.46</ele>
        <time>2018-12-10T10:48:44Z</time>
      </trkpt>
      <trkpt lat="44.13598" lon="5.00708">
        <ele>177.98</ele>
        <time>2018-12-10T10:49:18Z</time>
      </trkpt>
      <trkpt lat="44.13599" lon="5.00709">
        <ele>177.98</ele>
        <time>2018-12-10T10:49:56Z</time>
      </trkpt>
      <trkpt lat="44.13599" lon="5.00711">
        <ele>179.42</ele>
        <time>2018-12-10T10:50:02Z</time>
      </trkpt>
      <trkpt lat="44.13599" lon="5.00711">
        <ele>177.98</ele>
        <time>2018-12-10T10:50:21Z</time>
      </trkpt>
      <trkpt lat="44.13599" lon="5.00709">
        <ele>177.98</ele>
        <time>2018-12-10T10:50:53Z</time>
      </trkpt>
      <trkpt lat="44.136" lon="5.00709">
        <ele>177.98</ele>
        <time>2018-12-10T10:51:24Z</time>
      </trkpt>
      <trkpt lat="44.136" lon="5.00713">
        <ele>177.5</ele>
        <time>2018-12-10T10:51:57Z</time>
      </trkpt>
      <trkpt lat="44.136" lon="5.00713">
        <ele>178.46</ele>
        <time>2018-12-10T10:52:16Z</time>
      </trkpt>
      <trkpt lat="44.13602" lon="5.00708">
        <ele>178.46</ele>
        <time>2018-12-10T10:52:54Z</time>
      </trkpt>
      <trkpt lat="44.136" lon="5.00708">
        <ele>177.98</ele>
        <time>2018-12-10T10:53:25Z</time>
      </trkpt>
      <trkpt lat="44.136" lon="5.00705">
        <ele>177.02</ele>
        <time>2018-12-10T10:53:54Z</time>
      </trkpt>
      <trkpt lat="44.13598" lon="5.00711">
        <ele>178.46</ele>
        <time>2018-12-10T10:54:10Z</time>
      </trkpt>
      <trkpt lat="44.13598" lon="5.00712">
        <ele>177.98</ele>
        <time>2018-12-10T10:54:29Z</time>
      </trkpt>
      <trkpt lat="44.13599" lon="5.00713">
        <ele>178.46</ele>
        <time>2018-12-10T10:54:39Z</time>
      </trkpt>
      <trkpt lat="44.13601" lon="5.00709">
        <ele>177.5</ele>
        <time>2018-12-10T10:55:17Z</time>
      </trkpt>
      <trkpt lat="44.13601" lon="5.00712">
        <ele>177.5</ele>
        <time>2018-12-10T10:55:52Z</time>
      </trkpt>
      <trkpt lat="44.13603" lon="5.00709">
        <ele>177.5</ele>
        <time>2018-12-10T10:56:29Z</time>
      </trkpt>
      <trkpt lat="44.13602" lon="5.00709">
        <ele>177.5</ele>
        <time>2018-12-10T10:57:05Z</time>
      </trkpt>
      <trkpt lat="44.13603" lon="5.00707">
        <ele>177.02</ele>
        <time>2018-12-10T10:57:38Z</time>
      </trkpt>
      <trkpt lat="44.13603" lon="5.00705">
        <ele>177.98</ele>
        <time>2018-12-10T10:58:01Z</time>
      </trkpt>
      <trkpt lat="44.13602" lon="5.00707">
        <ele>177.02</ele>
        <time>2018-12-10T10:58:28Z</time>
      </trkpt>
      <trkpt lat="44.13602" lon="5.00707">
        <ele>177.02</ele>
        <time>2018-12-10T10:59:00Z</time>
      </trkpt>
      <trkpt lat="44.13604" lon="5.00709">
        <ele>177.02</ele>
        <time>2018-12-10T10:59:36Z</time>
      </trkpt>
      <trkpt lat="44.13604" lon="5.00709">
        <ele>178.46</ele>
        <time>2018-12-10T11:00:00Z</time>
      </trkpt>
      <trkpt lat="44.13602" lon="5.00709">
        <ele>177.98</ele>
        <time>2018-12-10T11:00:31Z</time>
      </trkpt>
      <trkpt lat="44.136" lon="5.0071">
        <ele>177.5</ele>
        <time>2018-12-10T11:00:57Z</time>
      </trkpt>
      <trkpt lat="44.13601" lon="5.00704">
        <ele>177.02</ele>
        <time>2018-12-10T11:01:36Z</time>
      </trkpt>
      <trkpt lat="44.13601" lon="5.00702">
        <ele>177.02</ele>
        <time>2018-12-10T11:02:04Z</time>
      </trkpt>
      <trkpt lat="44.13601" lon="5.00704">
        <ele>177.98</ele>
        <time>2018-12-10T11:02:29Z</time>
      </trkpt>
      <trkpt lat="44.13602" lon="5.00706">
        <ele>177.5</ele>
        <time>2018-12-10T11:03:03Z</time>
      </trkpt>
      <trkpt lat="44.13604" lon="5.00704">
        <ele>177.02</ele>
        <time>2018-12-10T11:03:36Z</time>
      </trkpt>
      <trkpt lat="44.13601" lon="5.00708">
        <ele>177.02</ele>
        <time>2018-12-10T11:04:12Z</time>
      </trkpt>
      <trkpt lat="44.13603" lon="5.00706">
        <ele>176.54</ele>
        <time>2018-12-10T11:04:38Z</time>
      </trkpt>
      <trkpt lat="44.13602" lon="5.00707">
        <ele>176.54</ele>
        <time>2018-12-10T11:05:10Z</time>
      </trkpt>
      <trkpt lat="44.13601" lon="5.00706">
        <ele>176.54</ele>
        <time>2018-12-10T11:05:40Z</time>
      </trkpt>
      <trkpt lat="44.136" lon="5.00709">
        <ele>177.02</ele>
        <time>2018-12-10T11:06:07Z</time>
      </trkpt>
      <trkpt lat="44.13602" lon="5.00705">
        <ele>177.5</ele>
        <time>2018-12-10T11:06:40Z</time>
      </trkpt>
      <trkpt lat="44.13602" lon="5.00705">
        <ele>176.54</ele>
        <time>2018-12-10T11:07:11Z</time>
      </trkpt>
      <trkpt lat="44.13601" lon="5.00705">
        <ele>177.5</ele>
        <time>2018-12-10T11:07:46Z</time>
      </trkpt>
      <trkpt lat="44.13603" lon="5.00704">
        <ele>176.54</ele>
        <time>2018-12-10T11:08:15Z</time>
      </trkpt>
      <trkpt lat="44.13603" lon="5.00704">
        <ele>177.5</ele>
        <time>2018-12-10T11:08:28Z</time>
      </trkpt>
      <trkpt lat="44.13602" lon="5.00703">
        <ele>176.54</ele>
        <time>2018-12-10T11:08:35Z</time>
      </trkpt>
      <trkpt lat="44.13602" lon="5.00704">
        <ele>177.98</ele>
        <time>2018-12-10T11:08:44Z</time>
      </trkpt>
      <trkpt lat="44.13603" lon="5.00703">
        <ele>177.02</ele>
        <time>2018-12-10T11:09:15Z</time>
      </trkpt>
      <trkpt lat="44.13603" lon="5.00702">
        <ele>177.02</ele>
        <time>2018-12-10T11:09:44Z</time>
      </trkpt>
      <trkpt lat="44.13602" lon="5.00704">
        <ele>177.02</ele>
        <time>2018-12-10T11:10:03Z</time>
      </trkpt>
      <trkpt lat="44.13602" lon="5.00706">
        <ele>177.5</ele>
        <time>2018-12-10T11:10:38Z</time>
      </trkpt>
      <trkpt lat="44.13603" lon="5.00705">
        <ele>176.54</ele>
        <time>2018-12-10T11:10:59Z</time>
      </trkpt>
      <trkpt lat="44.13603" lon="5.00706">
        <ele>177.98</ele>
        <time>2018-12-10T11:11:03Z</time>
      </trkpt>
      <trkpt lat="44.13603" lon="5.00704">
        <ele>177.98</ele>
        <time>2018-12-10T11:11:33Z</time>
      </trkpt>
      <trkpt lat="44.13599" lon="5.00706">
        <ele>177.5</ele>
        <time>2018-12-10T11:12:03Z</time>
      </trkpt>
      <trkpt lat="44.136" lon="5.00703">
        <ele>178.46</ele>
        <time>2018-12-10T11:12:15Z</time>
      </trkpt>
      <trkpt lat="44.136" lon="5.00703">
        <ele>178.46</ele>
        <time>2018-12-10T11:12:36Z</time>
      </trkpt>
      <trkpt lat="44.13599" lon="5.00704">
        <ele>178.94</ele>
        <time>2018-12-10T11:13:07Z</time>
      </trkpt>
      <trkpt lat="44.136" lon="5.00706">
        <ele>178.94</ele>
        <time>2018-12-10T11:13:21Z</time>
      </trkpt>
      <trkpt lat="44.13599" lon="5.00707">
        <ele>177.5</ele>
        <time>2018-12-10T11:13:37Z</time>
      </trkpt>
      <trkpt lat="44.13598" lon="5.00712">
        <ele>177.98</ele>
        <time>2018-12-10T11:14:06Z</time>
      </trkpt>
      <trkpt lat="44.13598" lon="5.0071">
        <ele>177.5</ele>
        <time>2018-12-10T11:14:30Z</time>
      </trkpt>
      <trkpt lat="44.13598" lon="5.00708">
        <ele>177.98</ele>
        <time>2018-12-10T11:14:56Z</time>
      </trkpt>
      <trkpt lat="44.13597" lon="5.00709">
        <ele>179.42</ele>
        <time>2018-12-10T11:15:25Z</time>
      </trkpt>
      <trkpt lat="44.13598" lon="5.00708">
        <ele>177.98</ele>
        <time>2018-12-10T11:15:46Z</time>
      </trkpt>
      <trkpt lat="44.13599" lon="5.00711">
        <ele>179.42</ele>
        <time>2018-12-10T11:16:11Z</time>
      </trkpt>
      <trkpt lat="44.136" lon="5.00708">
        <ele>179.42</ele>
        <time>2018-12-10T11:16:36Z</time>
      </trkpt>
      <trkpt lat="44.136" lon="5.0071">
        <ele>179.42</ele>
        <time>2018-12-10T11:17:08Z</time>
      </trkpt>
      <trkpt lat="44.13598" lon="5.00708">
        <ele>178.46</ele>
        <time>2018-12-10T11:17:38Z</time>
      </trkpt>
      <trkpt lat="44.13597" lon="5.0071">
        <ele>178.46</ele>
        <time>2018-12-10T11:17:57Z</time>
      </trkpt>
      <trkpt lat="44.13601" lon="5.00713">
        <ele>179.9</ele>
        <time>2018-12-10T11:18:39Z</time>
      </trkpt>
      <trkpt lat="44.13597" lon="5.00712">
        <ele>178.94</ele>
        <time>2018-12-10T11:19:18Z</time>
      </trkpt>
      <trkpt lat="44.13596" lon="5.00714">
        <ele>178.94</ele>
        <time>2018-12-10T11:19:48Z</time>
      </trkpt>
      <trkpt lat="44.13596" lon="5.00713">
        <ele>180.38</ele>
        <time>2018-12-10T11:20:16Z</time>
      </trkpt>
      <trkpt lat="44.13599" lon="5.00713">
        <ele>180.38</ele>
        <time>2018-12-10T11:20:46Z</time>
      </trkpt>
      <trkpt lat="44.13601" lon="5.0071">
        <ele>180.38</ele>
        <time>2018-12-10T11:21:04Z</time>
      </trkpt>
      <trkpt lat="44.136" lon="5.00711">
        <ele>180.38</ele>
        <time>2018-12-10T11:21:26Z</time>
      </trkpt>
      <trkpt lat="44.13603" lon="5.00706">
        <ele>178.94</ele>
        <time>2018-12-10T11:21:46Z</time>
      </trkpt>
      <trkpt lat="44.13603" lon="5.00705">
        <ele>180.38</ele>
        <time>2018-12-10T11:21:54Z</time>
      </trkpt>
      <trkpt lat="44.136" lon="5.00704">
        <ele>180.38</ele>
        <time>2018-12-10T11:22:13Z</time>
      </trkpt>
      <trkpt lat="44.13602" lon="5.00703">
        <ele>180.38</ele>
        <time>2018-12-10T11:22:39Z</time>
      </trkpt>
      <trkpt lat="44.13602" lon="5.00704">
        <ele>178.94</ele>
        <time>2018-12-10T11:22:42Z</time>
      </trkpt>
      <trkpt lat="44.13602" lon="5.00704">
        <ele>180.38</ele>
        <time>2018-12-10T11:22:48Z</time>
      </trkpt>
      <trkpt lat="44.13602" lon="5.00703">
        <ele>180.38</ele>
        <time>2018-12-10T11:23:12Z</time>
      </trkpt>
      <trkpt lat="44.13604" lon="5.00709">
        <ele>179.9</ele>
        <time>2018-12-10T11:23:34Z</time>
      </trkpt>
      <trkpt lat="44.13601" lon="5.00713">
        <ele>179.9</ele>
        <time>2018-12-10T11:23:48Z</time>
      </trkpt>
      <trkpt lat="44.13601" lon="5.00713">
        <ele>179.9</ele>
        <time>2018-12-10T11:24:13Z</time>
      </trkpt>
      <trkpt lat="44.13598" lon="5.00713">
        <ele>179.9</ele>
        <time>2018-12-10T11:24:34Z</time>
      </trkpt>
      <trkpt lat="44.13598" lon="5.00711">
        <ele>180.38</ele>
        <time>2018-12-10T11:24:58Z</time>
      </trkpt>
      <trkpt lat="44.13599" lon="5.00712">
        <ele>180.38</ele>
        <time>2018-12-10T11:25:26Z</time>
      </trkpt>
      <trkpt lat="44.13601" lon="5.00714">
        <ele>180.38</ele>
        <time>2018-12-10T11:25:55Z</time>
      </trkpt>
      <trkpt lat="44.13601" lon="5.00714">
        <ele>179.42</ele>
        <time>2018-12-10T11:26:15Z</time>
      </trkpt>
      <trkpt lat="44.136" lon="5.00713">
        <ele>180.38</ele>
        <time>2018-12-10T11:26:42Z</time>
      </trkpt>
      <trkpt lat="44.13601" lon="5.00714">
        <ele>178.94</ele>
        <time>2018-12-10T11:27:04Z</time>
      </trkpt>
      <trkpt lat="44.13601" lon="5.00712">
        <ele>179.9</ele>
        <time>2018-12-10T11:27:31Z</time>
      </trkpt>
      <trkpt lat="44.136" lon="5.0071">
        <ele>179.9</ele>
        <time>2018-12-10T11:28:03Z</time>
      </trkpt>
      <trkpt lat="44.13602" lon="5.00712">
        <ele>180.38</ele>
        <time>2018-12-10T11:28:35Z</time>
      </trkpt>
      <trkpt lat="44.13602" lon="5.00713">
        <ele>179.42</ele>
        <time>2018-12-10T11:29:03Z</time>
      </trkpt>
      <trkpt lat="44.13603" lon="5.00713">
        <ele>181.35</ele>
        <time>2018-12-10T11:29:32Z</time>
      </trkpt>
      <trkpt lat="44.13605" lon="5.00716">
        <ele>179.9</ele>
        <time>2018-12-10T11:29:49Z</time>
      </trkpt>
      <trkpt lat="44.13614" lon="5.00727">
        <ele>179.9</ele>
        <time>2018-12-10T11:30:04Z</time>
      </trkpt>
      <trkpt lat="44.13625" lon="5.00728">
        <ele>181.35</ele>
        <time>2018-12-10T11:30:20Z</time>
      </trkpt>
      <trkpt lat="44.13632" lon="5.00725">
        <ele>182.31</ele>
        <time>2018-12-10T11:30:33Z</time>
      </trkpt>
      <trkpt lat="44.13642" lon="5.00729">
        <ele>184.71</ele>
        <time>2018-12-10T11:30:50Z</time>
      </trkpt>
      <trkpt lat="44.13651" lon="5.00743">
        <ele>186.15</ele>
        <time>2018-12-10T11:31:08Z</time>
      </trkpt>
      <trkpt lat="44.1366" lon="5.00743">
        <ele>186.63</ele>
        <time>2018-12-10T11:31:21Z</time>
      </trkpt>
      <trkpt lat="44.13667" lon="5.0074">
        <ele>188.56</ele>
        <time>2018-12-10T11:31:31Z</time>
      </trkpt>
      <trkpt lat="44.13675" lon="5.00734">
        <ele>188.08</ele>
        <time>2018-12-10T11:31:46Z</time>
      </trkpt>
      <trkpt lat="44.13687" lon="5.00726">
        <ele>188.08</ele>
        <time>2018-12-10T11:32:02Z</time>
      </trkpt>
      <trkpt lat="44.13689" lon="5.00725">
        <ele>188.08</ele>
        <time>2018-12-10T11:32:04Z</time>
      </trkpt>
      <trkpt lat="44.13698" lon="5.00726">
        <ele>187.11</ele>
        <time>2018-12-10T11:32:16Z</time>
      </trkpt>
      <trkpt lat="44.137" lon="5.00728">
        <ele>187.11</ele>
        <time>2018-12-10T11:32:19Z</time>
      </trkpt>
      <trkpt lat="44.13715" lon="5.00744">
        <ele>187.11</ele>
        <time>2018-12-10T11:32:36Z</time>
      </trkpt>
      <trkpt lat="44.13716" lon="5.00748">
        <ele>186.63</ele>
        <time>2018-12-10T11:32:54Z</time>
      </trkpt>
      <trkpt lat="44.13713" lon="5.00752">
        <ele>186.63</ele>
        <time>2018-12-10T11:33:15Z</time>
      </trkpt>
      <trkpt lat="44.13715" lon="5.00751">
        <ele>186.63</ele>
        <time>2018-12-10T11:33:32Z</time>
      </trkpt>
      <trkpt lat="44.13718" lon="5.00752">
        <ele>186.63</ele>
        <time>2018-12-10T11:33:51Z</time>
      </trkpt>
      <trkpt lat="44.1372" lon="5.00749">
        <ele>186.63</ele>
        <time>2018-12-10T11:34:11Z</time>
      </trkpt>
      <trkpt lat="44.13723" lon="5.0075">
        <ele>186.63</ele>
        <time>2018-12-10T11:34:30Z</time>
      </trkpt>
      <trkpt lat="44.13729" lon="5.00761">
        <ele>186.63</ele>
        <time>2018-12-10T11:34:47Z</time>
      </trkpt>
      <trkpt lat="44.13728" lon="5.00774">
        <ele>186.15</ele>
        <time>2018-12-10T11:35:03Z</time>
      </trkpt>
      <trkpt lat="44.13729" lon="5.00776">
        <ele>187.59</ele>
        <time>2018-12-10T11:35:06Z</time>
      </trkpt>
      <trkpt lat="44.13739" lon="5.00795">
        <ele>187.59</ele>
        <time>2018-12-10T11:35:22Z</time>
      </trkpt>
      <trkpt lat="44.1375" lon="5.00812">
        <ele>187.59</ele>
        <time>2018-12-10T11:35:38Z</time>
      </trkpt>
      <trkpt lat="44.13766" lon="5.00819">
        <ele>188.08</ele>
        <time>2018-12-10T11:35:53Z</time>
      </trkpt>
      <trkpt lat="44.1378" lon="5.00823">
        <ele>188.08</ele>
        <time>2018-12-10T11:36:08Z</time>
      </trkpt>
      <trkpt lat="44.138" lon="5.00819">
        <ele>188.56</ele>
        <time>2018-12-10T11:36:29Z</time>
      </trkpt>
      <trkpt lat="44.13812" lon="5.00813">
        <ele>190.96</ele>
        <time>2018-12-10T11:36:44Z</time>
      </trkpt>
      <trkpt lat="44.13824" lon="5.00808">
        <ele>192.4</ele>
        <time>2018-12-10T11:36:58Z</time>
      </trkpt>
      <trkpt lat="44.13837" lon="5.00796">
        <ele>193.36</ele>
        <time>2018-12-10T11:37:15Z</time>
      </trkpt>
      <trkpt lat="44.13848" lon="5.00785">
        <ele>194.32</ele>
        <time>2018-12-10T11:37:32Z</time>
      </trkpt>
      <trkpt lat="44.13857" lon="5.00779">
        <ele>195.28</ele>
        <time>2018-12-10T11:37:43Z</time>
      </trkpt>
      <trkpt lat="44.1387" lon="5.00775">
        <ele>197.21</ele>
        <time>2018-12-10T11:37:57Z</time>
      </trkpt>
      <trkpt lat="44.13885" lon="5.00784">
        <ele>198.65</ele>
        <time>2018-12-10T11:38:13Z</time>
      </trkpt>
      <trkpt lat="44.13888" lon="5.00786">
        <ele>197.21</ele>
        <time>2018-12-10T11:38:16Z</time>
      </trkpt>
      <trkpt lat="44.1389" lon="5.00789">
        <ele>198.65</ele>
        <time>2018-12-10T11:38:19Z</time>
      </trkpt>
      <trkpt lat="44.13901" lon="5.00804">
        <ele>197.69</ele>
        <time>2018-12-10T11:38:34Z</time>
      </trkpt>
      <trkpt lat="44.13905" lon="5.00807">
        <ele>199.13</ele>
        <time>2018-12-10T11:38:38Z</time>
      </trkpt>
      <trkpt lat="44.13915" lon="5.0082">
        <ele>200.09</ele>
        <time>2018-12-10T11:38:52Z</time>
      </trkpt>
      <trkpt lat="44.13925" lon="5.00831">
        <ele>202.49</ele>
        <time>2018-12-10T11:39:07Z</time>
      </trkpt>
      <trkpt lat="44.13929" lon="5.00831">
        <ele>203.94</ele>
        <time>2018-12-10T11:39:10Z</time>
      </trkpt>
      <trkpt lat="44.13928" lon="5.00831">
        <ele>202.98</ele>
        <time>2018-12-10T11:39:30Z</time>
      </trkpt>
      <trkpt lat="44.13927" lon="5.00828">
        <ele>202.98</ele>
        <time>2018-12-10T11:39:58Z</time>
      </trkpt>
      <trkpt lat="44.13928" lon="5.00829">
        <ele>201.53</ele>
        <time>2018-12-10T11:40:04Z</time>
      </trkpt>
      <trkpt lat="44.13928" lon="5.0083">
        <ele>203.46</ele>
        <time>2018-12-10T11:40:07Z</time>
      </trkpt>
      <trkpt lat="44.1393" lon="5.00835">
        <ele>202.98</ele>
        <time>2018-12-10T11:40:12Z</time>
      </trkpt>
      <trkpt lat="44.13932" lon="5.00843">
        <ele>203.46</ele>
        <time>2018-12-10T11:40:20Z</time>
      </trkpt>
      <trkpt lat="44.13933" lon="5.00852">
        <ele>204.42</ele>
        <time>2018-12-10T11:40:29Z</time>
      </trkpt>
      <trkpt lat="44.13944" lon="5.00868">
        <ele>205.86</ele>
        <time>2018-12-10T11:40:45Z</time>
      </trkpt>
      <trkpt lat="44.13957" lon="5.0088">
        <ele>207.78</ele>
        <time>2018-12-10T11:41:02Z</time>
      </trkpt>
      <trkpt lat="44.13963" lon="5.00885">
        <ele>208.26</ele>
        <time>2018-12-10T11:41:10Z</time>
      </trkpt>
      <trkpt lat="44.13971" lon="5.00896">
        <ele>210.67</ele>
        <time>2018-12-10T11:41:27Z</time>
      </trkpt>
      <trkpt lat="44.13983" lon="5.00908">
        <ele>213.55</ele>
        <time>2018-12-10T11:41:44Z</time>
      </trkpt>
      <trkpt lat="44.13998" lon="5.00917">
        <ele>214.51</ele>
        <time>2018-12-10T11:42:00Z</time>
      </trkpt>
      <trkpt lat="44.14011" lon="5.00919">
        <ele>214.99</ele>
        <time>2018-12-10T11:42:14Z</time>
      </trkpt>
      <trkpt lat="44.14021" lon="5.00927">
        <ele>216.91</ele>
        <time>2018-12-10T11:42:28Z</time>
      </trkpt>
      <trkpt lat="44.14033" lon="5.00939">
        <ele>219.32</ele>
        <time>2018-12-10T11:42:46Z</time>
      </trkpt>
      <trkpt lat="44.14043" lon="5.00952">
        <ele>220.76</ele>
        <time>2018-12-10T11:43:00Z</time>
      </trkpt>
      <trkpt lat="44.14052" lon="5.00965">
        <ele>222.68</ele>
        <time>2018-12-10T11:43:16Z</time>
      </trkpt>
      <trkpt lat="44.14061" lon="5.00969">
        <ele>224.61</ele>
        <time>2018-12-10T11:43:34Z</time>
      </trkpt>
      <trkpt lat="44.1406" lon="5.00967">
        <ele>224.61</ele>
        <time>2018-12-10T11:44:03Z</time>
      </trkpt>
      <trkpt lat="44.1406" lon="5.00969">
        <ele>225.09</ele>
        <time>2018-12-10T11:44:35Z</time>
      </trkpt>
      <trkpt lat="44.14062" lon="5.00971">
        <ele>225.09</ele>
        <time>2018-12-10T11:45:04Z</time>
      </trkpt>
      <trkpt lat="44.1407" lon="5.00977">
        <ele>226.05</ele>
        <time>2018-12-10T11:45:17Z</time>
      </trkpt>
      <trkpt lat="44.1408" lon="5.00983">
        <ele>227.97</ele>
        <time>2018-12-10T11:45:33Z</time>
      </trkpt>
      <trkpt lat="44.14087" lon="5.00993">
        <ele>229.41</ele>
        <time>2018-12-10T11:45:47Z</time>
      </trkpt>
      <trkpt lat="44.14088" lon="5.00994">
        <ele>228.45</ele>
        <time>2018-12-10T11:46:04Z</time>
      </trkpt>
      <trkpt lat="44.14083" lon="5.01006">
        <ele>229.41</ele>
        <time>2018-12-10T11:46:20Z</time>
      </trkpt>
      <trkpt lat="44.14073" lon="5.01019">
        <ele>231.33</ele>
        <time>2018-12-10T11:46:34Z</time>
      </trkpt>
      <trkpt lat="44.14063" lon="5.01033">
        <ele>232.78</ele>
        <time>2018-12-10T11:46:51Z</time>
      </trkpt>
      <trkpt lat="44.14053" lon="5.01045">
        <ele>234.7</ele>
        <time>2018-12-10T11:47:08Z</time>
      </trkpt>
      <trkpt lat="44.14043" lon="5.01052">
        <ele>236.14</ele>
        <time>2018-12-10T11:47:22Z</time>
      </trkpt>
      <trkpt lat="44.14028" lon="5.01063">
        <ele>238.06</ele>
        <time>2018-12-10T11:47:39Z</time>
      </trkpt>
      <trkpt lat="44.14023" lon="5.0108">
        <ele>239.51</ele>
        <time>2018-12-10T11:47:55Z</time>
      </trkpt>
      <trkpt lat="44.14034" lon="5.01082">
        <ele>241.43</ele>
        <time>2018-12-10T11:48:09Z</time>
      </trkpt>
      <trkpt lat="44.14047" lon="5.01079">
        <ele>244.31</ele>
        <time>2018-12-10T11:48:27Z</time>
      </trkpt>
      <trkpt lat="44.14057" lon="5.01077">
        <ele>247.2</ele>
        <time>2018-12-10T11:48:40Z</time>
      </trkpt>
      <trkpt lat="44.14062" lon="5.01076">
        <ele>245.75</ele>
        <time>2018-12-10T11:48:47Z</time>
      </trkpt>
      <trkpt lat="44.14063" lon="5.01075">
        <ele>247.2</ele>
        <time>2018-12-10T11:48:49Z</time>
      </trkpt>
      <trkpt lat="44.14066" lon="5.01074">
        <ele>248.64</ele>
        <time>2018-12-10T11:48:52Z</time>
      </trkpt>
      <trkpt lat="44.14069" lon="5.01074">
        <ele>247.2</ele>
        <time>2018-12-10T11:48:56Z</time>
      </trkpt>
      <trkpt lat="44.14072" lon="5.01074">
        <ele>248.64</ele>
        <time>2018-12-10T11:48:59Z</time>
      </trkpt>
      <trkpt lat="44.14086" lon="5.01072">
        <ele>249.12</ele>
        <time>2018-12-10T11:49:15Z</time>
      </trkpt>
      <trkpt lat="44.14086" lon="5.01072">
        <ele>249.12</ele>
        <time>2018-12-10T11:49:16Z</time>
      </trkpt>
      <trkpt lat="44.14088" lon="5.01072">
        <ele>250.56</ele>
        <time>2018-12-10T11:49:18Z</time>
      </trkpt>
      <trkpt lat="44.141" lon="5.01066">
        <ele>253.44</ele>
        <time>2018-12-10T11:49:32Z</time>
      </trkpt>
      <trkpt lat="44.14114" lon="5.01061">
        <ele>253.93</ele>
        <time>2018-12-10T11:49:47Z</time>
      </trkpt>
      <trkpt lat="44.14127" lon="5.01055">
        <ele>255.37</ele>
        <time>2018-12-10T11:50:02Z</time>
      </trkpt>
      <trkpt lat="44.14139" lon="5.01056">
        <ele>255.37</ele>
        <time>2018-12-10T11:50:17Z</time>
      </trkpt>
      <trkpt lat="44.14145" lon="5.01057">
        <ele>256.81</ele>
        <time>2018-12-10T11:50:23Z</time>
      </trkpt>
      <trkpt lat="44.14149" lon="5.01058">
        <ele>259.21</ele>
        <time>2018-12-10T11:50:27Z</time>
      </trkpt>
      <trkpt lat="44.14154" lon="5.01064">
        <ele>260.65</ele>
        <time>2018-12-10T11:50:36Z</time>
      </trkpt>
      <trkpt lat="44.14155" lon="5.01065">
        <ele>259.21</ele>
        <time>2018-12-10T11:50:39Z</time>
      </trkpt>
      <trkpt lat="44.14158" lon="5.01069">
        <ele>260.65</ele>
        <time>2018-12-10T11:50:44Z</time>
      </trkpt>
      <trkpt lat="44.14168" lon="5.01078">
        <ele>263.54</ele>
        <time>2018-12-10T11:51:00Z</time>
      </trkpt>
      <trkpt lat="44.14177" lon="5.01084">
        <ele>263.54</ele>
        <time>2018-12-10T11:51:14Z</time>
      </trkpt>
      <trkpt lat="44.14177" lon="5.01083">
        <ele>264.02</ele>
        <time>2018-12-10T11:51:22Z</time>
      </trkpt>
      <trkpt lat="44.14178" lon="5.01082">
        <ele>264.02</ele>
        <time>2018-12-10T11:51:33Z</time>
      </trkpt>
      <trkpt lat="44.14177" lon="5.01082">
        <ele>264.98</ele>
        <time>2018-12-10T11:51:42Z</time>
      </trkpt>
      <trkpt lat="44.14176" lon="5.01082">
        <ele>264.02</ele>
        <time>2018-12-10T11:51:58Z</time>
      </trkpt>
      <trkpt lat="44.14176" lon="5.01082">
        <ele>265.46</ele>
        <time>2018-12-10T11:52:00Z</time>
      </trkpt>
      <trkpt lat="44.14176" lon="5.01084">
        <ele>264.5</ele>
        <time>2018-12-10T11:52:16Z</time>
      </trkpt>
      <trkpt lat="44.14175" lon="5.01087">
        <ele>263.54</ele>
        <time>2018-12-10T11:52:36Z</time>
      </trkpt>
      <trkpt lat="44.14174" lon="5.01087">
        <ele>263.54</ele>
        <time>2018-12-10T11:53:01Z</time>
      </trkpt>
      <trkpt lat="44.14173" lon="5.01087">
        <ele>264.98</ele>
        <time>2018-12-10T11:53:16Z</time>
      </trkpt>
      <trkpt lat="44.14171" lon="5.01084">
        <ele>265.94</ele>
        <time>2018-12-10T11:53:56Z</time>
      </trkpt>
      <trkpt lat="44.14175" lon="5.01083">
        <ele>265.46</ele>
        <time>2018-12-10T11:54:27Z</time>
      </trkpt>
      <trkpt lat="44.14176" lon="5.01087">
        <ele>264.98</ele>
        <time>2018-12-10T11:54:46Z</time>
      </trkpt>
      <trkpt lat="44.14179" lon="5.01088">
        <ele>265.94</ele>
        <time>2018-12-10T11:55:09Z</time>
      </trkpt>
      <trkpt lat="44.1418" lon="5.01087">
        <ele>265.94</ele>
        <time>2018-12-10T11:55:34Z</time>
      </trkpt>
      <trkpt lat="44.1418" lon="5.01098">
        <ele>266.9</ele>
        <time>2018-12-10T11:55:53Z</time>
      </trkpt>
      <trkpt lat="44.14171" lon="5.01104">
        <ele>268.35</ele>
        <time>2018-12-10T11:56:03Z</time>
      </trkpt>
      <trkpt lat="44.1416" lon="5.01108">
        <ele>270.75</ele>
        <time>2018-12-10T11:56:18Z</time>
      </trkpt>
      <trkpt lat="44.14159" lon="5.01107">
        <ele>270.27</ele>
        <time>2018-12-10T11:56:35Z</time>
      </trkpt>
      <trkpt lat="44.14146" lon="5.01111">
        <ele>271.71</ele>
        <time>2018-12-10T11:56:51Z</time>
      </trkpt>
      <trkpt lat="44.14133" lon="5.01122">
        <ele>272.67</ele>
        <time>2018-12-10T11:57:08Z</time>
      </trkpt>
      <trkpt lat="44.14122" lon="5.0113">
        <ele>273.15</ele>
        <time>2018-12-10T11:57:23Z</time>
      </trkpt>
      <trkpt lat="44.1411" lon="5.01142">
        <ele>274.59</ele>
        <time>2018-12-10T11:57:38Z</time>
      </trkpt>
      <trkpt lat="44.14098" lon="5.01152">
        <ele>275.07</ele>
        <time>2018-12-10T11:57:53Z</time>
      </trkpt>
      <trkpt lat="44.14094" lon="5.01157">
        <ele>275.07</ele>
        <time>2018-12-10T11:58:08Z</time>
      </trkpt>
      <trkpt lat="44.14104" lon="5.01145">
        <ele>273.15</ele>
        <time>2018-12-10T11:58:26Z</time>
      </trkpt>
      <trkpt lat="44.1411" lon="5.0114">
        <ele>274.59</ele>
        <time>2018-12-10T11:58:34Z</time>
      </trkpt>
      <trkpt lat="44.14121" lon="5.01131">
        <ele>273.15</ele>
        <time>2018-12-10T11:58:50Z</time>
      </trkpt>
      <trkpt lat="44.14132" lon="5.01122">
        <ele>272.19</ele>
        <time>2018-12-10T11:59:06Z</time>
      </trkpt>
      <trkpt lat="44.14144" lon="5.01112">
        <ele>270.75</ele>
        <time>2018-12-10T11:59:23Z</time>
      </trkpt>
      <trkpt lat="44.14155" lon="5.01115">
        <ele>268.83</ele>
        <time>2018-12-10T11:59:39Z</time>
      </trkpt>
      <trkpt lat="44.14159" lon="5.01131">
        <ele>269.79</ele>
        <time>2018-12-10T11:59:52Z</time>
      </trkpt>
      <trkpt lat="44.14159" lon="5.01133">
        <ele>269.79</ele>
        <time>2018-12-10T11:59:53Z</time>
      </trkpt>
      <trkpt lat="44.14164" lon="5.01156">
        <ele>271.71</ele>
        <time>2018-12-10T12:00:09Z</time>
      </trkpt>
      <trkpt lat="44.14173" lon="5.01172">
        <ele>272.67</ele>
        <time>2018-12-10T12:00:24Z</time>
      </trkpt>
      <trkpt lat="44.14179" lon="5.01179">
        <ele>274.11</ele>
        <time>2018-12-10T12:00:38Z</time>
      </trkpt>
      <trkpt lat="44.14185" lon="5.0118">
        <ele>277.48</ele>
        <time>2018-12-10T12:00:47Z</time>
      </trkpt>
      <trkpt lat="44.14194" lon="5.01185">
        <ele>279.4</ele>
        <time>2018-12-10T12:01:05Z</time>
      </trkpt>
      <trkpt lat="44.14205" lon="5.01181">
        <ele>281.32</ele>
        <time>2018-12-10T12:01:22Z</time>
      </trkpt>
      <trkpt lat="44.14206" lon="5.01181">
        <ele>281.32</ele>
        <time>2018-12-10T12:01:23Z</time>
      </trkpt>
      <trkpt lat="44.14208" lon="5.01179">
        <ele>282.28</ele>
        <time>2018-12-10T12:01:41Z</time>
      </trkpt>
      <trkpt lat="44.14212" lon="5.01178">
        <ele>280.84</ele>
        <time>2018-12-10T12:01:59Z</time>
      </trkpt>
      <trkpt lat="44.14221" lon="5.01173">
        <ele>282.28</ele>
        <time>2018-12-10T12:02:12Z</time>
      </trkpt>
      <trkpt lat="44.14232" lon="5.01166">
        <ele>284.21</ele>
        <time>2018-12-10T12:02:28Z</time>
      </trkpt>
      <trkpt lat="44.14238" lon="5.01161">
        <ele>284.21</ele>
        <time>2018-12-10T12:02:35Z</time>
      </trkpt>
      <trkpt lat="44.14241" lon="5.01159">
        <ele>283.25</ele>
        <time>2018-12-10T12:02:39Z</time>
      </trkpt>
      <trkpt lat="44.14254" lon="5.01152">
        <ele>284.21</ele>
        <time>2018-12-10T12:02:53Z</time>
      </trkpt>
      <trkpt lat="44.1427" lon="5.01144">
        <ele>286.61</ele>
        <time>2018-12-10T12:03:10Z</time>
      </trkpt>
      <trkpt lat="44.14285" lon="5.01134">
        <ele>286.61</ele>
        <time>2018-12-10T12:03:26Z</time>
      </trkpt>
      <trkpt lat="44.14297" lon="5.01115">
        <ele>287.57</ele>
        <time>2018-12-10T12:03:44Z</time>
      </trkpt>
      <trkpt lat="44.14308" lon="5.01095">
        <ele>288.53</ele>
        <time>2018-12-10T12:04:00Z</time>
      </trkpt>
      <trkpt lat="44.14318" lon="5.01085">
        <ele>290.94</ele>
        <time>2018-12-10T12:04:14Z</time>
      </trkpt>
      <trkpt lat="44.1433" lon="5.01076">
        <ele>292.38</ele>
        <time>2018-12-10T12:04:34Z</time>
      </trkpt>
      <trkpt lat="44.14334" lon="5.01067">
        <ele>292.86</ele>
        <time>2018-12-10T12:04:50Z</time>
      </trkpt>
      <trkpt lat="44.14335" lon="5.01066">
        <ele>292.38</ele>
        <time>2018-12-10T12:05:14Z</time>
      </trkpt>
      <trkpt lat="44.14335" lon="5.01066">
        <ele>295.26</ele>
        <time>2018-12-10T12:05:16Z</time>
      </trkpt>
      <trkpt lat="44.14335" lon="5.01066">
        <ele>293.82</ele>
        <time>2018-12-10T12:05:17Z</time>
      </trkpt>
      <trkpt lat="44.14336" lon="5.01063">
        <ele>290.46</ele>
        <time>2018-12-10T12:05:33Z</time>
      </trkpt>
      <trkpt lat="44.14336" lon="5.01063">
        <ele>294.3</ele>
        <time>2018-12-10T12:05:34Z</time>
      </trkpt>
      <trkpt lat="44.14335" lon="5.01063">
        <ele>290.94</ele>
        <time>2018-12-10T12:05:56Z</time>
      </trkpt>
      <trkpt lat="44.1434" lon="5.01063">
        <ele>291.9</ele>
        <time>2018-12-10T12:06:19Z</time>
      </trkpt>
      <trkpt lat="44.1434" lon="5.01063">
        <ele>290.94</ele>
        <time>2018-12-10T12:06:21Z</time>
      </trkpt>
      <trkpt lat="44.14342" lon="5.01064">
        <ele>293.34</ele>
        <time>2018-12-10T12:06:26Z</time>
      </trkpt>
      <trkpt lat="44.1434" lon="5.01066">
        <ele>289.49</ele>
        <time>2018-12-10T12:06:45Z</time>
      </trkpt>
      <trkpt lat="44.1434" lon="5.01066">
        <ele>297.18</ele>
        <time>2018-12-10T12:06:46Z</time>
      </trkpt>
      <trkpt lat="44.1434" lon="5.01066">
        <ele>292.86</ele>
        <time>2018-12-10T12:06:47Z</time>
      </trkpt>
      <trkpt lat="44.14335" lon="5.01056">
        <ele>294.78</ele>
        <time>2018-12-10T12:07:02Z</time>
      </trkpt>
      <trkpt lat="44.1433" lon="5.01054">
        <ele>294.78</ele>
        <time>2018-12-10T12:07:18Z</time>
      </trkpt>
      <trkpt lat="44.14333" lon="5.01059">
        <ele>294.78</ele>
        <time>2018-12-10T12:07:41Z</time>
      </trkpt>
      <trkpt lat="44.14338" lon="5.01067">
        <ele>294.78</ele>
        <time>2018-12-10T12:07:56Z</time>
      </trkpt>
      <trkpt lat="44.14348" lon="5.01075">
        <ele>296.22</ele>
        <time>2018-12-10T12:08:13Z</time>
      </trkpt>
      <trkpt lat="44.14355" lon="5.01082">
        <ele>299.11</ele>
        <time>2018-12-10T12:08:25Z</time>
      </trkpt>
      <trkpt lat="44.14364" lon="5.01088">
        <ele>299.59</ele>
        <time>2018-12-10T12:08:40Z</time>
      </trkpt>
      <trkpt lat="44.14365" lon="5.01098">
        <ele>301.51</ele>
        <time>2018-12-10T12:08:56Z</time>
      </trkpt>
      <trkpt lat="44.14358" lon="5.01108">
        <ele>304.39</ele>
        <time>2018-12-10T12:09:09Z</time>
      </trkpt>
      <trkpt lat="44.14357" lon="5.01108">
        <ele>300.55</ele>
        <time>2018-12-10T12:09:10Z</time>
      </trkpt>
      <trkpt lat="44.14357" lon="5.01109">
        <ele>297.18</ele>
        <time>2018-12-10T12:09:11Z</time>
      </trkpt>
      <trkpt lat="44.14356" lon="5.01109">
        <ele>306.32</ele>
        <time>2018-12-10T12:09:12Z</time>
      </trkpt>
      <trkpt lat="44.14355" lon="5.0111">
        <ele>301.51</ele>
        <time>2018-12-10T12:09:13Z</time>
      </trkpt>
      <trkpt lat="44.1435" lon="5.01116">
        <ele>302.47</ele>
        <time>2018-12-10T12:09:23Z</time>
      </trkpt>
      <trkpt lat="44.14346" lon="5.01132">
        <ele>304.39</ele>
        <time>2018-12-10T12:09:39Z</time>
      </trkpt>
      <trkpt lat="44.14351" lon="5.01144">
        <ele>304.39</ele>
        <time>2018-12-10T12:09:52Z</time>
      </trkpt>
      <trkpt lat="44.14359" lon="5.01151">
        <ele>306.8</ele>
        <time>2018-12-10T12:10:07Z</time>
      </trkpt>
      <trkpt lat="44.1437" lon="5.01157">
        <ele>306.8</ele>
        <time>2018-12-10T12:10:25Z</time>
      </trkpt>
      <trkpt lat="44.1438" lon="5.01153">
        <ele>307.76</ele>
        <time>2018-12-10T12:10:40Z</time>
      </trkpt>
      <trkpt lat="44.14386" lon="5.01152">
        <ele>309.2</ele>
        <time>2018-12-10T12:10:53Z</time>
      </trkpt>
      <trkpt lat="44.14397" lon="5.01145">
        <ele>310.16</ele>
        <time>2018-12-10T12:11:09Z</time>
      </trkpt>
      <trkpt lat="44.14405" lon="5.01142">
        <ele>310.64</ele>
        <time>2018-12-10T12:11:22Z</time>
      </trkpt>
      <trkpt lat="44.14418" lon="5.01139">
        <ele>312.09</ele>
        <time>2018-12-10T12:11:39Z</time>
      </trkpt>
      <trkpt lat="44.14432" lon="5.0114">
        <ele>312.57</ele>
        <time>2018-12-10T12:11:56Z</time>
      </trkpt>
      <trkpt lat="44.14449" lon="5.01143">
        <ele>314.01</ele>
        <time>2018-12-10T12:12:12Z</time>
      </trkpt>
      <trkpt lat="44.14459" lon="5.01142">
        <ele>314.49</ele>
        <time>2018-12-10T12:12:35Z</time>
      </trkpt>
      <trkpt lat="44.14471" lon="5.01137">
        <ele>314.97</ele>
        <time>2018-12-10T12:12:51Z</time>
      </trkpt>
      <trkpt lat="44.14485" lon="5.01129">
        <ele>315.45</ele>
        <time>2018-12-10T12:13:08Z</time>
      </trkpt>
      <trkpt lat="44.14495" lon="5.01118">
        <ele>317.37</ele>
        <time>2018-12-10T12:13:24Z</time>
      </trkpt>
      <trkpt lat="44.14499" lon="5.01108">
        <ele>318.81</ele>
        <time>2018-12-10T12:13:38Z</time>
      </trkpt>
      <trkpt lat="44.14502" lon="5.01109">
        <ele>319.3</ele>
        <time>2018-12-10T12:13:54Z</time>
      </trkpt>
      <trkpt lat="44.14504" lon="5.0111">
        <ele>318.33</ele>
        <time>2018-12-10T12:14:08Z</time>
      </trkpt>
      <trkpt lat="44.14512" lon="5.01104">
        <ele>318.81</ele>
        <time>2018-12-10T12:14:22Z</time>
      </trkpt>
      <trkpt lat="44.14513" lon="5.01104">
        <ele>318.81</ele>
        <time>2018-12-10T12:14:23Z</time>
      </trkpt>
      <trkpt lat="44.14517" lon="5.01101">
        <ele>318.81</ele>
        <time>2018-12-10T12:14:44Z</time>
      </trkpt>
      <trkpt lat="44.14527" lon="5.01093">
        <ele>319.78</ele>
        <time>2018-12-10T12:15:02Z</time>
      </trkpt>
      <trkpt lat="44.14538" lon="5.01083">
        <ele>321.22</ele>
        <time>2018-12-10T12:15:19Z</time>
      </trkpt>
      <trkpt lat="44.14549" lon="5.01069">
        <ele>323.14</ele>
        <time>2018-12-10T12:15:35Z</time>
      </trkpt>
      <trkpt lat="44.14557" lon="5.01056">
        <ele>325.06</ele>
        <time>2018-12-10T12:15:53Z</time>
      </trkpt>
      <trkpt lat="44.14559" lon="5.01054">
        <ele>323.62</ele>
        <time>2018-12-10T12:15:55Z</time>
      </trkpt>
      <trkpt lat="44.14566" lon="5.01041">
        <ele>323.62</ele>
        <time>2018-12-10T12:16:11Z</time>
      </trkpt>
      <trkpt lat="44.14576" lon="5.01026">
        <ele>320.74</ele>
        <time>2018-12-10T12:16:30Z</time>
      </trkpt>
      <trkpt lat="44.14584" lon="5.01011">
        <ele>318.81</ele>
        <time>2018-12-10T12:16:47Z</time>
      </trkpt>
      <trkpt lat="44.14586" lon="5.01011">
        <ele>318.81</ele>
        <time>2018-12-10T12:16:52Z</time>
      </trkpt>
      <trkpt lat="44.14586" lon="5.01009">
        <ele>320.26</ele>
        <time>2018-12-10T12:16:58Z</time>
      </trkpt>
      <trkpt lat="44.14586" lon="5.01009">
        <ele>318.81</ele>
        <time>2018-12-10T12:17:00Z</time>
      </trkpt>
      <trkpt lat="44.14586" lon="5.01007">
        <ele>320.26</ele>
        <time>2018-12-10T12:17:23Z</time>
      </trkpt>
      <trkpt lat="44.1459" lon="5.00999">
        <ele>318.81</ele>
        <time>2018-12-10T12:17:44Z</time>
      </trkpt>
      <trkpt lat="44.14598" lon="5.00981">
        <ele>319.78</ele>
        <time>2018-12-10T12:18:01Z</time>
      </trkpt>
      <trkpt lat="44.14605" lon="5.00967">
        <ele>320.26</ele>
        <time>2018-12-10T12:18:14Z</time>
      </trkpt>
      <trkpt lat="44.14614" lon="5.00954">
        <ele>319.3</ele>
        <time>2018-12-10T12:18:27Z</time>
      </trkpt>
      <trkpt lat="44.14623" lon="5.00939">
        <ele>319.3</ele>
        <time>2018-12-10T12:18:43Z</time>
      </trkpt>
      <trkpt lat="44.14626" lon="5.00929">
        <ele>319.3</ele>
        <time>2018-12-10T12:18:50Z</time>
      </trkpt>
      <trkpt lat="44.14627" lon="5.00926">
        <ele>317.85</ele>
        <time>2018-12-10T12:18:52Z</time>
      </trkpt>
      <trkpt lat="44.14629" lon="5.00914">
        <ele>322.18</ele>
        <time>2018-12-10T12:19:00Z</time>
      </trkpt>
      <trkpt lat="44.14629" lon="5.00912">
        <ele>322.18</ele>
        <time>2018-12-10T12:19:01Z</time>
      </trkpt>
      <trkpt lat="44.14627" lon="5.009">
        <ele>319.78</ele>
        <time>2018-12-10T12:19:08Z</time>
      </trkpt>
      <trkpt lat="44.14623" lon="5.00876">
        <ele>317.85</ele>
        <time>2018-12-10T12:19:22Z</time>
      </trkpt>
      <trkpt lat="44.14617" lon="5.00852">
        <ele>314.97</ele>
        <time>2018-12-10T12:19:39Z</time>
      </trkpt>
      <trkpt lat="44.14612" lon="5.00833">
        <ele>314.97</ele>
        <time>2018-12-10T12:19:53Z</time>
      </trkpt>
      <trkpt lat="44.14615" lon="5.00819">
        <ele>317.85</ele>
        <time>2018-12-10T12:20:06Z</time>
      </trkpt>
      <trkpt lat="44.14625" lon="5.00805">
        <ele>314.97</ele>
        <time>2018-12-10T12:20:22Z</time>
      </trkpt>
      <trkpt lat="44.14625" lon="5.00805">
        <ele>314.97</ele>
        <time>2018-12-10T12:20:23Z</time>
      </trkpt>
      <trkpt lat="44.14626" lon="5.00802">
        <ele>316.41</ele>
        <time>2018-12-10T12:20:26Z</time>
      </trkpt>
      <trkpt lat="44.1463" lon="5.00793">
        <ele>314.49</ele>
        <time>2018-12-10T12:20:38Z</time>
      </trkpt>
      <trkpt lat="44.14639" lon="5.00787">
        <ele>312.57</ele>
        <time>2018-12-10T12:20:54Z</time>
      </trkpt>
      <trkpt lat="44.1465" lon="5.00776">
        <ele>310.64</ele>
        <time>2018-12-10T12:21:10Z</time>
      </trkpt>
      <trkpt lat="44.14656" lon="5.00758">
        <ele>311.12</ele>
        <time>2018-12-10T12:21:25Z</time>
      </trkpt>
      <trkpt lat="44.14658" lon="5.00755">
        <ele>309.2</ele>
        <time>2018-12-10T12:21:29Z</time>
      </trkpt>
      <trkpt lat="44.1466" lon="5.00739">
        <ele>308.72</ele>
        <time>2018-12-10T12:21:42Z</time>
      </trkpt>
      <trkpt lat="44.14663" lon="5.00717">
        <ele>308.24</ele>
        <time>2018-12-10T12:21:58Z</time>
      </trkpt>
      <trkpt lat="44.14669" lon="5.00695">
        <ele>306.32</ele>
        <time>2018-12-10T12:22:15Z</time>
      </trkpt>
      <trkpt lat="44.14672" lon="5.00684">
        <ele>307.76</ele>
        <time>2018-12-10T12:22:23Z</time>
      </trkpt>
      <trkpt lat="44.14677" lon="5.00671">
        <ele>309.2</ele>
        <time>2018-12-10T12:22:36Z</time>
      </trkpt>
      <trkpt lat="44.1468" lon="5.0066">
        <ele>311.6</ele>
        <time>2018-12-10T12:22:51Z</time>
      </trkpt>
      <trkpt lat="44.1468" lon="5.00659">
        <ele>310.16</ele>
        <time>2018-12-10T12:22:53Z</time>
      </trkpt>
      <trkpt lat="44.1468" lon="5.00656">
        <ele>311.12</ele>
        <time>2018-12-10T12:23:11Z</time>
      </trkpt>
      <trkpt lat="44.14679" lon="5.00657">
        <ele>310.16</ele>
        <time>2018-12-10T12:23:32Z</time>
      </trkpt>
      <trkpt lat="44.14678" lon="5.00654">
        <ele>309.68</ele>
        <time>2018-12-10T12:24:03Z</time>
      </trkpt>
      <trkpt lat="44.14678" lon="5.00655">
        <ele>309.68</ele>
        <time>2018-12-10T12:24:04Z</time>
      </trkpt>
      <trkpt lat="44.14678" lon="5.00655">
        <ele>309.2</ele>
        <time>2018-12-10T12:24:13Z</time>
      </trkpt>
      <trkpt lat="44.14678" lon="5.00655">
        <ele>312.57</ele>
        <time>2018-12-10T12:24:26Z</time>
      </trkpt>
      <trkpt lat="44.14678" lon="5.00655">
        <ele>313.53</ele>
        <time>2018-12-10T12:24:28Z</time>
      </trkpt>
      <trkpt lat="44.14678" lon="5.00655">
        <ele>311.6</ele>
        <time>2018-12-10T12:24:30Z</time>
      </trkpt>
      <trkpt lat="44.14683" lon="5.00659">
        <ele>310.16</ele>
        <time>2018-12-10T12:24:49Z</time>
      </trkpt>
      <trkpt lat="44.14697" lon="5.00657">
        <ele>311.12</ele>
        <time>2018-12-10T12:25:06Z</time>
      </trkpt>
      <trkpt lat="44.14702" lon="5.00655">
        <ele>309.68</ele>
        <time>2018-12-10T12:25:12Z</time>
      </trkpt>
      <trkpt lat="44.14719" lon="5.00645">
        <ele>309.2</ele>
        <time>2018-12-10T12:25:32Z</time>
      </trkpt>
      <trkpt lat="44.14731" lon="5.00641">
        <ele>307.76</ele>
        <time>2018-12-10T12:25:46Z</time>
      </trkpt>
      <trkpt lat="44.14749" lon="5.00638">
        <ele>306.8</ele>
        <time>2018-12-10T12:26:06Z</time>
      </trkpt>
      <trkpt lat="44.14769" lon="5.00639">
        <ele>304.88</ele>
        <time>2018-12-10T12:26:26Z</time>
      </trkpt>
      <trkpt lat="44.14779" lon="5.00644">
        <ele>301.03</ele>
        <time>2018-12-10T12:26:39Z</time>
      </trkpt>
      <trkpt lat="44.1478" lon="5.00645">
        <ele>301.03</ele>
        <time>2018-12-10T12:26:40Z</time>
      </trkpt>
      <trkpt lat="44.14784" lon="5.00648">
        <ele>298.63</ele>
        <time>2018-12-10T12:26:45Z</time>
      </trkpt>
      <trkpt lat="44.14787" lon="5.0065">
        <ele>299.59</ele>
        <time>2018-12-10T12:26:49Z</time>
      </trkpt>
      <trkpt lat="44.1479" lon="5.00651">
        <ele>296.22</ele>
        <time>2018-12-10T12:26:56Z</time>
      </trkpt>
      <trkpt lat="44.1479" lon="5.00651">
        <ele>302.95</ele>
        <time>2018-12-10T12:26:57Z</time>
      </trkpt>
      <trkpt lat="44.14792" lon="5.00651">
        <ele>302.95</ele>
        <time>2018-12-10T12:27:32Z</time>
      </trkpt>
      <trkpt lat="44.14793" lon="5.00651">
        <ele>301.03</ele>
        <time>2018-12-10T12:27:55Z</time>
      </trkpt>
      <trkpt lat="44.14798" lon="5.00662">
        <ele>303.91</ele>
        <time>2018-12-10T12:28:07Z</time>
      </trkpt>
      <trkpt lat="44.14799" lon="5.00664">
        <ele>304.88</ele>
        <time>2018-12-10T12:28:09Z</time>
      </trkpt>
      <trkpt lat="44.14808" lon="5.00677">
        <ele>307.28</ele>
        <time>2018-12-10T12:28:24Z</time>
      </trkpt>
      <trkpt lat="44.14821" lon="5.00686">
        <ele>308.24</ele>
        <time>2018-12-10T12:28:42Z</time>
      </trkpt>
      <trkpt lat="44.14824" lon="5.00689">
        <ele>307.76</ele>
        <time>2018-12-10T12:29:08Z</time>
      </trkpt>
      <trkpt lat="44.14823" lon="5.00688">
        <ele>307.28</ele>
        <time>2018-12-10T12:29:21Z</time>
      </trkpt>
      <trkpt lat="44.14831" lon="5.00693">
        <ele>304.88</ele>
        <time>2018-12-10T12:29:42Z</time>
      </trkpt>
      <trkpt lat="44.14834" lon="5.00695">
        <ele>308.24</ele>
        <time>2018-12-10T12:29:47Z</time>
      </trkpt>
      <trkpt lat="44.14835" lon="5.00696">
        <ele>307.76</ele>
        <time>2018-12-10T12:29:48Z</time>
      </trkpt>
      <trkpt lat="44.14838" lon="5.00697">
        <ele>309.2</ele>
        <time>2018-12-10T12:29:51Z</time>
      </trkpt>
      <trkpt lat="44.1485" lon="5.00703">
        <ele>312.57</ele>
        <time>2018-12-10T12:30:07Z</time>
      </trkpt>
      <trkpt lat="44.14852" lon="5.00703">
        <ele>314.01</ele>
        <time>2018-12-10T12:30:10Z</time>
      </trkpt>
      <trkpt lat="44.14854" lon="5.00704">
        <ele>315.45</ele>
        <time>2018-12-10T12:30:13Z</time>
      </trkpt>
      <trkpt lat="44.14859" lon="5.00706">
        <ele>313.05</ele>
        <time>2018-12-10T12:30:19Z</time>
      </trkpt>
      <trkpt lat="44.14861" lon="5.00708">
        <ele>315.93</ele>
        <time>2018-12-10T12:30:22Z</time>
      </trkpt>
      <trkpt lat="44.14862" lon="5.00708">
        <ele>315.93</ele>
        <time>2018-12-10T12:30:23Z</time>
      </trkpt>
      <trkpt lat="44.14866" lon="5.0071">
        <ele>316.89</ele>
        <time>2018-12-10T12:30:28Z</time>
      </trkpt>
      <trkpt lat="44.14868" lon="5.00711">
        <ele>313.53</ele>
        <time>2018-12-10T12:30:31Z</time>
      </trkpt>
      <trkpt lat="44.14869" lon="5.00711">
        <ele>313.53</ele>
        <time>2018-12-10T12:30:32Z</time>
      </trkpt>
      <trkpt lat="44.14871" lon="5.00712">
        <ele>315.93</ele>
        <time>2018-12-10T12:30:35Z</time>
      </trkpt>
      <trkpt lat="44.14883" lon="5.00718">
        <ele>319.3</ele>
        <time>2018-12-10T12:30:50Z</time>
      </trkpt>
      <trkpt lat="44.14885" lon="5.00719">
        <ele>322.18</ele>
        <time>2018-12-10T12:30:54Z</time>
      </trkpt>
      <trkpt lat="44.14888" lon="5.0072">
        <ele>318.81</ele>
        <time>2018-12-10T12:30:57Z</time>
      </trkpt>
      <trkpt lat="44.14905" lon="5.00718">
        <ele>320.26</ele>
        <time>2018-12-10T12:31:15Z</time>
      </trkpt>
      <trkpt lat="44.14921" lon="5.00702">
        <ele>321.7</ele>
        <time>2018-12-10T12:31:33Z</time>
      </trkpt>
      <trkpt lat="44.14936" lon="5.00682">
        <ele>322.66</ele>
        <time>2018-12-10T12:31:53Z</time>
      </trkpt>
      <trkpt lat="44.14938" lon="5.0068">
        <ele>322.66</ele>
        <time>2018-12-10T12:31:55Z</time>
      </trkpt>
      <trkpt lat="44.14955" lon="5.00681">
        <ele>322.66</ele>
        <time>2018-12-10T12:32:14Z</time>
      </trkpt>
      <trkpt lat="44.14956" lon="5.00682">
        <ele>322.66</ele>
        <time>2018-12-10T12:32:15Z</time>
      </trkpt>
      <trkpt lat="44.1497" lon="5.00695">
        <ele>323.62</ele>
        <time>2018-12-10T12:32:33Z</time>
      </trkpt>
      <trkpt lat="44.14972" lon="5.00699">
        <ele>326.5</ele>
        <time>2018-12-10T12:32:37Z</time>
      </trkpt>
      <trkpt lat="44.14974" lon="5.00702">
        <ele>329.39</ele>
        <time>2018-12-10T12:32:41Z</time>
      </trkpt>
      <trkpt lat="44.14978" lon="5.00706">
        <ele>328.43</ele>
        <time>2018-12-10T12:32:46Z</time>
      </trkpt>
      <trkpt lat="44.14982" lon="5.00714">
        <ele>330.35</ele>
        <time>2018-12-10T12:32:54Z</time>
      </trkpt>
      <trkpt lat="44.14988" lon="5.00717">
        <ele>329.39</ele>
        <time>2018-12-10T12:33:01Z</time>
      </trkpt>
      <trkpt lat="44.14993" lon="5.00716">
        <ele>331.79</ele>
        <time>2018-12-10T12:33:06Z</time>
      </trkpt>
      <trkpt lat="44.15002" lon="5.00723">
        <ele>328.91</ele>
        <time>2018-12-10T12:33:21Z</time>
      </trkpt>
      <trkpt lat="44.15004" lon="5.00725">
        <ele>332.75</ele>
        <time>2018-12-10T12:33:24Z</time>
      </trkpt>
      <trkpt lat="44.15004" lon="5.00726">
        <ele>332.75</ele>
        <time>2018-12-10T12:33:25Z</time>
      </trkpt>
      <trkpt lat="44.15008" lon="5.00731">
        <ele>331.31</ele>
        <time>2018-12-10T12:33:32Z</time>
      </trkpt>
      <trkpt lat="44.15022" lon="5.00744">
        <ele>334.68</ele>
        <time>2018-12-10T12:33:48Z</time>
      </trkpt>
      <trkpt lat="44.15024" lon="5.00746">
        <ele>335.64</ele>
        <time>2018-12-10T12:33:50Z</time>
      </trkpt>
      <trkpt lat="44.15031" lon="5.00752">
        <ele>337.08</ele>
        <time>2018-12-10T12:33:56Z</time>
      </trkpt>
      <trkpt lat="44.15036" lon="5.00754">
        <ele>334.68</ele>
        <time>2018-12-10T12:34:01Z</time>
      </trkpt>
      <trkpt lat="44.15047" lon="5.00766">
        <ele>334.2</ele>
        <time>2018-12-10T12:34:18Z</time>
      </trkpt>
      <trkpt lat="44.15051" lon="5.00771">
        <ele>338.04</ele>
        <time>2018-12-10T12:34:24Z</time>
      </trkpt>
      <trkpt lat="44.15052" lon="5.00772">
        <ele>338.04</ele>
        <time>2018-12-10T12:34:25Z</time>
      </trkpt>
      <trkpt lat="44.1506" lon="5.00779">
        <ele>339.96</ele>
        <time>2018-12-10T12:34:36Z</time>
      </trkpt>
      <trkpt lat="44.15061" lon="5.00777">
        <ele>340.44</ele>
        <time>2018-12-10T12:34:51Z</time>
      </trkpt>
      <trkpt lat="44.15061" lon="5.00776">
        <ele>338.52</ele>
        <time>2018-12-10T12:34:56Z</time>
      </trkpt>
      <trkpt lat="44.15061" lon="5.00775">
        <ele>339.96</ele>
        <time>2018-12-10T12:34:58Z</time>
      </trkpt>
      <trkpt lat="44.15061" lon="5.00774">
        <ele>338.52</ele>
        <time>2018-12-10T12:35:09Z</time>
      </trkpt>
      <trkpt lat="44.15061" lon="5.00775">
        <ele>340.92</ele>
        <time>2018-12-10T12:35:19Z</time>
      </trkpt>
      <trkpt lat="44.15061" lon="5.00776">
        <ele>342.37</ele>
        <time>2018-12-10T12:35:23Z</time>
      </trkpt>
      <trkpt lat="44.15062" lon="5.00775">
        <ele>339.96</ele>
        <time>2018-12-10T12:35:26Z</time>
      </trkpt>
      <trkpt lat="44.15061" lon="5.00774">
        <ele>343.81</ele>
        <time>2018-12-10T12:35:37Z</time>
      </trkpt>
      <trkpt lat="44.15061" lon="5.00774">
        <ele>343.81</ele>
        <time>2018-12-10T12:35:38Z</time>
      </trkpt>
      <trkpt lat="44.15061" lon="5.00774">
        <ele>339.96</ele>
        <time>2018-12-10T12:35:41Z</time>
      </trkpt>
      <trkpt lat="44.15062" lon="5.00773">
        <ele>337.08</ele>
        <time>2018-12-10T12:35:44Z</time>
      </trkpt>
      <trkpt lat="44.15062" lon="5.00773">
        <ele>339.96</ele>
        <time>2018-12-10T12:35:46Z</time>
      </trkpt>
      <trkpt lat="44.15062" lon="5.00772">
        <ele>335.16</ele>
        <time>2018-12-10T12:35:53Z</time>
      </trkpt>
      <trkpt lat="44.15062" lon="5.00772">
        <ele>341.89</ele>
        <time>2018-12-10T12:35:54Z</time>
      </trkpt>
      <trkpt lat="44.15062" lon="5.00774">
        <ele>338.52</ele>
        <time>2018-12-10T12:35:57Z</time>
      </trkpt>
      <trkpt lat="44.15063" lon="5.00774">
        <ele>339.96</ele>
        <time>2018-12-10T12:36:02Z</time>
      </trkpt>
      <trkpt lat="44.15063" lon="5.00774">
        <ele>341.89</ele>
        <time>2018-12-10T12:36:07Z</time>
      </trkpt>
      <trkpt lat="44.15063" lon="5.00775">
        <ele>340.44</ele>
        <time>2018-12-10T12:36:10Z</time>
      </trkpt>
      <trkpt lat="44.15066" lon="5.00772">
        <ele>340.92</ele>
        <time>2018-12-10T12:36:27Z</time>
      </trkpt>
      <trkpt lat="44.15069" lon="5.00772">
        <ele>337.08</ele>
        <time>2018-12-10T12:36:33Z</time>
      </trkpt>
      <trkpt lat="44.15083" lon="5.00776">
        <ele>335.16</ele>
        <time>2018-12-10T12:36:53Z</time>
      </trkpt>
      <trkpt lat="44.15094" lon="5.00777">
        <ele>334.2</ele>
        <time>2018-12-10T12:37:08Z</time>
      </trkpt>
      <trkpt lat="44.15105" lon="5.00775">
        <ele>330.83</ele>
        <time>2018-12-10T12:37:22Z</time>
      </trkpt>
      <trkpt lat="44.15107" lon="5.00775">
        <ele>329.87</ele>
        <time>2018-12-10T12:37:24Z</time>
      </trkpt>
      <trkpt lat="44.15113" lon="5.00772">
        <ele>328.91</ele>
        <time>2018-12-10T12:37:31Z</time>
      </trkpt>
      <trkpt lat="44.15123" lon="5.00762">
        <ele>328.43</ele>
        <time>2018-12-10T12:37:44Z</time>
      </trkpt>
      <trkpt lat="44.15126" lon="5.00759">
        <ele>330.35</ele>
        <time>2018-12-10T12:37:47Z</time>
      </trkpt>
      <trkpt lat="44.15126" lon="5.00759">
        <ele>328.91</ele>
        <time>2018-12-10T12:37:49Z</time>
      </trkpt>
      <trkpt lat="44.15134" lon="5.00747">
        <ele>327.95</ele>
        <time>2018-12-10T12:38:05Z</time>
      </trkpt>
      <trkpt lat="44.15137" lon="5.00746">
        <ele>326.5</ele>
        <time>2018-12-10T12:38:10Z</time>
      </trkpt>
      <trkpt lat="44.15147" lon="5.00759">
        <ele>325.06</ele>
        <time>2018-12-10T12:38:26Z</time>
      </trkpt>
      <trkpt lat="44.15143" lon="5.00774">
        <ele>322.66</ele>
        <time>2018-12-10T12:38:42Z</time>
      </trkpt>
      <trkpt lat="44.15142" lon="5.00796">
        <ele>321.7</ele>
        <time>2018-12-10T12:38:57Z</time>
      </trkpt>
      <trkpt lat="44.15149" lon="5.00809">
        <ele>318.33</ele>
        <time>2018-12-10T12:39:13Z</time>
      </trkpt>
      <trkpt lat="44.1515" lon="5.00809">
        <ele>318.33</ele>
        <time>2018-12-10T12:39:14Z</time>
      </trkpt>
      <trkpt lat="44.15158" lon="5.00792">
        <ele>320.26</ele>
        <time>2018-12-10T12:39:30Z</time>
      </trkpt>
      <trkpt lat="44.15161" lon="5.00786">
        <ele>318.81</ele>
        <time>2018-12-10T12:39:37Z</time>
      </trkpt>
      <trkpt lat="44.15164" lon="5.0078">
        <ele>320.26</ele>
        <time>2018-12-10T12:39:44Z</time>
      </trkpt>
      <trkpt lat="44.15167" lon="5.00776">
        <ele>316.89</ele>
        <time>2018-12-10T12:39:48Z</time>
      </trkpt>
      <trkpt lat="44.15178" lon="5.00757">
        <ele>313.53</ele>
        <time>2018-12-10T12:40:05Z</time>
      </trkpt>
      <trkpt lat="44.15183" lon="5.00749">
        <ele>311.6</ele>
        <time>2018-12-10T12:40:13Z</time>
      </trkpt>
      <trkpt lat="44.15191" lon="5.00736">
        <ele>312.09</ele>
        <time>2018-12-10T12:40:28Z</time>
      </trkpt>
      <trkpt lat="44.15193" lon="5.00732">
        <ele>311.6</ele>
        <time>2018-12-10T12:40:35Z</time>
      </trkpt>
      <trkpt lat="44.15193" lon="5.0073">
        <ele>316.41</ele>
        <time>2018-12-10T12:40:37Z</time>
      </trkpt>
      <trkpt lat="44.15194" lon="5.00729">
        <ele>312.57</ele>
        <time>2018-12-10T12:40:38Z</time>
      </trkpt>
      <trkpt lat="44.152" lon="5.00722">
        <ele>308.72</ele>
        <time>2018-12-10T12:40:47Z</time>
      </trkpt>
      <trkpt lat="44.15208" lon="5.00705">
        <ele>306.32</ele>
        <time>2018-12-10T12:41:03Z</time>
      </trkpt>
      <trkpt lat="44.15215" lon="5.00688">
        <ele>303.91</ele>
        <time>2018-12-10T12:41:18Z</time>
      </trkpt>
      <trkpt lat="44.15222" lon="5.00675">
        <ele>302.47</ele>
        <time>2018-12-10T12:41:33Z</time>
      </trkpt>
      <trkpt lat="44.15227" lon="5.00672">
        <ele>301.51</ele>
        <time>2018-12-10T12:41:48Z</time>
      </trkpt>
      <trkpt lat="44.15234" lon="5.00658">
        <ele>301.03</ele>
        <time>2018-12-10T12:42:08Z</time>
      </trkpt>
      <trkpt lat="44.1524" lon="5.00649">
        <ele>298.15</ele>
        <time>2018-12-10T12:42:18Z</time>
      </trkpt>
      <trkpt lat="44.15248" lon="5.00636">
        <ele>296.7</ele>
        <time>2018-12-10T12:42:34Z</time>
      </trkpt>
      <trkpt lat="44.15259" lon="5.00623">
        <ele>292.86</ele>
        <time>2018-12-10T12:42:50Z</time>
      </trkpt>
      <trkpt lat="44.15268" lon="5.00614">
        <ele>290.94</ele>
        <time>2018-12-10T12:43:03Z</time>
      </trkpt>
      <trkpt lat="44.15279" lon="5.00602">
        <ele>289.49</ele>
        <time>2018-12-10T12:43:20Z</time>
      </trkpt>
      <trkpt lat="44.1529" lon="5.00596">
        <ele>286.61</ele>
        <time>2018-12-10T12:43:35Z</time>
      </trkpt>
      <trkpt lat="44.153" lon="5.00587">
        <ele>284.69</ele>
        <time>2018-12-10T12:43:50Z</time>
      </trkpt>
      <trkpt lat="44.15314" lon="5.0058">
        <ele>281.8</ele>
        <time>2018-12-10T12:44:07Z</time>
      </trkpt>
      <trkpt lat="44.15326" lon="5.00589">
        <ele>280.36</ele>
        <time>2018-12-10T12:44:22Z</time>
      </trkpt>
      <trkpt lat="44.15334" lon="5.00605">
        <ele>278.92</ele>
        <time>2018-12-10T12:44:36Z</time>
      </trkpt>
      <trkpt lat="44.15346" lon="5.00619">
        <ele>278.44</ele>
        <time>2018-12-10T12:44:51Z</time>
      </trkpt>
      <trkpt lat="44.1536" lon="5.00608">
        <ele>277.96</ele>
        <time>2018-12-10T12:45:08Z</time>
      </trkpt>
      <trkpt lat="44.15376" lon="5.00598">
        <ele>277.96</ele>
        <time>2018-12-10T12:45:25Z</time>
      </trkpt>
      <trkpt lat="44.15387" lon="5.00585">
        <ele>278.92</ele>
        <time>2018-12-10T12:45:39Z</time>
      </trkpt>
      <trkpt lat="44.15389" lon="5.00575">
        <ele>277.48</ele>
        <time>2018-12-10T12:45:47Z</time>
      </trkpt>
      <trkpt lat="44.15398" lon="5.00552">
        <ele>277</ele>
        <time>2018-12-10T12:46:05Z</time>
      </trkpt>
      <trkpt lat="44.15397" lon="5.00547">
        <ele>276.52</ele>
        <time>2018-12-10T12:46:25Z</time>
      </trkpt>
      <trkpt lat="44.154" lon="5.00547">
        <ele>273.63</ele>
        <time>2018-12-10T12:46:48Z</time>
      </trkpt>
      <trkpt lat="44.154" lon="5.00547">
        <ele>276.04</ele>
        <time>2018-12-10T12:46:49Z</time>
      </trkpt>
      <trkpt lat="44.15401" lon="5.00549">
        <ele>276.52</ele>
        <time>2018-12-10T12:46:51Z</time>
      </trkpt>
      <trkpt lat="44.15403" lon="5.00542">
        <ele>276.04</ele>
        <time>2018-12-10T12:47:10Z</time>
      </trkpt>
      <trkpt lat="44.15406" lon="5.00533">
        <ele>277.96</ele>
        <time>2018-12-10T12:47:28Z</time>
      </trkpt>
      <trkpt lat="44.15409" lon="5.00523">
        <ele>277</ele>
        <time>2018-12-10T12:47:34Z</time>
      </trkpt>
      <trkpt lat="44.15421" lon="5.00506">
        <ele>276.52</ele>
        <time>2018-12-10T12:47:51Z</time>
      </trkpt>
      <trkpt lat="44.15432" lon="5.00492">
        <ele>276.52</ele>
        <time>2018-12-10T12:48:07Z</time>
      </trkpt>
      <trkpt lat="44.15443" lon="5.00475">
        <ele>276.04</ele>
        <time>2018-12-10T12:48:24Z</time>
      </trkpt>
      <trkpt lat="44.15455" lon="5.00455">
        <ele>274.11</ele>
        <time>2018-12-10T12:48:39Z</time>
      </trkpt>
      <trkpt lat="44.15466" lon="5.0044">
        <ele>274.11</ele>
        <time>2018-12-10T12:48:56Z</time>
      </trkpt>
      <trkpt lat="44.15478" lon="5.00424">
        <ele>274.11</ele>
        <time>2018-12-10T12:49:12Z</time>
      </trkpt>
      <trkpt lat="44.1549" lon="5.00409">
        <ele>274.11</ele>
        <time>2018-12-10T12:49:28Z</time>
      </trkpt>
      <trkpt lat="44.15501" lon="5.00387">
        <ele>274.11</ele>
        <time>2018-12-10T12:49:45Z</time>
      </trkpt>
      <trkpt lat="44.15516" lon="5.0037">
        <ele>275.56</ele>
        <time>2018-12-10T12:50:03Z</time>
      </trkpt>
      <trkpt lat="44.15527" lon="5.00367">
        <ele>276.52</ele>
        <time>2018-12-10T12:50:17Z</time>
      </trkpt>
      <trkpt lat="44.15544" lon="5.00367">
        <ele>275.56</ele>
        <time>2018-12-10T12:50:33Z</time>
      </trkpt>
      <trkpt lat="44.15564" lon="5.00362">
        <ele>273.63</ele>
        <time>2018-12-10T12:50:51Z</time>
      </trkpt>
      <trkpt lat="44.15578" lon="5.00342">
        <ele>273.15</ele>
        <time>2018-12-10T12:51:11Z</time>
      </trkpt>
      <trkpt lat="44.15583" lon="5.00325">
        <ele>274.59</ele>
        <time>2018-12-10T12:51:24Z</time>
      </trkpt>
      <trkpt lat="44.15588" lon="5.00305">
        <ele>275.56</ele>
        <time>2018-12-10T12:51:39Z</time>
      </trkpt>
      <trkpt lat="44.15592" lon="5.00278">
        <ele>276.04</ele>
        <time>2018-12-10T12:51:56Z</time>
      </trkpt>
      <trkpt lat="44.15598" lon="5.00257">
        <ele>276.04</ele>
        <time>2018-12-10T12:52:12Z</time>
      </trkpt>
      <trkpt lat="44.15603" lon="5.00238">
        <ele>277</ele>
        <time>2018-12-10T12:52:26Z</time>
      </trkpt>
      <trkpt lat="44.15612" lon="5.00222">
        <ele>277.96</ele>
        <time>2018-12-10T12:52:40Z</time>
      </trkpt>
      <trkpt lat="44.15624" lon="5.00217">
        <ele>277.96</ele>
        <time>2018-12-10T12:52:54Z</time>
      </trkpt>
      <trkpt lat="44.15635" lon="5.00216">
        <ele>277</ele>
        <time>2018-12-10T12:53:06Z</time>
      </trkpt>
      <trkpt lat="44.15651" lon="5.0022">
        <ele>276.04</ele>
        <time>2018-12-10T12:53:23Z</time>
      </trkpt>
      <trkpt lat="44.15666" lon="5.00218">
        <ele>275.07</ele>
        <time>2018-12-10T12:53:38Z</time>
      </trkpt>
      <trkpt lat="44.15687" lon="5.00217">
        <ele>274.11</ele>
        <time>2018-12-10T12:53:56Z</time>
      </trkpt>
      <trkpt lat="44.15698" lon="5.00216">
        <ele>273.63</ele>
        <time>2018-12-10T12:54:06Z</time>
      </trkpt>
      <trkpt lat="44.15713" lon="5.00214">
        <ele>273.15</ele>
        <time>2018-12-10T12:54:20Z</time>
      </trkpt>
      <trkpt lat="44.15731" lon="5.00211">
        <ele>273.15</ele>
        <time>2018-12-10T12:54:37Z</time>
      </trkpt>
      <trkpt lat="44.15735" lon="5.00211">
        <ele>272.19</ele>
        <time>2018-12-10T12:54:41Z</time>
      </trkpt>
      <trkpt lat="44.1575" lon="5.00219">
        <ele>271.23</ele>
        <time>2018-12-10T12:54:58Z</time>
      </trkpt>
      <trkpt lat="44.15756" lon="5.00229">
        <ele>271.23</ele>
        <time>2018-12-10T12:55:09Z</time>
      </trkpt>
      <trkpt lat="44.15769" lon="5.00239">
        <ele>268.83</ele>
        <time>2018-12-10T12:55:28Z</time>
      </trkpt>
      <trkpt lat="44.15781" lon="5.00245">
        <ele>266.42</ele>
        <time>2018-12-10T12:55:45Z</time>
      </trkpt>
      <trkpt lat="44.15789" lon="5.00249">
        <ele>263.06</ele>
        <time>2018-12-10T12:55:56Z</time>
      </trkpt>
      <trkpt lat="44.15802" lon="5.00257">
        <ele>260.17</ele>
        <time>2018-12-10T12:56:15Z</time>
      </trkpt>
      <trkpt lat="44.15815" lon="5.0027">
        <ele>259.21</ele>
        <time>2018-12-10T12:56:33Z</time>
      </trkpt>
      <trkpt lat="44.15819" lon="5.00285">
        <ele>256.33</ele>
        <time>2018-12-10T12:56:47Z</time>
      </trkpt>
      <trkpt lat="44.15819" lon="5.00287">
        <ele>257.77</ele>
        <time>2018-12-10T12:56:49Z</time>
      </trkpt>
      <trkpt lat="44.15829" lon="5.00287">
        <ele>258.25</ele>
        <time>2018-12-10T12:57:04Z</time>
      </trkpt>
      <trkpt lat="44.15831" lon="5.00284">
        <ele>262.1</ele>
        <time>2018-12-10T12:57:07Z</time>
      </trkpt>
      <trkpt lat="44.15831" lon="5.00283">
        <ele>258.73</ele>
        <time>2018-12-10T12:57:08Z</time>
      </trkpt>
      <trkpt lat="44.15831" lon="5.00282">
        <ele>263.06</ele>
        <time>2018-12-10T12:57:09Z</time>
      </trkpt>
      <trkpt lat="44.15833" lon="5.00278">
        <ele>259.69</ele>
        <time>2018-12-10T12:57:12Z</time>
      </trkpt>
      <trkpt lat="44.15837" lon="5.00256">
        <ele>262.1</ele>
        <time>2018-12-10T12:57:32Z</time>
      </trkpt>
      <trkpt lat="44.15844" lon="5.00234">
        <ele>264.98</ele>
        <time>2018-12-10T12:57:50Z</time>
      </trkpt>
      <trkpt lat="44.15859" lon="5.00226">
        <ele>266.9</ele>
        <time>2018-12-10T12:58:09Z</time>
      </trkpt>
      <trkpt lat="44.15866" lon="5.00222">
        <ele>268.35</ele>
        <time>2018-12-10T12:58:17Z</time>
      </trkpt>
      <trkpt lat="44.15881" lon="5.00218">
        <ele>270.75</ele>
        <time>2018-12-10T12:58:33Z</time>
      </trkpt>
      <trkpt lat="44.15899" lon="5.00222">
        <ele>269.79</ele>
        <time>2018-12-10T12:58:51Z</time>
      </trkpt>
      <trkpt lat="44.15911" lon="5.00226">
        <ele>271.23</ele>
        <time>2018-12-10T12:59:03Z</time>
      </trkpt>
      <trkpt lat="44.15914" lon="5.00228">
        <ele>273.15</ele>
        <time>2018-12-10T12:59:06Z</time>
      </trkpt>
      <trkpt lat="44.15921" lon="5.00231">
        <ele>276.04</ele>
        <time>2018-12-10T12:59:13Z</time>
      </trkpt>
      <trkpt lat="44.15925" lon="5.00233">
        <ele>273.63</ele>
        <time>2018-12-10T12:59:16Z</time>
      </trkpt>
      <trkpt lat="44.1593" lon="5.00234">
        <ele>273.63</ele>
        <time>2018-12-10T12:59:21Z</time>
      </trkpt>
      <trkpt lat="44.15945" lon="5.00236">
        <ele>275.07</ele>
        <time>2018-12-10T12:59:34Z</time>
      </trkpt>
      <trkpt lat="44.15945" lon="5.00236">
        <ele>276.52</ele>
        <time>2018-12-10T12:59:39Z</time>
      </trkpt>
      <trkpt lat="44.15957" lon="5.00235">
        <ele>274.11</ele>
        <time>2018-12-10T12:59:55Z</time>
      </trkpt>
      <trkpt lat="44.1596" lon="5.00235">
        <ele>277</ele>
        <time>2018-12-10T12:59:58Z</time>
      </trkpt>
      <trkpt lat="44.15976" lon="5.00235">
        <ele>278.92</ele>
        <time>2018-12-10T13:00:16Z</time>
      </trkpt>
      <trkpt lat="44.1599" lon="5.00238">
        <ele>279.88</ele>
        <time>2018-12-10T13:00:33Z</time>
      </trkpt>
      <trkpt lat="44.15993" lon="5.00239">
        <ele>282.77</ele>
        <time>2018-12-10T13:00:37Z</time>
      </trkpt>
      <trkpt lat="44.15998" lon="5.00239">
        <ele>281.8</ele>
        <time>2018-12-10T13:00:56Z</time>
      </trkpt>
      <trkpt lat="44.15997" lon="5.00239">
        <ele>282.77</ele>
        <time>2018-12-10T13:01:06Z</time>
      </trkpt>
      <trkpt lat="44.15997" lon="5.0024">
        <ele>281.8</ele>
        <time>2018-12-10T13:01:21Z</time>
      </trkpt>
      <trkpt lat="44.15997" lon="5.00239">
        <ele>283.25</ele>
        <time>2018-12-10T13:01:33Z</time>
      </trkpt>
      <trkpt lat="44.15995" lon="5.00239">
        <ele>282.28</ele>
        <time>2018-12-10T13:01:59Z</time>
      </trkpt>
      <trkpt lat="44.15995" lon="5.00238">
        <ele>283.73</ele>
        <time>2018-12-10T13:02:08Z</time>
      </trkpt>
      <trkpt lat="44.15995" lon="5.00239">
        <ele>284.21</ele>
        <time>2018-12-10T13:02:31Z</time>
      </trkpt>
      <trkpt lat="44.15997" lon="5.00238">
        <ele>284.21</ele>
        <time>2018-12-10T13:02:43Z</time>
      </trkpt>
      <trkpt lat="44.15996" lon="5.00238">
        <ele>283.73</ele>
        <time>2018-12-10T13:03:07Z</time>
      </trkpt>
      <trkpt lat="44.15996" lon="5.00237">
        <ele>283.73</ele>
        <time>2018-12-10T13:03:13Z</time>
      </trkpt>
      <trkpt lat="44.15996" lon="5.00238">
        <ele>284.69</ele>
        <time>2018-12-10T13:03:21Z</time>
      </trkpt>
      <trkpt lat="44.15996" lon="5.00238">
        <ele>283.73</ele>
        <time>2018-12-10T13:03:24Z</time>
      </trkpt>
      <trkpt lat="44.15996" lon="5.00239">
        <ele>284.21</ele>
        <time>2018-12-10T13:03:32Z</time>
      </trkpt>
      <trkpt lat="44.15996" lon="5.0024">
        <ele>280.84</ele>
        <time>2018-12-10T13:03:34Z</time>
      </trkpt>
      <trkpt lat="44.15996" lon="5.00241">
        <ele>288.05</ele>
        <time>2018-12-10T13:03:35Z</time>
      </trkpt>
      <trkpt lat="44.15996" lon="5.0024">
        <ele>283.73</ele>
        <time>2018-12-10T13:03:36Z</time>
      </trkpt>
      <trkpt lat="44.15997" lon="5.00239">
        <ele>284.21</ele>
        <time>2018-12-10T13:03:55Z</time>
      </trkpt>
      <trkpt lat="44.15997" lon="5.00239">
        <ele>282.77</ele>
        <time>2018-12-10T13:04:04Z</time>
      </trkpt>
      <trkpt lat="44.15996" lon="5.00239">
        <ele>284.21</ele>
        <time>2018-12-10T13:04:29Z</time>
      </trkpt>
      <trkpt lat="44.15994" lon="5.0024">
        <ele>284.21</ele>
        <time>2018-12-10T13:04:52Z</time>
      </trkpt>
      <trkpt lat="44.15993" lon="5.0024">
        <ele>284.21</ele>
        <time>2018-12-10T13:05:15Z</time>
      </trkpt>
      <trkpt lat="44.16002" lon="5.00246">
        <ele>284.21</ele>
        <time>2018-12-10T13:05:32Z</time>
      </trkpt>
      <trkpt lat="44.16009" lon="5.00254">
        <ele>283.25</ele>
        <time>2018-12-10T13:05:41Z</time>
      </trkpt>
      <trkpt lat="44.16018" lon="5.00273">
        <ele>280.36</ele>
        <time>2018-12-10T13:06:01Z</time>
      </trkpt>
      <trkpt lat="44.16023" lon="5.00286">
        <ele>279.4</ele>
        <time>2018-12-10T13:06:17Z</time>
      </trkpt>
      <trkpt lat="44.16024" lon="5.00287">
        <ele>279.4</ele>
        <time>2018-12-10T13:06:18Z</time>
      </trkpt>
      <trkpt lat="44.16025" lon="5.00291">
        <ele>277.96</ele>
        <time>2018-12-10T13:06:21Z</time>
      </trkpt>
      <trkpt lat="44.16028" lon="5.00307">
        <ele>277</ele>
        <time>2018-12-10T13:06:38Z</time>
      </trkpt>
      <trkpt lat="44.16027" lon="5.00315">
        <ele>277.48</ele>
        <time>2018-12-10T13:06:44Z</time>
      </trkpt>
      <trkpt lat="44.16026" lon="5.00319">
        <ele>278.92</ele>
        <time>2018-12-10T13:06:47Z</time>
      </trkpt>
      <trkpt lat="44.16018" lon="5.00333">
        <ele>280.84</ele>
        <time>2018-12-10T13:07:04Z</time>
      </trkpt>
      <trkpt lat="44.16014" lon="5.0034">
        <ele>282.28</ele>
        <time>2018-12-10T13:07:16Z</time>
      </trkpt>
      <trkpt lat="44.16008" lon="5.00347">
        <ele>280.36</ele>
        <time>2018-12-10T13:07:26Z</time>
      </trkpt>
      <trkpt lat="44.16007" lon="5.00348">
        <ele>282.77</ele>
        <time>2018-12-10T13:07:28Z</time>
      </trkpt>
      <trkpt lat="44.16004" lon="5.0035">
        <ele>283.25</ele>
        <time>2018-12-10T13:07:33Z</time>
      </trkpt>
      <trkpt lat="44.16001" lon="5.00352">
        <ele>281.8</ele>
        <time>2018-12-10T13:07:36Z</time>
      </trkpt>
      <trkpt lat="44.15997" lon="5.00356">
        <ele>283.25</ele>
        <time>2018-12-10T13:07:42Z</time>
      </trkpt>
      <trkpt lat="44.1599" lon="5.0036">
        <ele>284.69</ele>
        <time>2018-12-10T13:07:50Z</time>
      </trkpt>
      <trkpt lat="44.15989" lon="5.00362">
        <ele>286.61</ele>
        <time>2018-12-10T13:07:53Z</time>
      </trkpt>
      <trkpt lat="44.15985" lon="5.00367">
        <ele>285.17</ele>
        <time>2018-12-10T13:07:59Z</time>
      </trkpt>
      <trkpt lat="44.15983" lon="5.00369">
        <ele>286.61</ele>
        <time>2018-12-10T13:08:03Z</time>
      </trkpt>
      <trkpt lat="44.15979" lon="5.00374">
        <ele>283.25</ele>
        <time>2018-12-10T13:08:09Z</time>
      </trkpt>
      <trkpt lat="44.15979" lon="5.00375">
        <ele>283.25</ele>
        <time>2018-12-10T13:08:10Z</time>
      </trkpt>
      <trkpt lat="44.15978" lon="5.00377">
        <ele>285.17</ele>
        <time>2018-12-10T13:08:12Z</time>
      </trkpt>
      <trkpt lat="44.15976" lon="5.00382">
        <ele>288.53</ele>
        <time>2018-12-10T13:08:16Z</time>
      </trkpt>
      <trkpt lat="44.15976" lon="5.00383">
        <ele>288.53</ele>
        <time>2018-12-10T13:08:17Z</time>
      </trkpt>
      <trkpt lat="44.15973" lon="5.00394">
        <ele>290.94</ele>
        <time>2018-12-10T13:08:29Z</time>
      </trkpt>
      <trkpt lat="44.15972" lon="5.00399">
        <ele>289.49</ele>
        <time>2018-12-10T13:08:34Z</time>
      </trkpt>
      <trkpt lat="44.15971" lon="5.00401">
        <ele>291.9</ele>
        <time>2018-12-10T13:08:36Z</time>
      </trkpt>
      <trkpt lat="44.15969" lon="5.00405">
        <ele>289.49</ele>
        <time>2018-12-10T13:08:40Z</time>
      </trkpt>
      <trkpt lat="44.15968" lon="5.00407">
        <ele>291.42</ele>
        <time>2018-12-10T13:08:42Z</time>
      </trkpt>
      <trkpt lat="44.15967" lon="5.00408">
        <ele>292.86</ele>
        <time>2018-12-10T13:08:44Z</time>
      </trkpt>
      <trkpt lat="44.15958" lon="5.0042">
        <ele>294.78</ele>
        <time>2018-12-10T13:08:59Z</time>
      </trkpt>
      <trkpt lat="44.15952" lon="5.0043">
        <ele>297.18</ele>
        <time>2018-12-10T13:09:13Z</time>
      </trkpt>
      <trkpt lat="44.15947" lon="5.00439">
        <ele>297.67</ele>
        <time>2018-12-10T13:09:23Z</time>
      </trkpt>
      <trkpt lat="44.15946" lon="5.00441">
        <ele>298.63</ele>
        <time>2018-12-10T13:09:25Z</time>
      </trkpt>
      <trkpt lat="44.15942" lon="5.00449">
        <ele>300.55</ele>
        <time>2018-12-10T13:09:32Z</time>
      </trkpt>
      <trkpt lat="44.15938" lon="5.00462">
        <ele>301.51</ele>
        <time>2018-12-10T13:09:47Z</time>
      </trkpt>
      <trkpt lat="44.15938" lon="5.00463">
        <ele>304.88</ele>
        <time>2018-12-10T13:09:49Z</time>
      </trkpt>
      <trkpt lat="44.15938" lon="5.0048">
        <ele>301.99</ele>
        <time>2018-12-10T13:10:05Z</time>
      </trkpt>
      <trkpt lat="44.15939" lon="5.00485">
        <ele>303.43</ele>
        <time>2018-12-10T13:10:10Z</time>
      </trkpt>
      <trkpt lat="44.1594" lon="5.00494">
        <ele>306.8</ele>
        <time>2018-12-10T13:10:21Z</time>
      </trkpt>
      <trkpt lat="44.15942" lon="5.00515">
        <ele>308.72</ele>
        <time>2018-12-10T13:10:38Z</time>
      </trkpt>
      <trkpt lat="44.15942" lon="5.00534">
        <ele>312.09</ele>
        <time>2018-12-10T13:10:55Z</time>
      </trkpt>
      <trkpt lat="44.15945" lon="5.00547">
        <ele>314.97</ele>
        <time>2018-12-10T13:11:11Z</time>
      </trkpt>
      <trkpt lat="44.15945" lon="5.00553">
        <ele>316.41</ele>
        <time>2018-12-10T13:11:18Z</time>
      </trkpt>
      <trkpt lat="44.15944" lon="5.0057">
        <ele>319.3</ele>
        <time>2018-12-10T13:11:33Z</time>
      </trkpt>
      <trkpt lat="44.15943" lon="5.00588">
        <ele>322.66</ele>
        <time>2018-12-10T13:11:49Z</time>
      </trkpt>
      <trkpt lat="44.15944" lon="5.00608">
        <ele>324.1</ele>
        <time>2018-12-10T13:12:07Z</time>
      </trkpt>
      <trkpt lat="44.15945" lon="5.00621">
        <ele>327.47</ele>
        <time>2018-12-10T13:12:20Z</time>
      </trkpt>
      <trkpt lat="44.15945" lon="5.00623">
        <ele>327.47</ele>
        <time>2018-12-10T13:12:21Z</time>
      </trkpt>
      <trkpt lat="44.15948" lon="5.00644">
        <ele>329.39</ele>
        <time>2018-12-10T13:12:40Z</time>
      </trkpt>
      <trkpt lat="44.15945" lon="5.00667">
        <ele>331.79</ele>
        <time>2018-12-10T13:12:58Z</time>
      </trkpt>
      <trkpt lat="44.15939" lon="5.00688">
        <ele>334.2</ele>
        <time>2018-12-10T13:13:14Z</time>
      </trkpt>
      <trkpt lat="44.15936" lon="5.00703">
        <ele>337.08</ele>
        <time>2018-12-10T13:13:28Z</time>
      </trkpt>
      <trkpt lat="44.15938" lon="5.007">
        <ele>335.64</ele>
        <time>2018-12-10T13:13:51Z</time>
      </trkpt>
      <trkpt lat="44.15938" lon="5.00702">
        <ele>340.44</ele>
        <time>2018-12-10T13:13:55Z</time>
      </trkpt>
      <trkpt lat="44.15938" lon="5.00703">
        <ele>336.12</ele>
        <time>2018-12-10T13:13:56Z</time>
      </trkpt>
      <trkpt lat="44.15937" lon="5.00708">
        <ele>337.08</ele>
        <time>2018-12-10T13:14:04Z</time>
      </trkpt>
      <trkpt lat="44.15934" lon="5.00729">
        <ele>339.96</ele>
        <time>2018-12-10T13:14:22Z</time>
      </trkpt>
      <trkpt lat="44.15933" lon="5.00747">
        <ele>340.92</ele>
        <time>2018-12-10T13:14:38Z</time>
      </trkpt>
      <trkpt lat="44.15934" lon="5.00763">
        <ele>343.33</ele>
        <time>2018-12-10T13:14:53Z</time>
      </trkpt>
      <trkpt lat="44.15933" lon="5.00782">
        <ele>345.73</ele>
        <time>2018-12-10T13:15:10Z</time>
      </trkpt>
      <trkpt lat="44.15927" lon="5.00799">
        <ele>349.1</ele>
        <time>2018-12-10T13:15:25Z</time>
      </trkpt>
      <trkpt lat="44.15924" lon="5.0082">
        <ele>350.06</ele>
        <time>2018-12-10T13:15:45Z</time>
      </trkpt>
      <trkpt lat="44.15922" lon="5.00842">
        <ele>351.02</ele>
        <time>2018-12-10T13:16:01Z</time>
      </trkpt>
      <trkpt lat="44.15922" lon="5.00861">
        <ele>351.98</ele>
        <time>2018-12-10T13:16:19Z</time>
      </trkpt>
      <trkpt lat="44.15922" lon="5.00861">
        <ele>353.9</ele>
        <time>2018-12-10T13:16:21Z</time>
      </trkpt>
      <trkpt lat="44.15922" lon="5.00862">
        <ele>351.98</ele>
        <time>2018-12-10T13:16:25Z</time>
      </trkpt>
      <trkpt lat="44.15921" lon="5.0086">
        <ele>350.06</ele>
        <time>2018-12-10T13:16:28Z</time>
      </trkpt>
      <trkpt lat="44.15922" lon="5.00861">
        <ele>353.42</ele>
        <time>2018-12-10T13:16:29Z</time>
      </trkpt>
      <trkpt lat="44.15922" lon="5.00861">
        <ele>351.02</ele>
        <time>2018-12-10T13:16:30Z</time>
      </trkpt>
      <trkpt lat="44.15922" lon="5.00861">
        <ele>354.38</ele>
        <time>2018-12-10T13:16:31Z</time>
      </trkpt>
      <trkpt lat="44.15922" lon="5.00861">
        <ele>351.02</ele>
        <time>2018-12-10T13:16:32Z</time>
      </trkpt>
      <trkpt lat="44.15922" lon="5.00861">
        <ele>355.83</ele>
        <time>2018-12-10T13:16:35Z</time>
      </trkpt>
      <trkpt lat="44.15923" lon="5.00862">
        <ele>352.46</ele>
        <time>2018-12-10T13:16:39Z</time>
      </trkpt>
      <trkpt lat="44.15922" lon="5.00862">
        <ele>353.42</ele>
        <time>2018-12-10T13:16:46Z</time>
      </trkpt>
      <trkpt lat="44.15923" lon="5.00862">
        <ele>353.9</ele>
        <time>2018-12-10T13:17:01Z</time>
      </trkpt>
      <trkpt lat="44.15922" lon="5.00861">
        <ele>352.46</ele>
        <time>2018-12-10T13:17:19Z</time>
      </trkpt>
      <trkpt lat="44.15921" lon="5.00863">
        <ele>352.94</ele>
        <time>2018-12-10T13:17:37Z</time>
      </trkpt>
      <trkpt lat="44.15921" lon="5.00862">
        <ele>351.98</ele>
        <time>2018-12-10T13:18:00Z</time>
      </trkpt>
      <trkpt lat="44.15918" lon="5.00856">
        <ele>354.86</ele>
        <time>2018-12-10T13:18:11Z</time>
      </trkpt>
      <trkpt lat="44.15911" lon="5.00844">
        <ele>354.86</ele>
        <time>2018-12-10T13:18:27Z</time>
      </trkpt>
      <trkpt lat="44.1591" lon="5.00845">
        <ele>356.79</ele>
        <time>2018-12-10T13:18:39Z</time>
      </trkpt>
      <trkpt lat="44.1591" lon="5.00843">
        <ele>355.83</ele>
        <time>2018-12-10T13:19:01Z</time>
      </trkpt>
      <trkpt lat="44.1591" lon="5.00845">
        <ele>356.31</ele>
        <time>2018-12-10T13:19:16Z</time>
      </trkpt>
      <trkpt lat="44.15911" lon="5.00845">
        <ele>355.34</ele>
        <time>2018-12-10T13:19:21Z</time>
      </trkpt>
      <trkpt lat="44.15912" lon="5.00845">
        <ele>354.38</ele>
        <time>2018-12-10T13:19:51Z</time>
      </trkpt>
      <trkpt lat="44.15912" lon="5.00843">
        <ele>354.38</ele>
        <time>2018-12-10T13:19:56Z</time>
      </trkpt>
      <trkpt lat="44.1591" lon="5.00845">
        <ele>354.38</ele>
        <time>2018-12-10T13:19:58Z</time>
      </trkpt>
      <trkpt lat="44.15911" lon="5.00843">
        <ele>355.83</ele>
        <time>2018-12-10T13:20:00Z</time>
      </trkpt>
      <trkpt lat="44.1591" lon="5.00845">
        <ele>355.34</ele>
        <time>2018-12-10T13:20:18Z</time>
      </trkpt>
      <trkpt lat="44.15909" lon="5.00849">
        <ele>355.34</ele>
        <time>2018-12-10T13:20:36Z</time>
      </trkpt>
      <trkpt lat="44.15909" lon="5.0085">
        <ele>355.83</ele>
        <time>2018-12-10T13:20:52Z</time>
      </trkpt>
      <trkpt lat="44.15907" lon="5.00853">
        <ele>357.75</ele>
        <time>2018-12-10T13:21:14Z</time>
      </trkpt>
      <trkpt lat="44.15913" lon="5.00843">
        <ele>355.34</ele>
        <time>2018-12-10T13:21:38Z</time>
      </trkpt>
      <trkpt lat="44.15913" lon="5.00842">
        <ele>354.38</ele>
        <time>2018-12-10T13:21:51Z</time>
      </trkpt>
      <trkpt lat="44.15914" lon="5.0084">
        <ele>356.79</ele>
        <time>2018-12-10T13:21:53Z</time>
      </trkpt>
      <trkpt lat="44.15913" lon="5.00841">
        <ele>355.83</ele>
        <time>2018-12-10T13:21:55Z</time>
      </trkpt>
      <trkpt lat="44.15907" lon="5.00844">
        <ele>357.27</ele>
        <time>2018-12-10T13:22:01Z</time>
      </trkpt>
      <trkpt lat="44.159" lon="5.00849">
        <ele>359.19</ele>
        <time>2018-12-10T13:22:10Z</time>
      </trkpt>
      <trkpt lat="44.15889" lon="5.00857">
        <ele>361.59</ele>
        <time>2018-12-10T13:22:27Z</time>
      </trkpt>
      <trkpt lat="44.15883" lon="5.00862">
        <ele>362.55</ele>
        <time>2018-12-10T13:22:38Z</time>
      </trkpt>
      <trkpt lat="44.15873" lon="5.00871">
        <ele>364</ele>
        <time>2018-12-10T13:22:55Z</time>
      </trkpt>
      <trkpt lat="44.15859" lon="5.00872">
        <ele>365.44</ele>
        <time>2018-12-10T13:23:11Z</time>
      </trkpt>
      <trkpt lat="44.15857" lon="5.00868">
        <ele>365.92</ele>
        <time>2018-12-10T13:23:19Z</time>
      </trkpt>
      <trkpt lat="44.15857" lon="5.00867">
        <ele>368.8</ele>
        <time>2018-12-10T13:23:23Z</time>
      </trkpt>
      <trkpt lat="44.15847" lon="5.00865">
        <ele>366.4</ele>
        <time>2018-12-10T13:23:37Z</time>
      </trkpt>
      <trkpt lat="44.15845" lon="5.00864">
        <ele>367.84</ele>
        <time>2018-12-10T13:23:40Z</time>
      </trkpt>
      <trkpt lat="44.15834" lon="5.0086">
        <ele>369.76</ele>
        <time>2018-12-10T13:23:55Z</time>
      </trkpt>
      <trkpt lat="44.15828" lon="5.00858">
        <ele>371.21</ele>
        <time>2018-12-10T13:24:03Z</time>
      </trkpt>
      <trkpt lat="44.15823" lon="5.00856">
        <ele>373.13</ele>
        <time>2018-12-10T13:24:11Z</time>
      </trkpt>
      <trkpt lat="44.15818" lon="5.00855">
        <ele>373.61</ele>
        <time>2018-12-10T13:24:17Z</time>
      </trkpt>
      <trkpt lat="44.15805" lon="5.00862">
        <ele>375.05</ele>
        <time>2018-12-10T13:24:31Z</time>
      </trkpt>
      <trkpt lat="44.15801" lon="5.00864">
        <ele>373.61</ele>
        <time>2018-12-10T13:24:36Z</time>
      </trkpt>
      <trkpt lat="44.15793" lon="5.00872">
        <ele>374.57</ele>
        <time>2018-12-10T13:24:47Z</time>
      </trkpt>
      <trkpt lat="44.15787" lon="5.00875">
        <ele>375.53</ele>
        <time>2018-12-10T13:24:54Z</time>
      </trkpt>
      <trkpt lat="44.15781" lon="5.00879">
        <ele>375.53</ele>
        <time>2018-12-10T13:25:01Z</time>
      </trkpt>
      <trkpt lat="44.15771" lon="5.00893">
        <ele>376.97</ele>
        <time>2018-12-10T13:25:17Z</time>
      </trkpt>
      <trkpt lat="44.15761" lon="5.00908">
        <ele>377.94</ele>
        <time>2018-12-10T13:25:33Z</time>
      </trkpt>
      <trkpt lat="44.1575" lon="5.00923">
        <ele>379.38</ele>
        <time>2018-12-10T13:25:47Z</time>
      </trkpt>
      <trkpt lat="44.15737" lon="5.00934">
        <ele>380.82</ele>
        <time>2018-12-10T13:26:02Z</time>
      </trkpt>
      <trkpt lat="44.15727" lon="5.00943">
        <ele>380.82</ele>
        <time>2018-12-10T13:26:14Z</time>
      </trkpt>
      <trkpt lat="44.15715" lon="5.00955">
        <ele>383.7</ele>
        <time>2018-12-10T13:26:31Z</time>
      </trkpt>
      <trkpt lat="44.15707" lon="5.00968">
        <ele>385.63</ele>
        <time>2018-12-10T13:26:48Z</time>
      </trkpt>
      <trkpt lat="44.15701" lon="5.00982">
        <ele>387.07</ele>
        <time>2018-12-10T13:27:04Z</time>
      </trkpt>
      <trkpt lat="44.15694" lon="5.00995">
        <ele>388.99</ele>
        <time>2018-12-10T13:27:20Z</time>
      </trkpt>
      <trkpt lat="44.15689" lon="5.00999">
        <ele>389.47</ele>
        <time>2018-12-10T13:27:33Z</time>
      </trkpt>
      <trkpt lat="44.15688" lon="5.01004">
        <ele>392.84</ele>
        <time>2018-12-10T13:27:40Z</time>
      </trkpt>
      <trkpt lat="44.1569" lon="5.01002">
        <ele>390.43</ele>
        <time>2018-12-10T13:27:43Z</time>
      </trkpt>
      <trkpt lat="44.15691" lon="5.00999">
        <ele>386.11</ele>
        <time>2018-12-10T13:27:50Z</time>
      </trkpt>
      <trkpt lat="44.15691" lon="5.00998">
        <ele>390.91</ele>
        <time>2018-12-10T13:27:51Z</time>
      </trkpt>
      <trkpt lat="44.15689" lon="5.00998">
        <ele>389.47</ele>
        <time>2018-12-10T13:27:53Z</time>
      </trkpt>
      <trkpt lat="44.1569" lon="5.00997">
        <ele>389.47</ele>
        <time>2018-12-10T13:27:54Z</time>
      </trkpt>
      <trkpt lat="44.1569" lon="5.01001">
        <ele>390.91</ele>
        <time>2018-12-10T13:28:08Z</time>
      </trkpt>
      <trkpt lat="44.15694" lon="5.01008">
        <ele>391.39</ele>
        <time>2018-12-10T13:28:26Z</time>
      </trkpt>
      <trkpt lat="44.15696" lon="5.01008">
        <ele>389.95</ele>
        <time>2018-12-10T13:28:33Z</time>
      </trkpt>
      <trkpt lat="44.15697" lon="5.01008">
        <ele>391.39</ele>
        <time>2018-12-10T13:28:37Z</time>
      </trkpt>
      <trkpt lat="44.15692" lon="5.0101">
        <ele>392.36</ele>
        <time>2018-12-10T13:28:51Z</time>
      </trkpt>
      <trkpt lat="44.15694" lon="5.01013">
        <ele>393.8</ele>
        <time>2018-12-10T13:29:03Z</time>
      </trkpt>
      <trkpt lat="44.15697" lon="5.01015">
        <ele>394.28</ele>
        <time>2018-12-10T13:29:17Z</time>
      </trkpt>
      <trkpt lat="44.15696" lon="5.01016">
        <ele>394.76</ele>
        <time>2018-12-10T13:29:33Z</time>
      </trkpt>
      <trkpt lat="44.15698" lon="5.01015">
        <ele>395.24</ele>
        <time>2018-12-10T13:29:58Z</time>
      </trkpt>
      <trkpt lat="44.15698" lon="5.01016">
        <ele>388.99</ele>
        <time>2018-12-10T13:30:18Z</time>
      </trkpt>
      <trkpt lat="44.15698" lon="5.01016">
        <ele>395.72</ele>
        <time>2018-12-10T13:30:19Z</time>
      </trkpt>
      <trkpt lat="44.15696" lon="5.01014">
        <ele>395.24</ele>
        <time>2018-12-10T13:30:44Z</time>
      </trkpt>
      <trkpt lat="44.15694" lon="5.01013">
        <ele>395.24</ele>
        <time>2018-12-10T13:31:20Z</time>
      </trkpt>
      <trkpt lat="44.15693" lon="5.01012">
        <ele>392.36</ele>
        <time>2018-12-10T13:31:25Z</time>
      </trkpt>
      <trkpt lat="44.15692" lon="5.01012">
        <ele>397.64</ele>
        <time>2018-12-10T13:31:26Z</time>
      </trkpt>
      <trkpt lat="44.15691" lon="5.01013">
        <ele>395.72</ele>
        <time>2018-12-10T13:31:29Z</time>
      </trkpt>
      <trkpt lat="44.15683" lon="5.01021">
        <ele>397.16</ele>
        <time>2018-12-10T13:31:39Z</time>
      </trkpt>
      <trkpt lat="44.15668" lon="5.01028">
        <ele>398.12</ele>
        <time>2018-12-10T13:31:53Z</time>
      </trkpt>
      <trkpt lat="44.15658" lon="5.01021">
        <ele>400.53</ele>
        <time>2018-12-10T13:32:08Z</time>
      </trkpt>
      <trkpt lat="44.15653" lon="5.01016">
        <ele>401.49</ele>
        <time>2018-12-10T13:32:14Z</time>
      </trkpt>
      <trkpt lat="44.15644" lon="5.01008">
        <ele>396.2</ele>
        <time>2018-12-10T13:32:26Z</time>
      </trkpt>
      <trkpt lat="44.15644" lon="5.01008">
        <ele>403.41</ele>
        <time>2018-12-10T13:32:27Z</time>
      </trkpt>
      <trkpt lat="44.15643" lon="5.01008">
        <ele>407.74</ele>
        <time>2018-12-10T13:32:29Z</time>
      </trkpt>
      <trkpt lat="44.15644" lon="5.01008">
        <ele>397.16</ele>
        <time>2018-12-10T13:32:30Z</time>
      </trkpt>
      <trkpt lat="44.15643" lon="5.01007">
        <ele>409.18</ele>
        <time>2018-12-10T13:32:31Z</time>
      </trkpt>
      <trkpt lat="44.15642" lon="5.01007">
        <ele>402.93</ele>
        <time>2018-12-10T13:32:32Z</time>
      </trkpt>
      <trkpt lat="44.15627" lon="5.01006">
        <ele>405.81</ele>
        <time>2018-12-10T13:32:44Z</time>
      </trkpt>
      <trkpt lat="44.15624" lon="5.01006">
        <ele>406.77</ele>
        <time>2018-12-10T13:32:47Z</time>
      </trkpt>
      <trkpt lat="44.15622" lon="5.01007">
        <ele>407.74</ele>
        <time>2018-12-10T13:32:49Z</time>
      </trkpt>
      <trkpt lat="44.15616" lon="5.01009">
        <ele>408.7</ele>
        <time>2018-12-10T13:32:57Z</time>
      </trkpt>
      <trkpt lat="44.15605" lon="5.01011">
        <ele>410.62</ele>
        <time>2018-12-10T13:33:12Z</time>
      </trkpt>
      <trkpt lat="44.15593" lon="5.01016">
        <ele>414.47</ele>
        <time>2018-12-10T13:33:26Z</time>
      </trkpt>
      <trkpt lat="44.15591" lon="5.01023">
        <ele>414.47</ele>
        <time>2018-12-10T13:33:36Z</time>
      </trkpt>
      <trkpt lat="44.15601" lon="5.01027">
        <ele>413.98</ele>
        <time>2018-12-10T13:33:49Z</time>
      </trkpt>
      <trkpt lat="44.15621" lon="5.01035">
        <ele>416.87</ele>
        <time>2018-12-10T13:34:07Z</time>
      </trkpt>
      <trkpt lat="44.15638" lon="5.01049">
        <ele>417.35</ele>
        <time>2018-12-10T13:34:27Z</time>
      </trkpt>
      <trkpt lat="44.15651" lon="5.01062">
        <ele>417.35</ele>
        <time>2018-12-10T13:34:44Z</time>
      </trkpt>
      <trkpt lat="44.15664" lon="5.01073">
        <ele>419.27</ele>
        <time>2018-12-10T13:35:01Z</time>
      </trkpt>
      <trkpt lat="44.15675" lon="5.01083">
        <ele>421.19</ele>
        <time>2018-12-10T13:35:17Z</time>
      </trkpt>
      <trkpt lat="44.15679" lon="5.01089">
        <ele>422.16</ele>
        <time>2018-12-10T13:35:35Z</time>
      </trkpt>
      <trkpt lat="44.15686" lon="5.01093">
        <ele>422.16</ele>
        <time>2018-12-10T13:35:43Z</time>
      </trkpt>
      <trkpt lat="44.15697" lon="5.01103">
        <ele>424.08</ele>
        <time>2018-12-10T13:35:59Z</time>
      </trkpt>
      <trkpt lat="44.15708" lon="5.01111">
        <ele>425.52</ele>
        <time>2018-12-10T13:36:15Z</time>
      </trkpt>
      <trkpt lat="44.15714" lon="5.01116">
        <ele>426</ele>
        <time>2018-12-10T13:36:28Z</time>
      </trkpt>
      <trkpt lat="44.15718" lon="5.01133">
        <ele>427.44</ele>
        <time>2018-12-10T13:36:45Z</time>
      </trkpt>
      <trkpt lat="44.15717" lon="5.01147">
        <ele>428.89</ele>
        <time>2018-12-10T13:37:01Z</time>
      </trkpt>
      <trkpt lat="44.15716" lon="5.01153">
        <ele>428.4</ele>
        <time>2018-12-10T13:37:28Z</time>
      </trkpt>
      <trkpt lat="44.15711" lon="5.01161">
        <ele>426.96</ele>
        <time>2018-12-10T13:37:42Z</time>
      </trkpt>
      <trkpt lat="44.15707" lon="5.01171">
        <ele>427.92</ele>
        <time>2018-12-10T13:37:53Z</time>
      </trkpt>
      <trkpt lat="44.157" lon="5.01183">
        <ele>426.96</ele>
        <time>2018-12-10T13:38:08Z</time>
      </trkpt>
      <trkpt lat="44.157" lon="5.01184">
        <ele>423.12</ele>
        <time>2018-12-10T13:38:11Z</time>
      </trkpt>
      <trkpt lat="44.157" lon="5.01184">
        <ele>429.85</ele>
        <time>2018-12-10T13:38:12Z</time>
      </trkpt>
      <trkpt lat="44.15701" lon="5.01184">
        <ele>427.92</ele>
        <time>2018-12-10T13:38:13Z</time>
      </trkpt>
      <trkpt lat="44.15702" lon="5.01186">
        <ele>427.44</ele>
        <time>2018-12-10T13:38:24Z</time>
      </trkpt>
      <trkpt lat="44.157" lon="5.01193">
        <ele>427.92</ele>
        <time>2018-12-10T13:38:44Z</time>
      </trkpt>
      <trkpt lat="44.15695" lon="5.01206">
        <ele>425.52</ele>
        <time>2018-12-10T13:38:58Z</time>
      </trkpt>
      <trkpt lat="44.15689" lon="5.0122">
        <ele>425.52</ele>
        <time>2018-12-10T13:39:11Z</time>
      </trkpt>
      <trkpt lat="44.15685" lon="5.0123">
        <ele>427.92</ele>
        <time>2018-12-10T13:39:20Z</time>
      </trkpt>
      <trkpt lat="44.15684" lon="5.01232">
        <ele>426.48</ele>
        <time>2018-12-10T13:39:22Z</time>
      </trkpt>
      <trkpt lat="44.15682" lon="5.01237">
        <ele>425.04</ele>
        <time>2018-12-10T13:39:27Z</time>
      </trkpt>
      <trkpt lat="44.15674" lon="5.01255">
        <ele>424.56</ele>
        <time>2018-12-10T13:39:44Z</time>
      </trkpt>
      <trkpt lat="44.15668" lon="5.01273">
        <ele>422.16</ele>
        <time>2018-12-10T13:39:58Z</time>
      </trkpt>
      <trkpt lat="44.15664" lon="5.01288">
        <ele>424.08</ele>
        <time>2018-12-10T13:40:09Z</time>
      </trkpt>
      <trkpt lat="44.15663" lon="5.01295">
        <ele>422.64</ele>
        <time>2018-12-10T13:40:14Z</time>
      </trkpt>
      <trkpt lat="44.15659" lon="5.0132">
        <ele>424.08</ele>
        <time>2018-12-10T13:40:33Z</time>
      </trkpt>
      <trkpt lat="44.15655" lon="5.01339">
        <ele>422.64</ele>
        <time>2018-12-10T13:40:47Z</time>
      </trkpt>
      <trkpt lat="44.15653" lon="5.0135">
        <ele>420.71</ele>
        <time>2018-12-10T13:40:56Z</time>
      </trkpt>
      <trkpt lat="44.15651" lon="5.01363">
        <ele>421.19</ele>
        <time>2018-12-10T13:41:06Z</time>
      </trkpt>
      <trkpt lat="44.15648" lon="5.01378">
        <ele>420.23</ele>
        <time>2018-12-10T13:41:17Z</time>
      </trkpt>
      <trkpt lat="44.15647" lon="5.01384">
        <ele>421.68</ele>
        <time>2018-12-10T13:41:22Z</time>
      </trkpt>
      <trkpt lat="44.15646" lon="5.01387">
        <ele>420.23</ele>
        <time>2018-12-10T13:41:24Z</time>
      </trkpt>
      <trkpt lat="44.15644" lon="5.01417">
        <ele>417.83</ele>
        <time>2018-12-10T13:41:44Z</time>
      </trkpt>
      <trkpt lat="44.15643" lon="5.01448">
        <ele>420.23</ele>
        <time>2018-12-10T13:42:05Z</time>
      </trkpt>
      <trkpt lat="44.15643" lon="5.01453">
        <ele>418.79</ele>
        <time>2018-12-10T13:42:08Z</time>
      </trkpt>
      <trkpt lat="44.15644" lon="5.01473">
        <ele>417.83</ele>
        <time>2018-12-10T13:42:22Z</time>
      </trkpt>
      <trkpt lat="44.15645" lon="5.01479">
        <ele>419.27</ele>
        <time>2018-12-10T13:42:27Z</time>
      </trkpt>
      <trkpt lat="44.15645" lon="5.015">
        <ele>417.83</ele>
        <time>2018-12-10T13:42:42Z</time>
      </trkpt>
      <trkpt lat="44.15648" lon="5.01529">
        <ele>416.87</ele>
        <time>2018-12-10T13:43:04Z</time>
      </trkpt>
      <trkpt lat="44.15648" lon="5.01534">
        <ele>418.79</ele>
        <time>2018-12-10T13:43:08Z</time>
      </trkpt>
      <trkpt lat="44.15647" lon="5.01538">
        <ele>416.87</ele>
        <time>2018-12-10T13:43:12Z</time>
      </trkpt>
      <trkpt lat="44.15647" lon="5.01544">
        <ele>416.87</ele>
        <time>2018-12-10T13:43:16Z</time>
      </trkpt>
      <trkpt lat="44.15647" lon="5.01573">
        <ele>414.95</ele>
        <time>2018-12-10T13:43:38Z</time>
      </trkpt>
      <trkpt lat="44.15647" lon="5.01575">
        <ele>414.95</ele>
        <time>2018-12-10T13:43:39Z</time>
      </trkpt>
      <trkpt lat="44.1565" lon="5.01587">
        <ele>416.39</ele>
        <time>2018-12-10T13:43:46Z</time>
      </trkpt>
      <trkpt lat="44.15652" lon="5.01593">
        <ele>414.95</ele>
        <time>2018-12-10T13:43:51Z</time>
      </trkpt>
      <trkpt lat="44.1566" lon="5.01614">
        <ele>415.43</ele>
        <time>2018-12-10T13:44:08Z</time>
      </trkpt>
      <trkpt lat="44.15662" lon="5.0162">
        <ele>414.47</ele>
        <time>2018-12-10T13:44:13Z</time>
      </trkpt>
      <trkpt lat="44.15669" lon="5.01647">
        <ele>412.54</ele>
        <time>2018-12-10T13:44:34Z</time>
      </trkpt>
      <trkpt lat="44.15672" lon="5.01658">
        <ele>413.5</ele>
        <time>2018-12-10T13:44:48Z</time>
      </trkpt>
      <trkpt lat="44.15673" lon="5.01658">
        <ele>410.62</ele>
        <time>2018-12-10T13:44:54Z</time>
      </trkpt>
      <trkpt lat="44.15673" lon="5.0166">
        <ele>408.7</ele>
        <time>2018-12-10T13:44:57Z</time>
      </trkpt>
      <trkpt lat="44.15674" lon="5.01682">
        <ele>413.5</ele>
        <time>2018-12-10T13:45:15Z</time>
      </trkpt>
      <trkpt lat="44.15674" lon="5.01682">
        <ele>411.58</ele>
        <time>2018-12-10T13:45:16Z</time>
      </trkpt>
      <trkpt lat="44.15674" lon="5.01685">
        <ele>408.7</ele>
        <time>2018-12-10T13:45:18Z</time>
      </trkpt>
      <trkpt lat="44.15674" lon="5.01691">
        <ele>409.18</ele>
        <time>2018-12-10T13:45:23Z</time>
      </trkpt>
      <trkpt lat="44.15671" lon="5.0171">
        <ele>408.22</ele>
        <time>2018-12-10T13:45:42Z</time>
      </trkpt>
      <trkpt lat="44.15665" lon="5.01721">
        <ele>409.18</ele>
        <time>2018-12-10T13:46:01Z</time>
      </trkpt>
      <trkpt lat="44.15664" lon="5.01728">
        <ele>407.74</ele>
        <time>2018-12-10T13:46:07Z</time>
      </trkpt>
      <trkpt lat="44.1566" lon="5.01747">
        <ele>406.77</ele>
        <time>2018-12-10T13:46:22Z</time>
      </trkpt>
      <trkpt lat="44.15661" lon="5.01763">
        <ele>406.77</ele>
        <time>2018-12-10T13:46:33Z</time>
      </trkpt>
      <trkpt lat="44.15665" lon="5.01774">
        <ele>408.22</ele>
        <time>2018-12-10T13:46:41Z</time>
      </trkpt>
      <trkpt lat="44.15667" lon="5.01776">
        <ele>407.26</ele>
        <time>2018-12-10T13:46:43Z</time>
      </trkpt>
      <trkpt lat="44.15678" lon="5.01786">
        <ele>407.26</ele>
        <time>2018-12-10T13:46:55Z</time>
      </trkpt>
      <trkpt lat="44.15687" lon="5.01809">
        <ele>407.26</ele>
        <time>2018-12-10T13:47:13Z</time>
      </trkpt>
      <trkpt lat="44.15688" lon="5.0182">
        <ele>408.7</ele>
        <time>2018-12-10T13:47:22Z</time>
      </trkpt>
      <trkpt lat="44.15689" lon="5.01825">
        <ele>407.26</ele>
        <time>2018-12-10T13:47:26Z</time>
      </trkpt>
      <trkpt lat="44.1569" lon="5.01829">
        <ele>406.77</ele>
        <time>2018-12-10T13:47:29Z</time>
      </trkpt>
      <trkpt lat="44.1569" lon="5.01837">
        <ele>409.18</ele>
        <time>2018-12-10T13:47:35Z</time>
      </trkpt>
      <trkpt lat="44.15689" lon="5.01871">
        <ele>406.29</ele>
        <time>2018-12-10T13:48:00Z</time>
      </trkpt>
      <trkpt lat="44.15689" lon="5.01894">
        <ele>404.37</ele>
        <time>2018-12-10T13:48:18Z</time>
      </trkpt>
      <trkpt lat="44.15688" lon="5.01921">
        <ele>405.81</ele>
        <time>2018-12-10T13:48:37Z</time>
      </trkpt>
      <trkpt lat="44.1569" lon="5.01943">
        <ele>407.74</ele>
        <time>2018-12-10T13:48:52Z</time>
      </trkpt>
      <trkpt lat="44.15691" lon="5.01949">
        <ele>404.37</ele>
        <time>2018-12-10T13:48:57Z</time>
      </trkpt>
      <trkpt lat="44.15694" lon="5.01961">
        <ele>400.53</ele>
        <time>2018-12-10T13:49:06Z</time>
      </trkpt>
      <trkpt lat="44.15694" lon="5.01963">
        <ele>400.53</ele>
        <time>2018-12-10T13:49:07Z</time>
      </trkpt>
      <trkpt lat="44.15694" lon="5.01965">
        <ele>401.97</ele>
        <time>2018-12-10T13:49:09Z</time>
      </trkpt>
      <trkpt lat="44.15695" lon="5.01968">
        <ele>400.53</ele>
        <time>2018-12-10T13:49:11Z</time>
      </trkpt>
      <trkpt lat="44.157" lon="5.01986">
        <ele>401.01</ele>
        <time>2018-12-10T13:49:26Z</time>
      </trkpt>
      <trkpt lat="44.15703" lon="5.02012">
        <ele>402.93</ele>
        <time>2018-12-10T13:49:45Z</time>
      </trkpt>
      <trkpt lat="44.15704" lon="5.02023">
        <ele>403.41</ele>
        <time>2018-12-10T13:49:53Z</time>
      </trkpt>
      <trkpt lat="44.15717" lon="5.02041">
        <ele>401.97</ele>
        <time>2018-12-10T13:50:10Z</time>
      </trkpt>
      <trkpt lat="44.15726" lon="5.02066">
        <ele>400.53</ele>
        <time>2018-12-10T13:50:30Z</time>
      </trkpt>
      <trkpt lat="44.15731" lon="5.02091">
        <ele>401.49</ele>
        <time>2018-12-10T13:50:49Z</time>
      </trkpt>
      <trkpt lat="44.15737" lon="5.02104">
        <ele>400.05</ele>
        <time>2018-12-10T13:51:00Z</time>
      </trkpt>
      <trkpt lat="44.1575" lon="5.02117">
        <ele>398.12</ele>
        <time>2018-12-10T13:51:15Z</time>
      </trkpt>
      <trkpt lat="44.15767" lon="5.0213">
        <ele>396.2</ele>
        <time>2018-12-10T13:51:35Z</time>
      </trkpt>
      <trkpt lat="44.15775" lon="5.02139">
        <ele>394.76</ele>
        <time>2018-12-10T13:51:44Z</time>
      </trkpt>
      <trkpt lat="44.15784" lon="5.0215">
        <ele>398.12</ele>
        <time>2018-12-10T13:51:57Z</time>
      </trkpt>
      <trkpt lat="44.15784" lon="5.02151">
        <ele>398.12</ele>
        <time>2018-12-10T13:51:58Z</time>
      </trkpt>
      <trkpt lat="44.15789" lon="5.02162">
        <ele>396.2</ele>
        <time>2018-12-10T13:52:07Z</time>
      </trkpt>
      <trkpt lat="44.15795" lon="5.02188">
        <ele>395.72</ele>
        <time>2018-12-10T13:52:26Z</time>
      </trkpt>
      <trkpt lat="44.15796" lon="5.02193">
        <ele>396.68</ele>
        <time>2018-12-10T13:52:30Z</time>
      </trkpt>
      <trkpt lat="44.15797" lon="5.02196">
        <ele>399.08</ele>
        <time>2018-12-10T13:52:33Z</time>
      </trkpt>
      <trkpt lat="44.15798" lon="5.02198">
        <ele>396.2</ele>
        <time>2018-12-10T13:52:35Z</time>
      </trkpt>
      <trkpt lat="44.15799" lon="5.02206">
        <ele>397.64</ele>
        <time>2018-12-10T13:52:41Z</time>
      </trkpt>
      <trkpt lat="44.158" lon="5.02209">
        <ele>396.68</ele>
        <time>2018-12-10T13:52:43Z</time>
      </trkpt>
      <trkpt lat="44.15802" lon="5.0222">
        <ele>394.76</ele>
        <time>2018-12-10T13:52:52Z</time>
      </trkpt>
      <trkpt lat="44.15803" lon="5.02223">
        <ele>396.2</ele>
        <time>2018-12-10T13:52:55Z</time>
      </trkpt>
      <trkpt lat="44.15807" lon="5.02245">
        <ele>399.08</ele>
        <time>2018-12-10T13:53:13Z</time>
      </trkpt>
      <trkpt lat="44.15809" lon="5.02266">
        <ele>399.08</ele>
        <time>2018-12-10T13:53:29Z</time>
      </trkpt>
      <trkpt lat="44.1581" lon="5.02271">
        <ele>397.64</ele>
        <time>2018-12-10T13:53:33Z</time>
      </trkpt>
      <trkpt lat="44.15815" lon="5.02294">
        <ele>396.2</ele>
        <time>2018-12-10T13:53:52Z</time>
      </trkpt>
      <trkpt lat="44.15821" lon="5.02314">
        <ele>396.68</ele>
        <time>2018-12-10T13:54:08Z</time>
      </trkpt>
      <trkpt lat="44.15827" lon="5.02337">
        <ele>397.64</ele>
        <time>2018-12-10T13:54:26Z</time>
      </trkpt>
      <trkpt lat="44.15831" lon="5.0235">
        <ele>396.2</ele>
        <time>2018-12-10T13:54:35Z</time>
      </trkpt>
      <trkpt lat="44.15832" lon="5.02353">
        <ele>397.64</ele>
        <time>2018-12-10T13:54:37Z</time>
      </trkpt>
      <trkpt lat="44.15832" lon="5.02354">
        <ele>396.2</ele>
        <time>2018-12-10T13:54:38Z</time>
      </trkpt>
      <trkpt lat="44.15836" lon="5.02366">
        <ele>397.64</ele>
        <time>2018-12-10T13:54:47Z</time>
      </trkpt>
      <trkpt lat="44.15844" lon="5.02386">
        <ele>398.6</ele>
        <time>2018-12-10T13:55:03Z</time>
      </trkpt>
      <trkpt lat="44.15846" lon="5.02392">
        <ele>397.64</ele>
        <time>2018-12-10T13:55:08Z</time>
      </trkpt>
      <trkpt lat="44.15855" lon="5.02408">
        <ele>398.6</ele>
        <time>2018-12-10T13:55:24Z</time>
      </trkpt>
      <trkpt lat="44.15863" lon="5.02418">
        <ele>397.64</ele>
        <time>2018-12-10T13:55:36Z</time>
      </trkpt>
      <trkpt lat="44.15866" lon="5.02417">
        <ele>395.24</ele>
        <time>2018-12-10T13:55:40Z</time>
      </trkpt>
      <trkpt lat="44.15868" lon="5.02416">
        <ele>397.64</ele>
        <time>2018-12-10T13:55:44Z</time>
      </trkpt>
      <trkpt lat="44.15869" lon="5.02417">
        <ele>396.2</ele>
        <time>2018-12-10T13:55:47Z</time>
      </trkpt>
      <trkpt lat="44.15871" lon="5.02416">
        <ele>394.28</ele>
        <time>2018-12-10T13:55:51Z</time>
      </trkpt>
      <trkpt lat="44.15875" lon="5.02417">
        <ele>393.8</ele>
        <time>2018-12-10T13:56:06Z</time>
      </trkpt>
      <trkpt lat="44.15876" lon="5.02416">
        <ele>395.24</ele>
        <time>2018-12-10T13:56:17Z</time>
      </trkpt>
    </trkseg>
  </trk>
</gpx>